ftp/pub/palmer/observations_modified/2017/November/AR171117_BASE.txt
Download
Sample DateTime Unit Id WS Avg 2min WD Avg 2min WGS 10min WGD 10min Air Temp Rel Humidity Dew Point Pyranometer Quantum Air Pressure Snow Level Rainfall PW Current Visibility CBase 1 CBase 2 CBase 3 Vert Vis
2017/11/17 00:00:00 BASE 11.06 5 13.22 4 3.1 92 2.0 43 92 983.8 NA 0.0000 -SN 9999 5250 8690 0 0
2017/11/17 00:01:00 BASE 11.32 6 13.22 4 3.1 92 2.0 40 87 983.8 NA 0.0000 -SN 9999 5150 0 0 0
2017/11/17 00:02:00 BASE 10.62 7 13.22 4 3.2 92 2.0 39 84 983.9 NA 0.0000 -SN 9999 8760 0 0 0
2017/11/17 00:03:00 BASE 10.60 7 13.22 4 3.2 92 2.0 37 82 983.9 NA 0.0000 -SN 9999 8830 0 0 0
2017/11/17 00:04:00 BASE 10.84 6 13.22 4 3.2 91 1.9 37 81 983.9 NA 0.0000 9999 8690 0 0 0
2017/11/17 00:05:00 BASE 10.85 6 13.22 4 3.2 91 1.9 37 81 983.9 NA 0.0000 9999 0 0 0 1120
2017/11/17 00:06:00 BASE 10.87 6 13.22 4 3.2 91 1.8 39 83 983.8 NA 0.0000 9999 0 0 0 1050
2017/11/17 00:07:00 BASE 10.25 4 13.22 4 3.2 90 1.8 41 86 983.9 NA 0.0000 9999 8760 0 0 0
2017/11/17 00:08:00 BASE 10.05 8 13.22 4 3.2 90 1.7 44 88 983.9 NA 0.0000 9999 8760 0 0 0
2017/11/17 00:09:00 BASE 10.27 9 13.22 4 3.1 90 1.7 46 89 983.9 NA 0.0000 9999 8660 0 0 0
2017/11/17 00:10:00 BASE 10.75 11 12.60 4 3.1 90 1.7 42 84 983.8 NA 0.0000 9999 8630 0 0 0
2017/11/17 00:11:00 BASE 11.20 13 12.60 4 3.1 90 1.7 38 79 983.9 NA 0.0000 9999 8400 0 0 0
2017/11/17 00:12:00 BASE 10.48 10 12.60 4 3.1 91 1.7 38 76 983.9 NA 0.0000 9999 8500 9350 0 0
2017/11/17 00:13:00 BASE 9.68 6 12.60 4 3.1 91 1.7 36 72 983.9 NA 0.0000 9999 7970 0 0 0
2017/11/17 00:14:00 BASE 9.67 5 12.60 4 3.1 91 1.8 29 60 984.0 NA 0.0000 9999 8170 0 0 0
2017/11/17 00:15:00 BASE 9.92 6 12.60 4 3.1 91 1.8 21 47 984.0 NA 0.0000 9999 0 0 0 4330
2017/11/17 00:16:00 BASE 9.87 7 12.45 15 3.1 91 1.8 19 43 984.1 NA 0.0000 -SN 9999 520 0 0 0
2017/11/17 00:17:00 BASE 10.02 5 12.45 15 3.1 91 1.7 20 44 984.1 NA 0.0000 -SN 9000 590 0 0 0
2017/11/17 00:18:00 BASE 10.49 5 12.55 6 3.1 91 1.8 20 45 984.1 NA 0.0000 -SN 9999 660 0 0 0
2017/11/17 00:19:00 BASE 10.20 8 12.55 6 3.0 91 1.8 18 41 984.2 NA 0.0000 -SN 9999 720 0 0 0
2017/11/17 00:20:00 BASE 9.75 11 12.55 6 3.0 92 1.7 14 35 984.2 NA 0.0000 -SN 9999 620 0 0 0
2017/11/17 00:21:00 BASE 10.22 14 12.55 6 2.9 92 1.8 12 32 984.2 NA 0.0000 -SN 9999 430 0 0 0
2017/11/17 00:22:00 BASE 9.71 10 12.55 6 2.9 92 1.8 14 37 984.2 NA 0.2540 -SN 8000 520 0 0 0
2017/11/17 00:23:00 BASE 9.17 5 12.55 6 2.8 93 1.8 16 40 984.2 NA 0.0000 -SN 9999 0 0 0 5280
2017/11/17 00:24:00 BASE 9.64 5 12.55 6 2.7 93 1.8 18 43 984.2 NA 0.0000 -SN 9999 7580 0 0 0
2017/11/17 00:25:00 BASE 9.14 5 12.55 6 2.7 94 1.8 20 45 984.2 NA 0.0000 -SN 9999 8040 0 0 0
2017/11/17 00:26:00 BASE 8.84 9 12.55 6 2.7 94 1.9 21 48 984.2 NA 0.0000 -SN 9999 7550 0 0 0
2017/11/17 00:27:00 BASE 8.68 9 12.55 6 2.7 95 1.9 21 48 984.2 NA 0.0000 -SN 9999 4690 0 0 0
2017/11/17 00:28:00 BASE 8.58 5 11.83 15 2.7 95 2.0 21 48 984.2 NA 0.0000 -SN 9999 7710 0 0 0
2017/11/17 00:29:00 BASE 8.85 6 11.57 14 2.7 95 2.0 21 47 984.2 NA 0.0000 -SN 9999 4990 8040 0 0
2017/11/17 00:30:00 BASE 8.58 8 11.37 11 2.7 95 2.0 21 47 984.2 NA 0.0000 -SN 9999 7610 0 0 0
2017/11/17 00:31:00 BASE 8.25 7 10.44 2 2.7 95 2.0 21 47 984.2 NA 0.0000 -SN 9999 7380 0 0 0
2017/11/17 00:32:00 BASE 8.44 6 10.44 2 2.7 95 1.9 21 47 984.1 NA 0.0000 9999 7840 8790 0 0
2017/11/17 00:33:00 BASE 9.41 5 11.94 6 2.7 95 1.9 21 46 984.1 NA 0.0000 9999 5020 7970 0 0
2017/11/17 00:34:00 BASE 10.34 4 11.94 6 2.7 94 1.9 20 44 984.1 NA 0.0000 9999 4690 8300 0 0
2017/11/17 00:35:00 BASE 11.17 6 12.60 6 2.7 94 1.8 18 42 984.0 NA 0.0000 9999 4890 8330 0 0
2017/11/17 00:36:00 BASE 11.60 9 12.60 6 2.8 93 1.8 16 39 984.0 NA 0.0000 9999 8370 0 0 0
2017/11/17 00:37:00 BASE 11.29 8 12.60 6 2.8 93 1.7 14 36 984.1 NA 0.0000 9999 8630 0 0 0
2017/11/17 00:38:00 BASE 10.77 7 12.60 6 2.8 92 1.7 13 35 984.1 NA 0.0000 9999 9020 0 0 0
2017/11/17 00:39:00 BASE 10.99 8 12.60 6 2.8 92 1.6 13 35 984.0 NA 0.0000 9999 9120 0 0 0
2017/11/17 00:40:00 BASE 11.22 8 12.81 1 2.8 91 1.5 12 34 984.1 NA 0.0000 9999 0 0 0 0
2017/11/17 00:41:00 BASE 11.29 4 12.81 1 2.8 91 1.5 12 34 984.1 NA 0.0000 9999 0 0 0 0
2017/11/17 00:42:00 BASE 11.57 1 12.81 1 2.8 91 1.4 12 33 984.1 NA 0.0000 9999 0 0 0 0
2017/11/17 00:43:00 BASE 11.33 8 12.81 1 2.7 91 1.4 12 33 984.1 NA 0.0000 9999 8460 0 0 0
2017/11/17 00:44:00 BASE 11.26 11 12.81 1 2.7 91 1.4 11 32 984.1 NA 0.0000 9999 0 0 0 0
2017/11/17 00:45:00 BASE 10.66 7 12.81 1 2.7 92 1.5 11 32 984.1 NA 0.0000 9999 0 0 0 0
2017/11/17 00:46:00 BASE 10.41 10 13.02 17 2.7 92 1.5 11 31 984.0 NA 0.0000 9999 0 0 0 0
2017/11/17 00:47:00 BASE 10.06 13 13.02 17 2.7 92 1.5 10 30 984.1 NA 0.0000 9999 0 0 0 0
2017/11/17 00:48:00 BASE 9.89 10 13.02 17 2.6 92 1.5 10 30 984.0 NA 0.0000 9999 0 0 0 0
2017/11/17 00:49:00 BASE 11.07 7 13.02 17 2.6 92 1.5 10 29 983.9 NA 0.0000 9999 0 0 0 0
2017/11/17 00:50:00 BASE 11.36 10 13.02 17 2.6 92 1.5 10 28 984.0 NA 0.0000 9999 0 0 0 0
2017/11/17 00:51:00 BASE 10.79 15 13.02 17 2.6 92 1.4 10 28 984.0 NA 0.0000 9999 0 0 0 0
2017/11/17 00:52:00 BASE 10.44 11 13.02 17 2.6 92 1.4 10 27 984.0 NA 0.0000 9999 0 0 0 0
2017/11/17 00:53:00 BASE 10.71 8 13.02 17 2.6 92 1.4 10 27 984.0 NA 0.0000 9999 0 0 0 0
2017/11/17 00:54:00 BASE 11.34 10 13.07 9 2.5 92 1.4 10 27 984.0 NA 0.0000 9999 0 0 0 0
2017/11/17 00:55:00 BASE 11.12 10 13.07 9 2.5 93 1.5 11 27 984.0 NA 0.0000 9999 0 0 0 0
2017/11/17 00:56:00 BASE 10.72 9 13.07 9 2.5 93 1.4 11 26 984.0 NA 0.0000 9999 0 0 0 0
2017/11/17 00:57:00 BASE 11.36 11 13.07 9 2.5 93 1.4 10 25 983.9 NA 0.0000 9999 0 0 0 0
2017/11/17 00:58:00 BASE 11.67 13 13.12 4 2.5 92 1.4 10 25 984.0 NA 0.0000 9999 0 0 0 0
2017/11/17 00:59:00 BASE 12.37 14 14.15 17 2.5 92 1.4 10 24 983.9 NA 0.0000 9999 0 0 0 0
2017/11/17 01:00:00 BASE 12.20 13 14.15 17 2.5 92 1.3 10 23 984.0 NA 0.0000 9999 0 0 0 0
2017/11/17 01:01:00 BASE 10.96 12 14.15 17 2.5 92 1.3 9 22 984.0 NA 0.0000 9999 0 0 0 0
2017/11/17 01:02:00 BASE 10.95 11 14.15 17 2.5 92 1.3 9 22 984.0 NA 0.0000 9999 0 0 0 0
2017/11/17 01:03:00 BASE 10.61 8 14.15 17 2.5 92 1.3 9 21 984.1 NA 0.0000 9999 0 0 0 0
2017/11/17 01:04:00 BASE 10.58 9 14.15 17 2.5 92 1.3 9 20 984.0 NA 0.0000 9999 0 0 0 0
2017/11/17 01:05:00 BASE 11.06 11 14.15 17 2.5 92 1.3 8 20 984.0 NA 0.0000 9999 0 0 0 0
2017/11/17 01:06:00 BASE 10.90 13 14.15 17 2.5 92 1.3 8 19 984.0 NA 0.0000 9999 0 0 0 0
2017/11/17 01:07:00 BASE 10.69 13 14.15 17 2.5 92 1.3 8 18 984.0 NA 0.0000 9999 0 0 0 0
2017/11/17 01:08:00 BASE 10.52 8 14.15 17 2.5 91 1.2 8 18 984.0 NA 0.0000 9999 0 0 0 0
2017/11/17 01:09:00 BASE 10.05 9 13.17 16 2.5 91 1.2 7 17 984.0 NA 0.0000 9999 0 0 0 0
2017/11/17 01:10:00 BASE 9.82 11 13.17 16 2.5 91 1.2 7 16 984.1 NA 0.0000 9999 0 0 0 0
2017/11/17 01:11:00 BASE 10.20 10 13.17 16 2.5 91 1.1 7 16 984.0 NA 0.0000 9999 0 0 0 0
2017/11/17 01:12:00 BASE 11.35 13 13.17 16 2.4 91 1.1 7 15 983.9 NA 0.0000 9999 0 0 0 0
2017/11/17 01:13:00 BASE 11.88 17 13.17 16 2.4 91 1.1 6 15 984.0 NA 0.0000 9999 0 0 0 0
2017/11/17 01:14:00 BASE 11.61 17 13.43 14 2.5 91 1.1 6 14 984.0 NA 0.0000 9999 0 0 0 0
2017/11/17 01:15:00 BASE 11.66 15 13.43 14 2.5 90 1.0 6 14 983.9 NA 0.0000 9999 0 0 0 0
2017/11/17 01:16:00 BASE 11.87 16 13.43 14 2.5 90 1.0 6 14 984.0 NA 0.0000 9999 0 0 0 0
2017/11/17 01:17:00 BASE 11.94 18 13.43 14 2.5 89 0.9 6 13 984.0 NA 0.0000 9999 0 0 0 0
2017/11/17 01:18:00 BASE 11.70 16 13.43 14 2.5 89 0.8 6 12 984.0 NA 0.0000 9999 0 0 0 0
2017/11/17 01:19:00 BASE 11.60 17 13.43 14 2.5 88 0.8 6 12 984.0 NA 0.0000 9999 0 0 0 0
2017/11/17 01:20:00 BASE 10.90 18 13.43 14 2.5 88 0.7 5 11 984.1 NA 0.0000 9999 0 0 0 0
2017/11/17 01:21:00 BASE 10.25 19 13.43 14 2.5 88 0.7 5 11 984.1 NA 0.0000 9999 0 0 0 0
2017/11/17 01:22:00 BASE 10.19 18 13.43 14 2.5 88 0.7 5 11 984.1 NA 0.0000 9999 0 0 0 0
2017/11/17 01:23:00 BASE 10.56 20 13.43 14 2.5 88 0.7 5 10 984.1 NA 0.0000 9999 0 0 0 0
2017/11/17 01:24:00 BASE 11.08 21 13.38 19 2.5 88 0.7 5 10 984.1 NA 0.0000 9999 0 0 0 0
2017/11/17 01:25:00 BASE 10.84 21 13.38 19 2.5 88 0.7 5 10 984.1 NA 0.0000 9999 0 0 0 0
2017/11/17 01:26:00 BASE 10.81 20 13.12 8 2.5 88 0.7 5 9 984.1 NA 0.0000 9999 0 0 0 0
2017/11/17 01:27:00 BASE 10.46 19 13.12 8 2.5 87 0.6 4 9 984.1 NA 0.0000 9999 0 0 0 0
2017/11/17 01:28:00 BASE 10.48 20 12.86 11 2.6 87 0.6 4 9 984.1 NA 0.0000 9999 0 0 0 0
2017/11/17 01:29:00 BASE 10.16 18 12.76 11 2.6 86 0.5 4 8 984.1 NA 0.0000 9999 0 0 0 0
2017/11/17 01:30:00 BASE 9.61 17 12.76 11 2.6 86 0.5 4 8 984.1 NA 0.0000 9999 0 0 0 0
2017/11/17 01:31:00 BASE 10.05 18 12.76 11 2.6 86 0.5 4 8 984.1 NA 0.0000 9999 0 0 0 0
2017/11/17 01:32:00 BASE 10.28 18 12.76 11 2.6 86 0.4 4 7 984.1 NA 0.0000 9999 0 0 0 0
2017/11/17 01:33:00 BASE 10.67 17 12.76 11 2.6 86 0.4 3 7 984.1 NA 0.0000 9999 0 0 0 0
2017/11/17 01:34:00 BASE 10.56 19 12.76 11 2.5 86 0.4 3 7 984.1 NA 0.0000 9999 0 0 0 0
2017/11/17 01:35:00 BASE 9.60 20 12.76 11 2.5 85 0.3 3 7 984.1 NA 0.0000 9999 0 0 0 0
2017/11/17 01:36:00 BASE 9.57 19 12.45 29 2.5 85 0.3 3 6 984.1 NA 0.0000 9999 0 0 0 0
2017/11/17 01:37:00 BASE 10.41 20 12.55 21 2.5 85 0.2 3 6 984.1 NA 0.0000 9999 0 0 0 0
2017/11/17 01:38:00 BASE 10.98 22 12.71 22 2.5 85 0.2 3 6 984.1 NA 0.0000 9999 0 0 0 0
2017/11/17 01:39:00 BASE 11.05 20 12.71 22 2.5 85 0.2 3 5 984.1 NA 0.0000 9999 0 0 0 0
2017/11/17 01:40:00 BASE 11.23 20 14.61 25 2.5 85 0.2 3 5 984.1 NA 0.0000 9999 0 0 0 0
2017/11/17 01:41:00 BASE 11.11 22 14.61 25 2.6 84 0.2 2 5 984.1 NA 0.0000 9999 0 0 0 0
2017/11/17 01:42:00 BASE 10.27 21 14.61 25 2.6 84 0.1 2 5 984.1 NA 0.0000 9999 0 0 0 0
2017/11/17 01:43:00 BASE 9.98 19 14.61 25 2.6 83 0.0 2 4 984.2 NA 0.0000 9999 0 0 0 0
2017/11/17 01:44:00 BASE 10.24 19 14.61 25 2.6 83 -0.1 2 4 984.1 NA 0.0000 9999 0 0 0 0
2017/11/17 01:45:00 BASE 10.52 18 14.61 25 2.6 82 -0.2 2 4 984.1 NA 0.0000 9999 0 0 0 0
2017/11/17 01:46:00 BASE 10.86 18 14.61 25 2.6 82 -0.2 2 4 984.1 NA 0.0000 9999 0 0 0 0
2017/11/17 01:47:00 BASE 11.02 20 14.61 25 2.6 82 -0.3 2 4 984.1 NA 0.0000 9999 0 0 0 0
2017/11/17 01:48:00 BASE 10.93 22 14.61 25 2.6 81 -0.3 2 3 984.1 NA 0.0000 9999 0 0 0 0
2017/11/17 01:49:00 BASE 10.58 21 14.61 25 2.6 81 -0.4 2 3 984.2 NA 0.0000 9999 0 0 0 0
2017/11/17 01:50:00 BASE 10.53 20 13.48 27 2.6 80 -0.4 2 3 984.2 NA 0.0000 9999 0 0 0 0
2017/11/17 01:51:00 BASE 10.88 20 13.48 27 2.6 80 -0.5 1 3 984.2 NA 0.0000 9999 0 0 0 0
2017/11/17 01:52:00 BASE 10.65 20 13.48 27 2.6 79 -0.6 1 3 984.2 NA 0.0000 9999 15780 0 0 0
2017/11/17 01:53:00 BASE 10.65 21 13.48 27 2.6 79 -0.7 1 3 984.3 NA 0.0000 9999 15780 0 0 0
2017/11/17 01:54:00 BASE 10.66 22 13.48 27 2.6 78 -0.8 1 3 984.3 NA 0.0000 9999 15780 0 0 0
2017/11/17 01:55:00 BASE 10.15 22 13.48 27 2.6 78 -0.9 1 2 984.3 NA 0.0000 9999 15810 0 0 0
2017/11/17 01:56:00 BASE 9.75 21 13.48 27 2.6 77 -1.0 1 2 984.3 NA 0.0000 9999 15650 0 0 0
2017/11/17 01:57:00 BASE 9.28 22 12.55 18 2.6 77 -1.1 1 2 984.4 NA 0.0000 9999 15720 0 0 0
2017/11/17 01:58:00 BASE 8.85 22 12.55 18 2.5 76 -1.2 1 2 984.4 NA 0.0000 9999 15580 0 0 0
2017/11/17 01:59:00 BASE 9.13 22 12.55 18 2.5 76 -1.3 1 2 984.4 NA 0.0000 9999 15580 0 0 0
2017/11/17 02:00:00 BASE 9.26 23 12.55 18 2.4 76 -1.3 1 2 984.4 NA 0.0000 9999 15580 0 0 0
2017/11/17 02:01:00 BASE 8.98 23 11.88 24 2.4 76 -1.4 1 2 984.4 NA 0.0000 9999 15450 0 0 0
2017/11/17 02:02:00 BASE 9.00 23 11.88 24 2.4 76 -1.4 1 2 984.4 NA 0.0000 9999 15720 0 0 0
2017/11/17 02:03:00 BASE 9.11 23 11.88 24 2.3 76 -1.4 1 2 984.5 NA 0.0000 9999 15620 0 0 0
2017/11/17 02:04:00 BASE 9.32 24 11.11 20 2.3 76 -1.5 1 1 984.4 NA 0.0000 9999 15620 0 0 0
2017/11/17 02:05:00 BASE 9.27 23 10.80 23 2.3 76 -1.5 1 1 984.5 NA 0.0000 9999 15490 0 0 0
2017/11/17 02:06:00 BASE 9.09 24 10.75 16 2.3 76 -1.5 1 1 984.5 NA 0.0000 9999 15580 0 0 0
2017/11/17 02:07:00 BASE 9.20 22 10.75 16 2.3 76 -1.6 1 1 984.5 NA 0.0000 9999 15450 0 0 0
2017/11/17 02:08:00 BASE 9.22 20 10.75 16 2.3 76 -1.6 1 1 984.5 NA 0.0000 9999 15360 0 0 0
2017/11/17 02:09:00 BASE 9.54 20 12.66 16 2.3 75 -1.7 1 1 984.4 NA 0.0000 9999 15450 0 0 0
2017/11/17 02:10:00 BASE 9.43 18 12.66 16 2.3 75 -1.7 1 1 984.5 NA 0.0000 9999 15420 0 0 0
2017/11/17 02:11:00 BASE 8.99 18 12.66 16 2.3 74 -1.8 1 1 984.5 NA 0.0000 9999 15450 0 0 0
2017/11/17 02:12:00 BASE 9.01 21 12.66 16 2.3 74 -1.8 1 1 984.5 NA 0.0000 9999 15490 0 0 0
2017/11/17 02:13:00 BASE 8.95 21 12.66 16 2.3 74 -1.8 0 1 984.5 NA 0.0000 9999 15490 0 0 0
2017/11/17 02:14:00 BASE 9.58 20 12.66 16 2.4 74 -1.8 0 1 984.5 NA 0.0000 9999 15450 0 0 0
2017/11/17 02:15:00 BASE 9.47 21 12.66 16 2.4 74 -1.8 0 1 984.5 NA 0.0000 9999 15420 0 0 0
2017/11/17 02:16:00 BASE 8.77 24 12.66 16 2.4 74 -1.8 0 1 984.5 NA 0.0000 9999 15390 0 0 0
2017/11/17 02:17:00 BASE 9.30 28 12.66 16 2.4 74 -1.8 0 1 984.4 NA 0.0000 9999 15360 0 0 0
2017/11/17 02:18:00 BASE 9.84 30 12.66 16 2.4 74 -1.8 0 1 984.4 NA 0.0000 9999 15320 0 0 0
2017/11/17 02:19:00 BASE 10.00 29 12.04 31 2.4 74 -1.8 0 1 984.3 NA 0.0000 9999 15320 0 0 0
2017/11/17 02:20:00 BASE 10.12 30 12.04 31 2.4 74 -1.8 0 1 984.4 NA 0.0000 9999 15220 0 0 0
2017/11/17 02:21:00 BASE 10.45 30 12.04 31 2.4 74 -1.8 0 1 984.3 NA 0.0000 9999 15290 0 0 0
2017/11/17 02:22:00 BASE 10.25 28 12.24 21 2.3 74 -1.9 0 0 984.4 NA 0.0000 9999 15260 0 0 0
2017/11/17 02:23:00 BASE 10.43 28 13.02 25 2.3 74 -1.9 0 0 984.3 NA 0.0000 9999 15260 0 0 0
2017/11/17 02:24:00 BASE 10.97 28 13.02 25 2.3 74 -1.9 0 0 984.3 NA 0.0000 9999 15190 0 0 0
2017/11/17 02:25:00 BASE 10.49 27 13.02 25 2.3 74 -1.9 0 0 984.4 NA 0.0000 9999 15260 0 0 0
2017/11/17 02:26:00 BASE 10.38 26 13.02 25 2.3 74 -1.9 0 0 984.4 NA 0.0000 9999 15290 0 0 0
2017/11/17 02:27:00 BASE 10.34 24 13.02 25 2.3 74 -1.9 0 0 984.4 NA 0.0000 9999 15220 0 0 0
2017/11/17 02:28:00 BASE 9.55 24 13.02 25 2.3 74 -1.9 0 0 984.4 NA 0.0000 9999 15320 0 0 0
2017/11/17 02:29:00 BASE 9.05 23 13.02 25 2.3 74 -1.9 0 0 984.4 NA 0.0000 9999 15260 0 0 0
2017/11/17 02:30:00 BASE 8.83 20 13.02 25 2.3 74 -1.9 0 0 984.4 NA 0.0000 9999 15260 0 0 0
2017/11/17 02:31:00 BASE 8.69 21 13.02 25 2.3 74 -1.9 0 0 984.4 NA 0.0000 9999 15130 0 0 0
2017/11/17 02:32:00 BASE 9.14 23 13.02 25 2.3 74 -1.9 0 0 984.4 NA 0.0000 9999 15220 0 0 0
2017/11/17 02:33:00 BASE 9.49 26 12.71 21 2.3 74 -1.9 0 0 984.4 NA 0.0000 9999 15260 0 0 0
2017/11/17 02:34:00 BASE 9.14 28 11.68 16 2.3 74 -1.8 0 0 984.4 NA 0.0000 9999 15220 0 0 0
2017/11/17 02:35:00 BASE 8.82 25 11.68 16 2.3 74 -1.8 0 0 984.4 NA 0.0000 9999 15220 0 0 0
2017/11/17 02:36:00 BASE 9.06 28 11.68 16 2.3 74 -1.8 0 0 984.4 NA 0.0000 9999 15160 0 0 0
2017/11/17 02:37:00 BASE 9.52 30 11.68 16 2.3 74 -1.8 0 0 984.3 NA 0.0000 9999 15190 0 0 0
2017/11/17 02:38:00 BASE 9.51 29 11.68 16 2.3 74 -1.8 0 0 984.3 NA 0.0000 9999 15090 0 0 0
2017/11/17 02:39:00 BASE 9.52 31 11.68 16 2.3 74 -1.9 0 0 984.3 NA 0.0000 9999 14990 0 0 0
2017/11/17 02:40:00 BASE 10.02 31 12.45 31 2.3 74 -1.9 0 0 984.3 NA 0.0000 9999 14930 0 0 0
2017/11/17 02:41:00 BASE 9.93 31 12.45 31 2.3 74 -1.9 0 0 984.3 NA 0.0000 9999 14990 0 0 0
2017/11/17 02:42:00 BASE 9.80 31 12.45 31 2.3 74 -1.9 0 0 984.2 NA 0.0000 9999 14990 0 0 0
2017/11/17 02:43:00 BASE 10.14 29 12.45 31 2.3 74 -1.8 0 0 984.2 NA 0.0000 9999 15360 0 0 0
2017/11/17 02:44:00 BASE 10.22 30 12.45 31 2.3 74 -1.8 0 0 984.2 NA 0.0000 9999 14960 0 0 0
2017/11/17 02:45:00 BASE 10.01 32 12.45 31 2.3 74 -1.8 0 0 984.2 NA 0.0000 9999 14530 0 0 0
2017/11/17 02:46:00 BASE 9.80 31 12.45 31 2.3 74 -1.8 0 0 984.2 NA 0.0000 9999 14440 0 0 0
2017/11/17 02:47:00 BASE 10.00 28 12.45 31 2.3 74 -1.8 0 0 984.2 NA 0.0000 9999 14570 0 0 0
2017/11/17 02:48:00 BASE 10.01 28 12.45 31 2.3 74 -1.8 0 0 984.2 NA 0.0000 9999 14760 0 0 0
2017/11/17 02:49:00 BASE 10.19 34 12.45 31 2.3 74 -1.8 0 0 984.2 NA 0.0000 9999 14370 0 0 0
2017/11/17 02:50:00 BASE 10.62 35 12.24 22 2.3 74 -1.8 0 0 984.1 NA 0.0000 9999 14500 0 0 0
2017/11/17 02:51:00 BASE 10.46 32 12.24 22 2.3 74 -1.8 0 0 984.2 NA 0.0000 9999 14500 0 0 0
2017/11/17 02:52:00 BASE 9.87 32 12.24 22 2.3 74 -1.8 0 0 984.1 NA 0.0000 9999 14210 0 0 0
2017/11/17 02:53:00 BASE 9.81 30 12.24 23 2.3 74 -1.8 0 0 984.1 NA 0.0000 9999 14110 0 0 0
2017/11/17 02:54:00 BASE 10.17 28 12.24 23 2.3 74 -1.7 0 0 984.1 NA 0.0000 9999 13810 0 0 0
2017/11/17 02:55:00 BASE 9.72 27 12.24 23 2.3 74 -1.7 0 0 984.1 NA 0.0000 9999 13910 0 0 0
2017/11/17 02:56:00 BASE 9.94 25 12.71 30 2.3 75 -1.7 0 0 984.1 NA 0.0000 9999 13750 0 0 0
2017/11/17 02:57:00 BASE 10.54 23 12.71 30 2.4 75 -1.6 0 0 984.1 NA 0.0000 9999 13850 0 0 0
2017/11/17 02:58:00 BASE 9.95 23 12.71 30 2.4 75 -1.6 0 0 984.1 NA 0.0000 9999 13190 0 0 0
2017/11/17 02:59:00 BASE 9.45 24 12.71 30 2.4 75 -1.6 0 0 984.1 NA 0.0000 9999 12990 0 0 0
2017/11/17 03:00:00 BASE 9.38 24 12.71 30 2.4 75 -1.6 0 0 984.1 NA 0.0000 9999 12960 0 0 0
2017/11/17 03:01:00 BASE 9.39 22 12.71 30 2.4 75 -1.6 0 0 984.0 NA 0.0000 9999 12990 0 0 0
2017/11/17 03:02:00 BASE 10.03 19 12.71 30 2.4 75 -1.6 0 0 984.0 NA 0.0000 9999 12700 0 0 0
2017/11/17 03:03:00 BASE 10.20 22 12.71 30 2.4 75 -1.6 0 0 984.0 NA 0.0000 9999 12470 0 0 0
2017/11/17 03:04:00 BASE 10.04 21 12.71 30 2.4 75 -1.6 0 0 983.9 NA 0.0000 9999 12430 0 0 0
2017/11/17 03:05:00 BASE 10.66 19 13.12 8 2.4 75 -1.5 0 0 983.8 NA 0.0000 9999 12370 0 0 0
2017/11/17 03:06:00 BASE 10.40 18 13.12 8 2.4 75 -1.5 0 0 983.9 NA 0.0000 9999 12500 0 0 0
2017/11/17 03:07:00 BASE 9.66 16 13.12 8 2.4 76 -1.5 0 0 983.9 NA 0.0000 9999 11190 0 0 0
2017/11/17 03:08:00 BASE 9.68 15 13.12 8 2.4 76 -1.4 0 0 983.8 NA 0.0000 9999 11090 0 0 0
2017/11/17 03:09:00 BASE 10.69 17 15.43 18 2.4 76 -1.4 0 0 983.7 NA 0.0000 9999 11160 0 0 0
2017/11/17 03:10:00 BASE 11.38 18 15.43 18 2.4 76 -1.3 0 0 983.7 NA 0.0000 9999 6730 11190 0 0
2017/11/17 03:11:00 BASE 10.72 17 15.43 18 2.4 77 -1.3 0 0 983.7 NA 0.0000 9999 6660 11390 0 0
2017/11/17 03:12:00 BASE 10.69 15 15.43 18 2.4 77 -1.2 0 0 983.7 NA 0.0000 9999 6630 10860 0 0
2017/11/17 03:13:00 BASE 11.16 13 15.43 18 2.4 77 -1.2 0 0 983.6 NA 0.0000 9999 6630 10530 0 0
2017/11/17 03:14:00 BASE 11.47 15 15.43 18 2.4 77 -1.2 0 0 983.6 NA 0.0000 9999 10200 0 0 0
2017/11/17 03:15:00 BASE 12.18 14 15.43 18 2.4 77 -1.1 0 0 983.5 NA 0.0000 9999 9880 0 0 0
2017/11/17 03:16:00 BASE 12.58 12 15.43 18 2.4 77 -1.1 0 0 983.6 NA 0.0000 9999 7150 9740 0 0
2017/11/17 03:17:00 BASE 12.24 13 15.43 18 2.5 77 -1.1 0 0 983.5 NA 0.0000 9999 10040 0 0 0
2017/11/17 03:18:00 BASE 12.27 13 15.43 18 2.5 77 -1.1 0 0 983.5 NA 0.0000 9999 7320 0 0 0
2017/11/17 03:19:00 BASE 13.21 12 16.51 12 2.5 77 -1.1 0 0 983.5 NA 0.0000 9999 7280 0 0 0
2017/11/17 03:20:00 BASE 13.44 11 16.51 12 2.5 78 -1.0 0 0 983.5 NA 0.0000 9999 5740 0 0 0
2017/11/17 03:21:00 BASE 12.32 9 16.51 12 2.5 78 -1.0 0 0 983.5 NA 0.0000 9999 5380 0 0 0
2017/11/17 03:22:00 BASE 11.59 11 16.51 12 2.5 78 -0.9 0 0 983.6 NA 0.0000 9999 5740 0 0 0
2017/11/17 03:23:00 BASE 10.99 12 16.51 12 2.5 78 -0.9 0 0 983.6 NA 0.0000 9999 6590 0 0 0
2017/11/17 03:24:00 BASE 11.21 7 16.51 12 2.5 79 -0.8 0 0 983.5 NA 0.0000 9999 6630 0 0 0
2017/11/17 03:25:00 BASE 12.37 7 16.51 12 2.4 79 -0.8 0 0 983.5 NA 0.0000 9999 6920 0 0 0
2017/11/17 03:26:00 BASE 12.85 8 16.51 12 2.4 80 -0.7 0 0 983.5 NA 0.0000 9999 5710 0 0 0
2017/11/17 03:27:00 BASE 13.38 9 17.08 14 2.4 80 -0.7 0 0 983.4 NA 0.0000 9999 5540 0 0 0
2017/11/17 03:28:00 BASE 13.33 9 17.08 14 2.5 80 -0.6 0 0 983.4 NA 0.0000 9999 5610 0 0 0
2017/11/17 03:29:00 BASE 12.77 7 17.08 14 2.5 80 -0.6 0 0 983.4 NA 0.0000 9999 5480 7450 0 0
2017/11/17 03:30:00 BASE 13.07 5 17.08 14 2.6 79 -0.6 0 0 983.4 NA 0.0000 9999 5480 0 0 0
2017/11/17 03:31:00 BASE 13.73 9 17.08 14 2.6 79 -0.7 0 0 983.4 NA 0.0000 9999 5770 6920 0 0
2017/11/17 03:32:00 BASE 13.92 10 17.08 14 2.6 79 -0.7 0 0 983.4 NA 0.0000 9999 5640 7870 0 0
2017/11/17 03:33:00 BASE 14.43 9 18.42 18 2.7 78 -0.7 0 0 983.3 NA 0.0000 9999 5350 8010 0 0
2017/11/17 03:34:00 BASE 15.25 9 18.78 19 2.7 78 -0.8 0 0 983.3 NA 0.0000 9999 5970 6760 0 0
2017/11/17 03:35:00 BASE 15.40 11 18.78 19 2.7 78 -0.8 0 0 983.3 NA 0.0000 9999 6140 7640 0 0
2017/11/17 03:36:00 BASE 15.44 13 18.78 19 2.7 77 -0.9 0 0 983.3 NA 0.0000 9999 6140 0 0 0
2017/11/17 03:37:00 BASE 15.45 13 18.78 19 2.7 77 -0.9 0 0 983.3 NA 0.0000 9999 6100 7320 0 0
2017/11/17 03:38:00 BASE 15.01 12 18.78 19 2.7 77 -0.9 0 0 983.4 NA 0.0000 9999 5940 0 0 0
2017/11/17 03:39:00 BASE 15.07 12 18.78 19 2.7 77 -0.9 0 0 983.4 NA 0.0000 9999 6760 0 0 0
2017/11/17 03:40:00 BASE 15.19 13 18.78 19 2.7 77 -0.9 0 0 983.4 NA 0.0000 9999 6630 0 0 0
2017/11/17 03:41:00 BASE 14.76 14 18.78 19 2.7 77 -0.9 0 0 983.4 NA 0.0000 9999 6400 0 0 0
2017/11/17 03:42:00 BASE 14.81 13 18.78 19 2.7 77 -0.9 0 0 983.4 NA 0.0000 9999 6370 0 0 0
2017/11/17 03:43:00 BASE 15.15 12 18.78 19 2.7 78 -0.9 0 0 983.4 NA 0.0000 9999 6270 0 0 0
2017/11/17 03:44:00 BASE 15.68 15 17.85 13 2.7 78 -0.8 0 0 983.4 NA 0.0000 9999 6230 0 0 0
2017/11/17 03:45:00 BASE 15.76 16 17.85 13 2.7 78 -0.8 0 0 983.4 NA 0.0000 9999 6300 0 0 0
2017/11/17 03:46:00 BASE 15.04 16 17.85 13 2.7 78 -0.8 0 0 983.4 NA 0.0000 9999 6400 0 0 0
2017/11/17 03:47:00 BASE 14.26 16 17.85 13 2.7 77 -0.8 0 0 983.5 NA 0.0000 9999 6400 0 0 0
2017/11/17 03:48:00 BASE 14.27 18 18.11 23 2.8 77 -0.8 0 0 983.5 NA 0.0000 9999 6430 0 0 0
2017/11/17 03:49:00 BASE 14.69 21 18.11 23 2.8 77 -0.8 0 0 983.5 NA 0.0000 9999 6400 0 0 0
2017/11/17 03:50:00 BASE 14.14 22 18.11 23 2.8 77 -0.8 0 0 983.5 NA 0.0000 9999 6330 0 0 0
2017/11/17 03:51:00 BASE 13.77 23 18.11 23 2.8 77 -0.8 0 0 983.6 NA 0.0000 9999 6330 0 0 0
2017/11/17 03:52:00 BASE 14.38 22 18.11 23 2.8 77 -0.8 0 0 983.5 NA 0.0000 9999 6690 0 0 0
2017/11/17 03:53:00 BASE 14.46 24 18.11 23 2.8 77 -0.9 0 0 983.6 NA 0.0000 9999 7090 0 0 0
2017/11/17 03:54:00 BASE 14.39 24 18.11 23 2.8 76 -0.9 0 0 983.5 NA 0.0000 9999 7020 0 0 0
2017/11/17 03:55:00 BASE 14.16 22 18.11 23 2.8 76 -1.0 0 0 983.6 NA 0.0000 9999 6990 0 0 0
2017/11/17 03:56:00 BASE 13.89 22 18.11 23 2.8 76 -1.0 0 0 983.6 NA 0.0000 9999 6890 0 0 0
2017/11/17 03:57:00 BASE 13.79 24 18.11 23 2.8 76 -1.0 0 0 983.6 NA 0.0000 9999 6860 0 0 0
2017/11/17 03:58:00 BASE 14.15 24 17.03 17 2.8 76 -1.0 0 0 983.6 NA 0.0000 9999 6790 0 0 0
2017/11/17 03:59:00 BASE 14.40 21 17.03 17 2.8 76 -1.0 0 0 983.6 NA 0.0000 9999 6730 0 0 0
2017/11/17 04:00:00 BASE 13.96 23 17.03 17 2.8 76 -1.0 0 0 983.7 NA 0.0000 9999 6630 0 0 0
2017/11/17 04:01:00 BASE 14.07 24 17.03 17 2.8 76 -1.0 0 0 983.6 NA 0.0000 9999 6500 0 0 0
2017/11/17 04:02:00 BASE 13.80 23 16.82 23 2.8 76 -1.0 0 0 983.7 NA 0.0000 9999 6500 0 0 0
2017/11/17 04:03:00 BASE 13.14 24 16.82 23 2.8 76 -1.0 0 0 983.7 NA 0.0000 9999 6560 0 0 0
2017/11/17 04:04:00 BASE 13.15 25 16.82 23 2.8 76 -1.0 0 0 983.8 NA 0.0000 9999 6590 0 0 0
2017/11/17 04:05:00 BASE 13.61 26 16.82 23 2.8 76 -1.0 0 0 983.8 NA 0.0000 9999 6660 0 0 0
2017/11/17 04:06:00 BASE 13.27 25 16.82 23 2.8 76 -1.1 0 0 983.8 NA 0.0000 9999 6630 0 0 0
2017/11/17 04:07:00 BASE 12.97 25 16.82 23 2.7 76 -1.1 0 0 983.8 NA 0.0000 9999 6660 0 0 0
2017/11/17 04:08:00 BASE 12.96 25 16.72 14 2.7 76 -1.1 0 0 983.8 NA 0.0000 9999 6660 0 0 0
2017/11/17 04:09:00 BASE 13.24 25 16.41 30 2.7 76 -1.1 0 0 983.8 NA 0.0000 9999 6660 0 0 0
2017/11/17 04:10:00 BASE 13.50 25 16.41 30 2.7 77 -1.0 0 0 983.8 NA 0.0000 9999 6630 0 0 0
2017/11/17 04:11:00 BASE 12.80 24 16.41 30 2.7 77 -1.0 0 0 983.8 NA 0.0000 9999 6590 0 0 0
2017/11/17 04:12:00 BASE 12.27 23 16.41 30 2.6 77 -1.1 0 0 983.8 NA 0.0000 9999 6590 0 0 0
2017/11/17 04:13:00 BASE 11.76 22 16.41 30 2.6 76 -1.1 0 0 983.8 NA 0.0000 9999 6690 0 0 0
2017/11/17 04:14:00 BASE 11.45 24 16.41 30 2.6 76 -1.1 0 0 983.9 NA 0.0000 9999 7910 0 0 0
2017/11/17 04:15:00 BASE 11.88 24 15.74 24 2.6 76 -1.2 0 0 983.8 NA 0.0000 9999 8040 0 0 0
2017/11/17 04:16:00 BASE 12.72 24 15.74 24 2.5 77 -1.1 0 0 983.8 NA 0.0000 9999 0 0 0 820
2017/11/17 04:17:00 BASE 13.33 26 16.10 28 2.5 77 -1.1 0 0 983.8 NA 0.0000 9999 0 0 0 850
2017/11/17 04:18:00 BASE 13.06 25 16.10 28 2.5 76 -1.2 0 0 983.8 NA 0.0000 9999 0 0 0 820
2017/11/17 04:19:00 BASE 12.09 25 16.10 28 2.5 76 -1.3 0 0 983.8 NA 0.0000 UP 9999 0 0 0 750
2017/11/17 04:20:00 BASE 11.97 25 16.10 28 2.5 76 -1.3 0 0 983.8 NA 0.0000 UP 9999 0 0 0 890
2017/11/17 04:21:00 BASE 12.43 25 16.10 28 2.5 76 -1.3 0 0 983.8 NA 0.0000 UP 9999 0 0 0 790
2017/11/17 04:22:00 BASE 12.66 23 16.10 28 2.5 76 -1.4 0 0 983.7 NA 0.0000 UP 9999 0 0 0 790
2017/11/17 04:23:00 BASE 12.67 22 16.10 28 2.5 76 -1.4 0 0 983.7 NA 0.0000 UP 9999 0 0 0 790
2017/11/17 04:24:00 BASE 12.64 25 16.10 28 2.5 76 -1.4 0 0 983.7 NA 0.0000 UP 9999 7480 0 0 0
2017/11/17 04:25:00 BASE 12.38 27 16.10 28 2.5 75 -1.4 0 0 983.8 NA 0.0000 UP 9999 0 0 0 720
2017/11/17 04:26:00 BASE 12.75 26 16.10 28 2.4 75 -1.5 0 0 983.7 NA 0.0000 UP 9999 6460 0 0 0
2017/11/17 04:27:00 BASE 13.10 24 15.23 14 2.4 75 -1.5 0 0 983.7 NA 0.0000 UP 9999 6460 0 0 0
2017/11/17 04:28:00 BASE 12.66 25 15.23 14 2.4 76 -1.4 0 0 983.7 NA 0.0000 UP 9999 6370 0 0 0
2017/11/17 04:29:00 BASE 11.76 26 15.23 14 2.4 76 -1.4 0 0 983.8 NA 0.0000 UP 9999 6530 0 0 0
2017/11/17 04:30:00 BASE 11.59 25 15.23 14 2.4 76 -1.4 0 0 983.7 NA 0.0000 UP 9999 6990 0 0 0
2017/11/17 04:31:00 BASE 12.39 23 15.38 29 2.3 76 -1.4 0 0 983.7 NA 0.0000 UP 9999 6560 0 0 0
2017/11/17 04:32:00 BASE 12.22 25 15.38 29 2.3 76 -1.4 0 0 983.8 NA 0.0000 UP 9999 6230 0 0 0
2017/11/17 04:33:00 BASE 11.74 27 15.38 29 2.3 76 -1.4 0 0 983.8 NA 0.0000 UP 9999 6270 0 0 0
2017/11/17 04:34:00 BASE 12.65 25 15.64 16 2.3 76 -1.5 0 0 983.7 NA 0.0000 UP 9999 6330 0 0 0
2017/11/17 04:35:00 BASE 13.36 25 16.57 22 2.3 76 -1.5 0 0 983.7 NA 0.0000 UP 9999 6200 0 0 0
2017/11/17 04:36:00 BASE 13.13 27 16.57 22 2.3 76 -1.5 0 0 983.7 NA 0.0000 UP 9999 6530 0 0 0
2017/11/17 04:37:00 BASE 12.52 28 16.57 22 2.3 76 -1.4 0 0 983.7 NA 0.0000 UP 9999 6230 0 0 0
2017/11/17 04:38:00 BASE 12.12 30 16.57 22 2.3 76 -1.4 0 0 983.7 NA 0.0000 UP 9999 6140 0 0 0
2017/11/17 04:39:00 BASE 13.17 29 16.57 22 2.3 77 -1.4 0 0 983.6 NA 0.0000 UP 9000 0 0 0 1380
2017/11/17 04:40:00 BASE 13.02 26 16.57 22 2.3 77 -1.4 0 0 983.7 NA 0.0000 UP 9000 6230 0 0 0
2017/11/17 04:41:00 BASE 13.27 26 16.57 22 2.3 77 -1.3 0 0 983.6 NA 0.0000 UP 9999 6200 0 0 0
2017/11/17 04:42:00 BASE 13.48 25 16.57 22 2.3 77 -1.3 0 0 983.7 NA 0.0000 UP 9000 5710 0 0 0
2017/11/17 04:43:00 BASE 12.62 22 16.57 22 2.2 78 -1.3 0 0 983.7 NA 0.0000 UP 9999 6230 0 0 0
2017/11/17 04:44:00 BASE 12.67 23 16.57 22 2.2 78 -1.3 0 0 983.7 NA 0.0000 UP 9999 5870 0 0 0
2017/11/17 04:45:00 BASE 12.53 25 15.54 14 2.2 78 -1.2 0 0 983.7 NA 0.0000 UP 9999 0 0 0 1410
2017/11/17 04:46:00 BASE 12.69 24 15.54 14 2.2 78 -1.2 0 0 983.6 NA 0.0000 UP 9999 0 0 0 1440
2017/11/17 04:47:00 BASE 12.68 23 15.54 14 2.1 79 -1.2 0 0 983.6 NA 0.0000 UP 9999 6690 0 0 0
2017/11/17 04:48:00 BASE 12.59 21 15.54 14 2.1 79 -1.1 0 0 983.6 NA 0.0000 UP 9999 0 0 0 1350
2017/11/17 04:49:00 BASE 13.17 21 15.54 14 2.1 80 -1.1 0 0 983.5 NA 0.0000 UP 9999 0 0 0 1410
2017/11/17 04:50:00 BASE 13.94 21 18.31 23 2.1 80 -1.0 0 0 983.5 NA 0.0000 UP 9999 0 0 0 1410
2017/11/17 04:51:00 BASE 14.38 20 18.31 23 2.1 80 -1.0 0 0 983.4 NA 0.0000 UP 9999 7120 0 0 0
2017/11/17 04:52:00 BASE 14.38 22 18.31 23 2.1 80 -1.0 0 0 983.4 NA 0.0000 UP 9999 7150 0 0 0
2017/11/17 04:53:00 BASE 13.63 23 18.31 23 2.1 80 -1.0 0 0 983.5 NA 0.0000 UP 9999 7090 0 0 0
2017/11/17 04:54:00 BASE 13.35 25 18.31 23 2.1 80 -0.9 0 0 983.4 NA 0.0000 UP 9999 7020 0 0 0
2017/11/17 04:55:00 BASE 13.35 27 18.31 23 2.1 80 -0.9 0 0 983.5 NA 0.0000 UP 8000 7090 0 0 0
2017/11/17 04:56:00 BASE 13.37 27 18.31 23 2.1 81 -0.8 0 0 983.4 NA 0.0000 UP 9000 7150 0 0 0
2017/11/17 04:57:00 BASE 13.60 28 18.31 23 2.1 81 -0.8 0 0 983.4 NA 0.0000 UP 7000 0 0 0 1440
2017/11/17 04:58:00 BASE 14.14 28 18.31 23 2.1 82 -0.7 0 0 983.3 NA 0.0000 UP 8000 0 0 0 1510
2017/11/17 04:59:00 BASE 14.09 24 18.31 23 2.0 83 -0.6 0 0 983.3 NA 0.0000 UP 8000 0 0 0 7450
2017/11/17 05:00:00 BASE 13.71 24 18.01 28 2.0 83 -0.5 0 0 983.3 NA 0.0000 UP 9000 0 0 0 1440
2017/11/17 05:01:00 BASE 13.86 27 18.01 28 2.0 84 -0.4 0 0 983.3 NA 0.0000 UP 9000 0 0 0 1540
2017/11/17 05:02:00 BASE 14.06 30 18.01 28 2.0 84 -0.4 0 0 983.2 NA 0.0000 UP 8000 0 0 0 1610
2017/11/17 05:03:00 BASE 14.75 30 18.01 28 2.0 85 -0.3 0 0 983.2 NA 0.0000 UP 8000 0 0 0 1350
2017/11/17 05:04:00 BASE 15.23 28 18.01 28 2.0 85 -0.3 0 0 983.1 NA 0.0000 UP 9000 0 0 0 1310
2017/11/17 05:05:00 BASE 15.94 28 18.01 28 2.0 85 -0.2 0 0 983.1 NA 0.0000 UP BR 9999 0 0 0 1180
2017/11/17 05:06:00 BASE 15.80 28 18.01 28 2.0 86 -0.1 0 0 983.1 NA 0.0000 UP BR 9999 0 0 0 1020
2017/11/17 05:07:00 BASE 15.90 29 18.21 25 2.0 86 -0.1 0 0 983.1 NA 0.0000 UP BR 9999 0 0 0 980
2017/11/17 05:08:00 BASE 16.65 31 18.21 25 2.1 86 -0.0 0 0 983.1 NA 0.0000 UP BR 9999 0 0 0 1020
2017/11/17 05:09:00 BASE 16.40 29 18.21 25 2.1 86 -0.0 0 0 983.1 NA 0.0000 UP BR 9000 0 0 0 980
2017/11/17 05:10:00 BASE 16.52 27 18.21 25 2.1 86 -0.1 0 0 983.1 NA 0.0000 UP BR 8000 0 0 0 920
2017/11/17 05:11:00 BASE 16.84 29 18.21 25 2.1 86 -0.1 0 0 983.1 NA 0.0000 UP BR 9999 0 0 0 890
2017/11/17 05:12:00 BASE 16.90 30 18.57 30 2.1 86 -0.1 0 0 983.1 NA 0.0000 UP BR 9999 0 0 0 950
2017/11/17 05:13:00 BASE 16.60 30 19.45 29 2.1 86 -0.1 0 0 983.1 NA 0.0000 UP 9999 6430 0 0 0
2017/11/17 05:14:00 BASE 16.05 32 19.45 29 2.1 86 -0.0 0 0 983.2 NA 0.0000 UP 9999 6270 0 0 0
2017/11/17 05:15:00 BASE 15.46 33 19.45 29 2.1 86 -0.0 0 0 983.2 NA 0.0000 UP 9999 6560 0 0 0
2017/11/17 05:16:00 BASE 15.34 34 19.45 29 2.1 86 -0.0 0 0 983.2 NA 0.0000 UP 9999 6330 0 0 0
2017/11/17 05:17:00 BASE 15.66 33 19.45 29 2.0 86 -0.0 0 0 983.2 NA 0.0000 UP 9999 6040 0 0 0
2017/11/17 05:18:00 BASE 15.68 34 19.45 29 2.0 86 -0.1 0 0 983.2 NA 0.0000 UP 9999 6070 6590 0 0
2017/11/17 05:19:00 BASE 15.58 35 19.45 29 2.0 86 -0.1 0 0 983.2 NA 0.0000 UP 9999 0 0 0 690
2017/11/17 05:20:00 BASE 15.45 36 19.45 29 2.1 86 -0.0 0 0 983.2 NA 0.0000 UP 9999 6790 0 0 0
2017/11/17 05:21:00 BASE 15.43 37 19.45 29 2.1 86 -0.0 0 0 983.2 NA 0.0000 UP 9999 0 0 0 1080
2017/11/17 05:22:00 BASE 15.07 37 19.45 29 2.1 86 -0.0 0 0 983.2 NA 0.0000 UP 9999 6000 0 0 0
2017/11/17 05:23:00 BASE 14.64 38 17.85 30 2.1 86 -0.0 0 0 983.3 NA 0.0000 UP 9999 5810 6430 0 0
2017/11/17 05:24:00 BASE 14.52 36 17.75 32 2.1 86 -0.0 0 0 983.3 NA 0.0000 9999 5810 6430 0 0
2017/11/17 05:25:00 BASE 14.76 35 17.75 32 2.0 86 -0.1 0 0 983.3 NA 0.0000 9999 6530 0 0 0
2017/11/17 05:26:00 BASE 15.10 35 17.75 32 2.0 86 -0.1 0 0 983.3 NA 0.0000 UP 9999 5840 6500 0 0
2017/11/17 05:27:00 BASE 15.54 34 17.90 33 2.0 86 -0.1 0 0 983.2 NA 0.0000 UP 9999 5840 0 0 0
2017/11/17 05:28:00 BASE 15.21 33 17.90 33 2.0 86 -0.0 0 0 983.3 NA 0.0000 UP 9999 5840 0 0 0
2017/11/17 05:29:00 BASE 15.12 32 17.90 33 2.1 86 -0.0 0 0 983.3 NA 0.0000 UP 9999 5910 0 0 0
2017/11/17 05:30:00 BASE 15.52 33 17.90 33 2.1 86 -0.0 0 0 983.3 NA 0.0000 UP 9999 5910 0 0 0
2017/11/17 05:31:00 BASE 15.66 32 17.90 33 2.1 86 -0.0 0 0 983.3 NA 0.0000 UP 9999 5870 0 0 0
2017/11/17 05:32:00 BASE 15.25 30 17.90 33 2.1 86 -0.0 0 0 983.3 NA 0.0000 UP 9999 5810 0 0 0
2017/11/17 05:33:00 BASE 15.15 31 18.01 37 2.1 85 -0.1 0 0 983.3 NA 0.0000 UP 9999 5810 0 0 0
2017/11/17 05:34:00 BASE 15.45 32 18.01 37 2.2 85 -0.1 0 0 983.3 NA 0.0000 UP 9999 5870 0 0 0
2017/11/17 05:35:00 BASE 15.34 32 18.01 37 2.2 85 -0.1 0 0 983.3 NA 0.0000 UP 9999 5970 0 0 0
2017/11/17 05:36:00 BASE 15.34 32 18.01 37 2.1 85 -0.1 0 0 983.3 NA 0.0000 UP 9999 6100 0 0 0
2017/11/17 05:37:00 BASE 14.80 32 18.01 37 2.1 85 -0.1 0 0 983.4 NA 0.0000 UP 9999 6230 0 0 0
2017/11/17 05:38:00 BASE 14.97 31 18.01 37 2.1 85 -0.1 0 0 983.3 NA 0.0000 UP 9999 6140 0 0 0
2017/11/17 05:39:00 BASE 15.06 32 18.01 37 2.1 85 -0.1 0 0 983.4 NA 0.0000 UP 9999 5870 0 0 0
2017/11/17 05:40:00 BASE 14.71 32 18.01 37 2.2 85 -0.1 0 0 983.4 NA 0.0000 UP 9999 5840 0 0 0
2017/11/17 05:41:00 BASE 14.62 32 18.01 37 2.2 85 -0.1 0 0 983.5 NA 0.0000 9999 5710 0 0 0
2017/11/17 05:42:00 BASE 13.75 33 18.01 37 2.2 85 -0.1 0 0 983.5 NA 0.0000 9999 5740 0 0 0
2017/11/17 05:43:00 BASE 13.04 36 16.87 30 2.2 85 -0.1 0 0 983.5 NA 0.0000 9999 5770 0 0 0
2017/11/17 05:44:00 BASE 13.20 36 16.87 30 2.2 85 -0.0 0 0 983.5 NA 0.0000 UP 9999 5710 0 0 0
2017/11/17 05:45:00 BASE 13.70 37 16.87 30 2.1 86 -0.0 0 0 983.5 NA 0.0000 UP 9999 5810 0 0 0
2017/11/17 05:46:00 BASE 13.74 38 16.77 32 2.2 86 -0.0 0 0 983.6 NA 0.0000 UP 9999 6330 0 0 0
2017/11/17 05:47:00 BASE 12.87 37 16.77 32 2.2 86 -0.0 0 0 983.6 NA 0.0000 UP 9999 6140 0 0 0
2017/11/17 05:48:00 BASE 12.89 37 16.05 38 2.2 85 -0.0 0 0 983.6 NA 0.0000 UP 9999 5940 0 0 0
2017/11/17 05:49:00 BASE 12.86 38 16.05 38 2.2 85 -0.0 0 0 983.6 NA 0.0000 UP 9999 5810 0 0 0
2017/11/17 05:50:00 BASE 11.68 38 15.95 26 2.2 85 -0.0 0 0 983.7 NA 0.0000 UP 9999 5910 0 0 0
2017/11/17 05:51:00 BASE 11.63 37 15.69 41 2.2 85 0.0 0 0 983.7 NA 0.0000 UP 9999 5740 0 0 0
2017/11/17 05:52:00 BASE 12.06 39 15.69 41 2.2 86 0.0 0 0 983.7 NA 0.0000 UP 9999 5940 0 0 0
2017/11/17 05:53:00 BASE 11.80 38 15.69 41 2.2 86 0.0 0 0 983.7 NA 0.0000 9999 5970 0 0 0
2017/11/17 05:54:00 BASE 11.31 38 15.69 41 2.2 86 0.1 0 0 983.8 NA 0.0000 9999 5380 0 0 0
2017/11/17 05:55:00 BASE 10.79 39 14.82 25 2.2 85 0.0 0 0 983.9 NA 0.0000 9999 5480 0 0 0
2017/11/17 05:56:00 BASE 10.35 40 14.82 25 2.3 85 0.0 0 0 983.9 NA 0.0000 9999 5680 0 0 0
2017/11/17 05:57:00 BASE 10.27 42 14.82 25 2.3 85 0.0 0 0 984.0 NA 0.0000 9999 5810 0 0 0
2017/11/17 05:58:00 BASE 10.05 44 14.61 34 2.3 85 0.0 0 0 984.1 NA 0.0000 9999 5810 0 0 0
2017/11/17 05:59:00 BASE 9.95 44 13.89 38 2.3 85 0.0 0 0 984.2 NA 0.0000 9999 5710 0 0 0
2017/11/17 06:00:00 BASE 9.43 47 13.89 38 2.3 85 0.0 0 0 984.3 NA 0.0000 9999 5710 0 0 0
2017/11/17 06:01:00 BASE 8.30 53 13.12 39 2.4 84 0.0 0 0 984.3 NA 0.0000 9999 5480 0 0 0
2017/11/17 06:02:00 BASE 7.50 60 12.81 41 2.4 84 -0.0 0 1 984.4 NA 0.0000 9999 5380 0 0 0
2017/11/17 06:03:00 BASE 6.64 66 12.81 41 2.4 84 -0.1 0 1 984.4 NA 0.0000 9999 5350 0 0 0
2017/11/17 06:04:00 BASE 5.63 77 11.88 42 2.5 83 -0.1 0 1 984.5 NA 0.0000 9999 5380 0 0 0
2017/11/17 06:05:00 BASE 4.78 78 11.88 42 2.5 83 -0.1 0 1 984.6 NA 0.0000 9999 5280 0 0 0
2017/11/17 06:06:00 BASE 4.78 77 11.88 42 2.4 83 -0.1 0 1 984.6 NA 0.0000 9999 5320 0 0 0
2017/11/17 06:07:00 BASE 4.59 92 11.32 47 2.4 84 -0.1 0 1 984.6 NA 0.0000 9999 5320 0 0 0
2017/11/17 06:08:00 BASE 3.69 123 11.21 56 2.4 84 -0.0 0 1 984.6 NA 0.0000 9999 5380 0 0 0
2017/11/17 06:09:00 BASE 3.18 157 10.24 50 2.3 84 -0.0 0 1 984.6 NA 0.0000 9999 5410 0 0 0
2017/11/17 06:10:00 BASE 3.15 170 9.16 49 2.3 84 -0.1 0 1 984.6 NA 0.0000 9999 5380 0 0 0
2017/11/17 06:11:00 BASE 3.59 184 8.54 57 2.2 84 -0.1 0 1 984.7 NA 0.0000 9999 5320 0 0 0
2017/11/17 06:12:00 BASE 3.77 206 7.97 69 2.2 84 -0.2 0 1 984.6 NA 0.0000 9999 5250 0 0 0
2017/11/17 06:13:00 BASE 3.73 214 7.25 72 2.1 84 -0.3 0 1 984.6 NA 0.0000 9999 5220 0 0 0
2017/11/17 06:14:00 BASE 3.54 213 7.25 72 2.0 84 -0.5 0 1 984.7 NA 0.0000 9999 5180 0 0 0
2017/11/17 06:15:00 BASE 3.26 212 7.25 72 1.8 84 -0.6 0 1 984.6 NA 0.0000 9999 5120 0 0 0
2017/11/17 06:16:00 BASE 3.87 208 4.89 208 1.7 85 -0.6 0 1 984.6 NA 0.0000 9999 5050 0 0 0
2017/11/17 06:17:00 BASE 4.32 204 4.89 208 1.6 85 -0.7 0 1 984.6 NA 0.0000 9999 5020 0 0 0
2017/11/17 06:18:00 BASE 4.48 199 5.09 193 1.5 86 -0.6 0 1 984.6 NA 0.0000 9999 4560 0 0 0
2017/11/17 06:19:00 BASE 4.80 191 5.45 182 1.3 87 -0.6 0 1 984.6 NA 0.0000 9999 4760 0 0 0
2017/11/17 06:20:00 BASE 4.54 186 5.45 182 1.2 87 -0.6 0 1 984.6 NA 0.0000 9999 4720 0 0 0
2017/11/17 06:21:00 BASE 3.96 180 5.45 182 1.2 88 -0.5 0 1 984.6 NA 0.0000 9999 4720 0 0 0
2017/11/17 06:22:00 BASE 3.73 163 5.45 182 1.2 89 -0.5 0 1 984.6 NA 0.0000 9999 4630 0 0 0
2017/11/17 06:23:00 BASE 3.41 155 5.45 182 1.3 89 -0.3 0 1 984.6 NA 0.0000 9999 2300 3120 4590 0
2017/11/17 06:24:00 BASE 3.46 158 5.45 182 1.5 88 -0.2 0 1 984.6 NA 0.0000 9999 2170 3080 0 0
2017/11/17 06:25:00 BASE 3.90 156 5.45 182 1.7 88 -0.1 0 1 984.6 NA 0.0000 9999 2950 0 0 0
2017/11/17 06:26:00 BASE 3.85 158 5.45 182 2.0 87 -0.0 0 1 984.6 NA 0.0000 9999 2300 0 0 0
2017/11/17 06:27:00 BASE 4.04 166 5.45 182 2.2 85 -0.0 0 1 984.5 NA 0.0000 9999 2330 0 0 0
2017/11/17 06:28:00 BASE 5.12 163 6.84 149 2.3 84 -0.1 0 1 984.5 NA 0.0000 9999 2230 3150 0 0
2017/11/17 06:29:00 BASE 5.53 159 6.84 149 2.4 83 -0.2 1 2 984.5 NA 0.0000 9999 2130 0 0 0
2017/11/17 06:30:00 BASE 4.28 138 6.84 149 2.4 83 -0.2 1 2 984.5 NA 0.0000 9999 2300 0 0 0
2017/11/17 06:31:00 BASE 3.15 102 6.84 149 2.5 82 -0.3 1 2 984.6 NA 0.0000 9999 2300 0 0 0
2017/11/17 06:32:00 BASE 2.82 90 6.84 149 2.5 82 -0.3 1 2 984.6 NA 0.0000 9999 2300 3020 0 0
2017/11/17 06:33:00 BASE 2.82 87 6.84 149 2.5 82 -0.3 1 2 984.6 NA 0.0000 9999 2100 0 0 0
2017/11/17 06:34:00 BASE 2.79 79 6.84 149 2.5 82 -0.3 1 2 984.7 NA 0.0000 9999 2170 0 0 0
2017/11/17 06:35:00 BASE 3.45 74 6.84 149 2.5 82 -0.3 1 2 984.6 NA 0.0000 9999 2130 0 0 0
2017/11/17 06:36:00 BASE 3.55 73 6.84 149 2.5 82 -0.3 1 2 984.6 NA 0.0000 9999 2030 0 0 0
2017/11/17 06:37:00 BASE 2.33 91 6.84 149 2.6 81 -0.3 1 2 984.6 NA 0.0000 9999 2000 0 0 0
2017/11/17 06:38:00 BASE 2.31 115 5.61 166 2.6 81 -0.3 1 2 984.6 NA 0.0000 9999 2070 0 0 0
2017/11/17 06:39:00 BASE 2.50 155 5.14 86 2.7 80 -0.4 1 2 984.6 NA 0.0000 9999 1900 0 0 0
2017/11/17 06:40:00 BASE 1.71 211 5.14 86 2.8 79 -0.5 1 3 984.6 NA 0.0000 9999 1710 0 0 0
2017/11/17 06:41:00 BASE 1.53 238 5.14 86 2.8 79 -0.5 1 3 984.6 NA 0.0000 9999 2000 0 0 0
2017/11/17 06:42:00 BASE 3.25 346 6.58 21 2.8 79 -0.5 1 3 984.6 NA 0.0000 9999 2170 0 0 0
2017/11/17 06:43:00 BASE 5.16 13 7.41 15 2.8 79 -0.5 1 3 984.6 NA 0.0000 9999 2000 2590 0 0
2017/11/17 06:44:00 BASE 5.07 11 7.41 15 2.7 80 -0.4 1 3 984.7 NA 0.0000 9999 2000 0 0 0
2017/11/17 06:45:00 BASE 4.77 5 7.41 15 2.7 80 -0.4 1 3 984.7 NA 0.0000 9999 2030 0 0 0
2017/11/17 06:46:00 BASE 4.89 354 7.41 15 2.6 81 -0.3 1 3 984.8 NA 0.0000 9999 2200 0 0 0
2017/11/17 06:47:00 BASE 4.27 14 7.41 15 2.6 81 -0.3 1 3 984.7 NA 0.0000 9999 1870 0 0 0
2017/11/17 06:48:00 BASE 3.44 17 7.41 15 2.6 82 -0.2 1 3 984.7 NA 0.0000 9999 1970 0 0 0
2017/11/17 06:49:00 BASE 3.18 320 7.41 15 2.6 82 -0.2 1 3 984.7 NA 0.0000 9999 1970 0 0 0
2017/11/17 06:50:00 BASE 3.08 279 7.41 15 2.6 82 -0.2 1 4 984.6 NA 0.0000 9999 1870 0 0 0
2017/11/17 06:51:00 BASE 2.52 302 7.41 15 2.6 82 -0.2 1 4 984.7 NA 0.0000 9999 1940 0 0 0
2017/11/17 06:52:00 BASE 2.79 7 7.41 15 2.6 82 -0.2 1 4 984.7 NA 0.0000 9999 1900 0 0 0
2017/11/17 06:53:00 BASE 3.82 22 7.41 15 2.5 82 -0.3 1 5 984.7 NA 0.0000 9999 1870 0 0 0
2017/11/17 06:54:00 BASE 3.86 11 6.74 333 2.5 82 -0.2 1 5 984.7 NA 0.0000 9999 2070 0 0 0
2017/11/17 06:55:00 BASE 3.61 3 6.28 342 2.5 82 -0.2 1 5 984.8 NA 0.0000 9999 2100 4130 0 0
2017/11/17 06:56:00 BASE 1.91 346 6.12 341 2.5 82 -0.2 1 5 984.8 NA 0.0000 9999 2000 4170 0 0
2017/11/17 06:57:00 BASE 0.99 345 5.25 336 2.5 82 -0.2 1 5 984.8 NA 0.0000 9999 1900 4100 0 0
2017/11/17 06:58:00 BASE 1.81 13 5.14 17 2.5 82 -0.2 1 6 984.8 NA 0.0000 9999 1840 3970 0 0
2017/11/17 06:59:00 BASE 1.83 37 5.14 17 2.5 83 -0.2 2 6 984.8 NA 0.0000 9999 3970 0 0 0
2017/11/17 07:00:00 BASE 1.90 43 5.14 17 2.4 83 -0.2 2 6 984.8 NA 0.0000 9999 4040 0 0 0
2017/11/17 07:01:00 BASE 2.16 26 5.14 17 2.4 83 -0.2 2 6 984.8 NA 0.0000 9999 4100 0 0 0
2017/11/17 07:02:00 BASE 2.24 1 5.14 17 2.3 84 -0.1 2 6 984.8 NA 0.0000 9999 4230 0 0 0
2017/11/17 07:03:00 BASE 2.11 347 4.99 10 2.3 84 -0.1 2 7 984.8 NA 0.0000 9999 4230 0 0 0
2017/11/17 07:04:00 BASE 1.89 348 4.99 10 2.3 85 -0.0 2 7 984.8 NA 0.0000 9999 4130 0 0 0
2017/11/17 07:05:00 BASE 1.54 348 2.73 26 2.3 85 0.0 2 7 984.8 NA 0.0000 9999 4130 0 0 0
2017/11/17 07:06:00 BASE 1.53 345 2.73 26 2.3 85 0.1 3 8 984.8 NA 0.0000 9999 4130 0 0 0
2017/11/17 07:07:00 BASE 2.00 1 2.83 17 2.3 86 0.1 3 8 984.8 NA 0.0000 9999 4760 0 0 0
2017/11/17 07:08:00 BASE 2.00 22 2.83 17 2.2 86 0.1 3 9 984.8 NA 0.0000 9999 4760 0 0 0
2017/11/17 07:09:00 BASE 2.16 30 3.81 33 2.2 87 0.2 4 9 984.8 NA 0.0000 9999 0 0 0 4860
2017/11/17 07:10:00 BASE 3.41 32 5.35 33 2.2 87 0.2 4 10 984.7 NA 0.0000 9999 0 0 0 4720
2017/11/17 07:11:00 BASE 4.17 42 5.35 33 2.1 87 0.3 4 11 984.7 NA 0.0000 9999 0 0 0 4530
2017/11/17 07:12:00 BASE 4.47 48 5.86 34 2.1 88 0.3 5 11 984.7 NA 0.0000 UP 9999 4130 0 0 0
2017/11/17 07:13:00 BASE 5.66 47 7.77 25 2.1 88 0.4 5 12 984.6 NA 0.0000 UP 9999 4000 0 0 0
2017/11/17 07:14:00 BASE 6.76 43 7.82 26 2.1 89 0.4 5 13 984.5 NA 0.0000 UP 9000 4130 0 0 0
2017/11/17 07:15:00 BASE 7.10 32 9.21 27 2.1 89 0.5 6 13 984.4 NA 0.0000 UP 9999 4170 0 0 0
2017/11/17 07:16:00 BASE 8.83 23 12.35 17 2.2 89 0.5 6 13 984.3 NA 0.0000 UP 9999 4130 0 0 0
2017/11/17 07:17:00 BASE 10.84 13 14.15 10 2.2 89 0.5 6 14 984.2 NA 0.0000 UP 9999 0 0 0 1250
2017/11/17 07:18:00 BASE 11.11 8 14.15 10 2.2 89 0.6 6 14 984.1 NA 0.0000 UP 9999 0 0 0 560
2017/11/17 07:19:00 BASE 11.87 6 14.15 10 2.1 89 0.6 7 15 983.9 NA 0.0000 UP 9999 0 0 0 390
2017/11/17 07:20:00 BASE 13.13 4 14.61 12 2.1 90 0.6 7 16 983.9 NA 0.0000 UP 9999 5180 0 0 0
2017/11/17 07:21:00 BASE 13.97 3 16.62 3 2.1 90 0.5 7 16 983.8 NA 0.0000 UP 9999 4790 0 0 0
2017/11/17 07:22:00 BASE 14.62 5 16.62 3 2.1 90 0.5 8 17 983.7 NA 0.0000 UP 9999 5450 0 0 0
2017/11/17 07:23:00 BASE 15.06 7 16.62 3 2.1 89 0.5 8 17 983.7 NA 0.0000 UP 9999 5610 0 0 0
2017/11/17 07:24:00 BASE 15.17 7 16.62 3 2.1 89 0.5 8 18 983.7 NA 0.0000 UP 9999 5540 0 0 0
2017/11/17 07:25:00 BASE 15.43 5 16.62 3 2.1 89 0.4 8 19 983.7 NA 0.0000 UP 9999 5050 0 0 0
2017/11/17 07:26:00 BASE 15.27 5 16.62 3 2.1 89 0.4 9 19 983.7 NA 0.0000 9999 5410 0 0 0
2017/11/17 07:27:00 BASE 14.65 8 16.62 11 2.0 89 0.4 9 20 983.8 NA 0.0000 9999 5410 0 0 0
2017/11/17 07:28:00 BASE 14.49 9 16.62 11 2.1 89 0.4 9 20 983.7 NA 0.0000 9999 5450 0 0 0
2017/11/17 07:29:00 BASE 14.65 9 16.98 8 2.1 89 0.4 9 21 983.7 NA 0.0000 9999 5410 0 0 0
2017/11/17 07:30:00 BASE 14.05 10 16.98 8 2.1 89 0.4 9 21 983.8 NA 0.0000 9999 5380 0 0 0
2017/11/17 07:31:00 BASE 13.23 9 16.98 8 2.1 89 0.4 10 22 983.7 NA 0.0000 9999 5380 0 0 0
2017/11/17 07:32:00 BASE 13.65 10 16.98 8 2.1 89 0.4 10 23 983.7 NA 0.0000 UP 9999 5450 0 0 0
2017/11/17 07:33:00 BASE 13.71 9 16.98 8 2.0 89 0.4 10 23 983.8 NA 0.0000 UP 9999 5320 0 0 0
2017/11/17 07:34:00 BASE 13.64 9 16.98 8 2.0 89 0.4 10 23 983.8 NA 0.0000 UP 9999 5250 0 0 0
2017/11/17 07:35:00 BASE 13.35 12 16.98 8 2.0 89 0.4 10 24 983.8 NA 0.0000 UP 9999 5280 0 0 0
2017/11/17 07:36:00 BASE 13.77 10 17.54 8 2.0 89 0.4 11 25 983.7 NA 0.0000 UP 9999 5120 0 0 0
2017/11/17 07:37:00 BASE 14.33 9 17.54 8 2.0 89 0.4 11 26 983.8 NA 0.0000 UP 9999 5120 0 0 0
2017/11/17 07:38:00 BASE 13.79 10 17.54 8 2.0 89 0.4 11 26 983.8 NA 0.0000 UP 9999 5220 0 0 0
2017/11/17 07:39:00 BASE 13.12 11 17.54 8 2.0 89 0.4 11 27 983.9 NA 0.0000 UP 9999 4860 0 0 0
2017/11/17 07:40:00 BASE 12.55 12 17.54 8 2.0 89 0.4 12 28 983.8 NA 0.0000 UP 9999 5250 0 0 0
2017/11/17 07:41:00 BASE 13.00 14 17.54 8 2.0 89 0.4 12 28 983.8 NA 0.0000 UP 9999 4820 0 0 0
2017/11/17 07:42:00 BASE 13.46 13 17.54 8 1.9 89 0.4 12 29 983.8 NA 0.0000 UP 9999 4890 0 0 0
2017/11/17 07:43:00 BASE 14.09 13 17.54 8 1.9 90 0.4 13 30 983.7 NA 0.0000 UP 9999 5250 0 0 0
2017/11/17 07:44:00 BASE 14.03 14 17.54 8 1.9 90 0.4 13 31 983.8 NA 0.0000 UP 9999 5020 0 0 0
2017/11/17 07:45:00 BASE 13.85 14 17.54 8 1.9 90 0.4 14 32 983.7 NA 0.0000 UP 9999 5450 0 0 0
2017/11/17 07:46:00 BASE 14.12 14 16.93 18 1.9 90 0.4 14 33 983.8 NA 0.0000 UP 9999 4890 5540 0 0
2017/11/17 07:47:00 BASE 13.69 17 16.93 18 1.9 90 0.4 14 33 983.7 NA 0.0000 UP 9999 5050 0 0 0
2017/11/17 07:48:00 BASE 12.86 20 16.93 18 1.9 90 0.4 14 33 983.8 NA 0.0000 UP 9999 5250 0 0 0
2017/11/17 07:49:00 BASE 12.45 22 16.93 18 1.9 90 0.4 14 34 983.8 NA 0.0000 UP 9999 5180 0 0 0
2017/11/17 07:50:00 BASE 12.76 20 16.93 18 1.9 90 0.4 14 34 983.8 NA 0.0000 UP 9999 5020 0 0 0
2017/11/17 07:51:00 BASE 12.75 17 16.93 18 1.9 90 0.4 14 34 983.8 NA 0.0000 UP 9999 4990 0 0 0
2017/11/17 07:52:00 BASE 13.19 18 16.93 18 1.9 89 0.4 14 34 983.8 NA 0.0000 UP 9999 4820 0 0 0
2017/11/17 07:53:00 BASE 13.20 18 16.93 18 1.9 89 0.4 14 34 983.8 NA 0.0000 UP 9999 4820 0 0 0
2017/11/17 07:54:00 BASE 13.69 18 16.93 18 2.0 89 0.3 14 35 983.7 NA 0.0000 UP 9999 4920 0 0 0
2017/11/17 07:55:00 BASE 14.51 18 16.31 17 2.0 89 0.3 14 35 983.8 NA 0.0000 UP 9999 4860 0 0 0
2017/11/17 07:56:00 BASE 13.76 17 16.31 17 2.0 89 0.3 14 35 983.8 NA 0.0000 UP 9999 4920 0 0 0
2017/11/17 07:57:00 BASE 12.59 18 16.31 17 2.0 88 0.3 14 36 983.9 NA 0.0000 UP 9999 4950 0 0 0
2017/11/17 07:58:00 BASE 13.23 18 16.31 17 2.0 88 0.3 14 36 983.8 NA 0.0000 UP 9999 4990 0 0 0
2017/11/17 07:59:00 BASE 14.95 19 16.31 17 2.0 88 0.2 14 36 983.7 NA 0.0000 UP 9999 4990 0 0 0
2017/11/17 08:00:00 BASE 14.56 16 16.31 17 2.0 88 0.2 14 36 983.7 NA 0.0000 9999 5150 0 0 0
2017/11/17 08:01:00 BASE 14.29 14 17.44 6 2.0 88 0.2 14 36 983.7 NA 0.0000 9999 5180 0 0 0
2017/11/17 08:02:00 BASE 15.06 15 17.44 6 2.0 88 0.2 14 36 983.8 NA 0.0000 9999 5220 0 0 0
2017/11/17 08:03:00 BASE 15.06 15 17.44 6 2.0 88 0.2 14 36 983.8 NA 0.0000 9999 5180 0 0 0
2017/11/17 08:04:00 BASE 14.89 15 17.44 6 2.0 88 0.2 14 36 983.9 NA 0.0000 9999 5320 0 0 0
2017/11/17 08:05:00 BASE 14.40 17 17.44 6 2.1 88 0.2 13 36 984.0 NA 0.0000 9999 5280 0 0 0
2017/11/17 08:06:00 BASE 13.13 21 17.44 6 2.1 87 0.2 13 35 984.1 NA 0.0000 9999 5680 0 0 0
2017/11/17 08:07:00 BASE 11.89 22 17.44 6 2.1 87 0.2 13 35 984.2 NA 0.0000 9999 5480 0 0 0
2017/11/17 08:08:00 BASE 11.29 21 17.44 6 2.1 87 0.1 13 35 984.3 NA 0.0000 9999 5150 0 0 0
2017/11/17 08:09:00 BASE 11.18 23 17.44 6 2.1 87 0.1 13 36 984.4 NA 0.0000 9999 5250 0 0 0
2017/11/17 08:10:00 BASE 11.03 26 17.44 6 2.0 87 0.2 13 36 984.4 NA 0.0000 9999 4790 0 0 0
2017/11/17 08:11:00 BASE 10.33 31 17.44 6 2.0 87 0.2 13 36 984.5 NA 0.0000 9999 4860 0 0 0
2017/11/17 08:12:00 BASE 9.54 33 16.62 23 2.0 87 0.2 13 37 984.6 NA 0.0000 9999 5450 0 0 0
2017/11/17 08:13:00 BASE 8.67 37 16.62 23 2.1 87 0.2 14 38 984.7 NA 0.0000 9999 4490 5510 0 0
2017/11/17 08:14:00 BASE 7.95 45 15.69 16 2.1 87 0.2 14 39 984.8 NA 0.0000 9999 4560 0 0 0
2017/11/17 08:15:00 BASE 7.83 44 14.30 28 2.1 87 0.1 14 39 985.0 NA 0.0000 9999 4860 0 0 0
2017/11/17 08:16:00 BASE 7.48 50 13.58 21 2.1 87 0.1 15 41 985.0 NA 0.0000 9999 4950 0 0 0
2017/11/17 08:17:00 BASE 5.96 76 13.58 21 2.1 86 0.1 15 42 985.1 NA 0.0000 9999 4890 0 0 0
2017/11/17 08:18:00 BASE 3.50 97 13.58 21 2.1 86 0.1 16 43 985.2 NA 0.0000 9999 4790 0 0 0
2017/11/17 08:19:00 BASE 3.20 101 13.58 21 2.1 86 0.0 16 44 985.1 NA 0.0000 9999 4720 0 0 0
2017/11/17 08:20:00 BASE 4.49 101 11.27 42 2.0 86 -0.0 16 45 985.2 NA 0.0000 9999 4790 0 0 0
2017/11/17 08:21:00 BASE 4.10 100 10.91 20 1.9 87 -0.1 17 46 985.2 NA 0.0000 9999 4660 0 0 0
2017/11/17 08:22:00 BASE 3.45 97 10.19 50 1.9 87 -0.1 17 47 985.2 NA 0.0000 9999 4660 0 0 0
2017/11/17 08:23:00 BASE 3.50 119 9.36 41 1.8 87 -0.1 17 47 985.2 NA 0.0000 9999 4690 0 0 0
2017/11/17 08:24:00 BASE 2.71 143 9.36 41 1.7 88 -0.1 17 48 985.2 NA 0.0000 9999 4590 0 0 0
2017/11/17 08:25:00 BASE 1.41 120 8.85 87 1.6 88 -0.1 17 48 985.2 NA 0.0000 9999 4590 0 0 0
2017/11/17 08:26:00 BASE 1.50 93 6.74 52 1.5 89 -0.1 18 49 985.2 NA 0.0000 9999 4660 0 0 0
2017/11/17 08:27:00 BASE 2.15 114 5.61 112 1.5 90 -0.1 18 50 985.2 NA 0.0000 9999 4630 0 0 0
2017/11/17 08:28:00 BASE 2.27 133 5.61 112 1.4 90 -0.0 18 51 985.3 NA 0.0000 9999 4630 0 0 0
2017/11/17 08:29:00 BASE 2.98 133 5.61 112 1.4 91 0.0 19 52 985.2 NA 0.0000 9999 4630 0 0 0
2017/11/17 08:30:00 BASE 3.08 144 4.78 133 1.4 91 0.1 19 53 985.2 NA 0.0000 9999 4560 0 0 0
2017/11/17 08:31:00 BASE 2.68 159 4.78 133 1.5 91 0.1 19 53 985.1 NA 0.0000 9999 4590 0 0 0
2017/11/17 08:32:00 BASE 3.47 165 4.89 163 1.5 91 0.2 19 54 985.1 NA 0.0000 9999 4590 0 0 0
2017/11/17 08:33:00 BASE 3.60 159 4.89 163 1.5 91 0.2 20 54 985.1 NA 0.0000 9999 4560 0 0 0
2017/11/17 08:34:00 BASE 2.71 139 4.89 163 1.5 91 0.2 20 55 985.2 NA 0.0000 9999 4590 0 0 0
2017/11/17 08:35:00 BASE 3.36 89 6.28 2 1.6 90 0.2 20 56 985.1 NA 0.0000 9999 4560 0 0 0
2017/11/17 08:36:00 BASE 4.38 55 6.69 33 1.7 90 0.2 21 57 985.1 NA 0.0000 9999 4630 0 0 0
2017/11/17 08:37:00 BASE 3.98 101 6.69 33 1.8 89 0.2 21 59 985.1 NA 0.0000 9999 4590 0 0 0
2017/11/17 08:38:00 BASE 2.22 153 6.69 33 1.8 89 0.2 22 60 985.2 NA 0.0000 9999 4660 0 0 0
2017/11/17 08:39:00 BASE 1.23 184 6.69 33 1.9 89 0.2 22 61 985.2 NA 0.0000 9999 4660 0 0 0
2017/11/17 08:40:00 BASE 1.84 191 6.69 33 1.9 88 0.1 23 63 985.2 NA 0.0000 9999 4660 0 0 0
2017/11/17 08:41:00 BASE 2.13 176 6.69 33 1.9 88 0.1 24 65 985.2 NA 0.0000 9999 4660 0 0 0
2017/11/17 08:42:00 BASE 1.75 146 6.69 33 1.9 88 0.1 25 67 985.2 NA 0.0000 9999 4660 0 0 0
2017/11/17 08:43:00 BASE 1.43 252 6.69 33 1.9 87 0.0 25 69 985.1 NA 0.0000 9999 4660 0 0 0
2017/11/17 08:44:00 BASE 1.52 316 6.69 33 1.9 87 0.0 26 71 985.1 NA 0.0000 9999 4690 0 0 0
2017/11/17 08:45:00 BASE 3.06 14 7.00 33 2.0 87 -0.0 27 73 985.0 NA 0.0000 9999 4690 0 0 0
2017/11/17 08:46:00 BASE 3.55 59 7.00 33 2.0 87 -0.0 28 76 985.0 NA 0.0000 9999 4690 0 0 0
2017/11/17 08:47:00 BASE 4.01 69 9.52 46 1.9 87 -0.0 29 78 985.1 NA 0.0000 9999 4690 0 0 0
2017/11/17 08:48:00 BASE 4.84 33 9.52 46 2.0 87 0.0 30 80 985.1 NA 0.0000 9999 3740 0 0 0
2017/11/17 08:49:00 BASE 5.12 36 9.52 46 2.0 87 0.0 31 82 985.0 NA 0.0000 9999 3080 0 0 0
2017/11/17 08:50:00 BASE 6.56 34 9.52 46 2.0 87 0.1 32 85 985.0 NA 0.0000 9999 3580 0 0 0
2017/11/17 08:51:00 BASE 6.53 29 9.52 46 2.0 87 0.1 34 89 984.9 NA 0.0000 9999 4300 0 0 0
2017/11/17 08:52:00 BASE 6.65 25 9.52 46 2.1 87 0.1 36 92 984.9 NA 0.0000 9999 4430 0 0 0
2017/11/17 08:53:00 BASE 7.82 27 11.83 24 2.1 87 0.1 37 94 984.9 NA 0.0000 9999 3970 0 0 0
2017/11/17 08:54:00 BASE 7.65 32 11.83 24 2.1 87 0.1 37 95 984.9 NA 0.0000 9999 4560 0 0 0
2017/11/17 08:55:00 BASE 6.49 28 11.83 24 2.1 87 0.1 37 95 984.9 NA 0.0000 9999 4630 0 0 0
2017/11/17 08:56:00 BASE 7.98 25 11.83 24 2.1 86 0.1 38 96 984.8 NA 0.0000 9999 2560 0 0 0
2017/11/17 08:57:00 BASE 8.82 25 11.83 24 2.2 86 0.1 39 98 984.8 NA 0.0000 9999 2200 0 0 0
2017/11/17 08:58:00 BASE 8.03 25 11.83 24 2.2 86 0.0 39 99 984.8 NA 0.0000 9999 2490 0 0 0
2017/11/17 08:59:00 BASE 9.39 25 13.02 15 2.2 85 0.0 38 97 984.7 NA 0.0000 9999 4230 0 0 0
2017/11/17 09:00:00 BASE 9.67 23 13.02 15 2.2 85 -0.0 37 96 984.7 NA 0.0000 9999 4590 0 0 0
2017/11/17 09:01:00 BASE 9.19 17 13.02 15 2.2 85 -0.0 37 95 984.7 NA 0.0000 9999 2460 0 0 0
2017/11/17 09:02:00 BASE 8.83 9 13.02 15 2.2 85 -0.0 37 95 984.7 NA 0.0000 9999 2850 3540 0 0
2017/11/17 09:03:00 BASE 8.74 12 13.02 15 2.2 85 -0.1 37 96 984.7 NA 0.0000 9999 2950 0 0 0
2017/11/17 09:04:00 BASE 9.29 16 13.02 15 2.2 85 -0.0 39 99 984.6 NA 0.0000 9999 4360 0 0 0
2017/11/17 09:05:00 BASE 9.75 11 13.27 10 2.2 85 -0.0 41 104 984.6 NA 0.0000 9999 2920 0 0 0
2017/11/17 09:06:00 BASE 10.25 12 13.27 10 2.2 86 -0.0 43 109 984.5 NA 0.0000 9999 4530 0 0 0
2017/11/17 09:07:00 BASE 10.85 14 13.48 24 2.1 86 0.0 45 114 984.5 NA 0.0000 9999 3050 0 0 0
2017/11/17 09:08:00 BASE 11.23 13 13.48 24 2.1 86 0.1 46 117 984.4 NA 0.0000 9999 4690 0 0 0
2017/11/17 09:09:00 BASE 11.37 15 13.89 29 2.1 87 0.1 47 118 984.3 NA 0.0000 9999 4070 0 0 0
2017/11/17 09:10:00 BASE 11.34 16 13.89 29 2.1 87 0.1 47 118 984.3 NA 0.0000 9999 0 0 0 2030
2017/11/17 09:11:00 BASE 11.57 11 14.25 20 2.1 87 0.1 46 117 984.3 NA 0.0000 9999 4790 0 0 0
2017/11/17 09:12:00 BASE 11.83 10 14.25 20 2.1 87 0.1 45 115 984.3 NA 0.0000 9999 5090 0 0 0
2017/11/17 09:13:00 BASE 11.43 15 14.25 20 2.1 87 0.1 46 117 984.3 NA 0.0000 9999 5220 0 0 0
2017/11/17 09:14:00 BASE 11.37 20 14.25 20 2.1 87 0.2 47 119 984.3 NA 0.0000 9999 0 0 0 5610
2017/11/17 09:15:00 BASE 12.41 19 15.95 11 2.1 87 0.1 48 122 984.1 NA 0.0000 9999 5050 0 0 0
2017/11/17 09:16:00 BASE 13.39 16 15.95 11 2.1 87 0.1 49 125 984.2 NA 0.0000 9999 5480 0 0 0
2017/11/17 09:17:00 BASE 13.85 16 16.57 12 2.1 86 0.1 51 128 984.1 NA 0.0000 9999 4660 0 0 0
2017/11/17 09:18:00 BASE 13.71 16 16.57 12 2.1 86 0.1 52 132 984.2 NA 0.0000 9999 4720 0 0 0
2017/11/17 09:19:00 BASE 13.01 14 16.57 12 2.2 86 0.1 54 137 984.2 NA 0.0000 9999 5150 0 0 0
2017/11/17 09:20:00 BASE 12.33 13 16.57 12 2.2 86 0.1 56 141 984.3 NA 0.0000 9999 5280 0 0 0
2017/11/17 09:21:00 BASE 11.59 13 16.57 12 2.2 86 0.1 57 144 984.3 NA 0.0000 9999 5220 0 0 0
2017/11/17 09:22:00 BASE 12.51 12 16.57 12 2.2 86 0.1 59 148 984.2 NA 0.0000 9999 5150 0 0 0
2017/11/17 09:23:00 BASE 13.18 11 16.57 12 2.2 86 0.1 59 150 984.2 NA 0.0000 9999 5220 0 0 0
2017/11/17 09:24:00 BASE 12.93 13 16.57 12 2.2 86 0.1 59 150 984.3 NA 0.0000 9999 5180 0 0 0
2017/11/17 09:25:00 BASE 13.17 15 16.57 12 2.2 86 0.1 59 150 984.3 NA 0.0000 9999 5320 0 0 0
2017/11/17 09:26:00 BASE 12.48 17 16.57 12 2.2 86 0.1 58 149 984.4 NA 0.0000 9999 5740 6530 0 0
2017/11/17 09:27:00 BASE 11.46 16 15.69 6 2.2 86 0.0 59 150 984.4 NA 0.0000 9999 5840 0 0 0
2017/11/17 09:28:00 BASE 10.90 16 15.64 18 2.2 86 -0.0 58 150 984.5 NA 0.0000 9999 5680 0 0 0
2017/11/17 09:29:00 BASE 10.34 16 15.64 18 2.2 85 -0.0 58 149 984.5 NA 0.0000 9999 5610 0 0 0
2017/11/17 09:30:00 BASE 10.49 19 15.64 18 2.2 85 -0.0 59 150 984.6 NA 0.0000 9999 5680 0 0 0
2017/11/17 09:31:00 BASE 10.71 26 15.64 18 2.2 85 -0.0 59 151 984.6 NA 0.0000 9999 5510 0 0 0
2017/11/17 09:32:00 BASE 9.76 27 15.64 18 2.2 85 0.0 60 152 984.7 NA 0.0000 9999 5510 0 0 0
2017/11/17 09:33:00 BASE 8.81 27 15.64 18 2.2 86 0.0 60 153 984.7 NA 0.0000 UP 9000 5480 0 0 0
2017/11/17 09:34:00 BASE 9.11 25 15.43 13 2.2 86 0.1 59 152 984.7 NA 0.0000 UP 9999 5940 0 0 0
2017/11/17 09:35:00 BASE 8.74 23 13.84 12 2.1 86 0.1 58 151 984.7 NA 0.0000 UP 9999 6000 0 0 0
2017/11/17 09:36:00 BASE 8.04 20 13.58 10 2.1 87 0.1 58 151 984.7 NA 0.0000 UP 9999 5970 0 0 0
2017/11/17 09:37:00 BASE 7.60 21 13.58 10 2.1 87 0.1 57 150 984.8 NA 0.0000 UP 9999 5870 0 0 0
2017/11/17 09:38:00 BASE 7.24 25 13.58 10 2.1 87 0.2 56 149 984.8 NA 0.0000 UP 9999 5810 0 0 0
2017/11/17 09:39:00 BASE 6.42 34 13.27 15 2.1 87 0.2 55 147 985.0 NA 0.0000 UP 9999 5840 0 0 0
2017/11/17 09:40:00 BASE 6.22 40 13.27 15 2.1 87 0.2 55 146 985.1 NA 0.0000 UP 9999 5610 0 0 0
2017/11/17 09:41:00 BASE 6.04 35 12.14 25 2.1 87 0.2 54 146 985.1 NA 0.0000 UP 9999 4690 0 0 0
2017/11/17 09:42:00 BASE 5.42 29 12.14 25 2.1 87 0.2 54 147 985.0 NA 0.0000 UP 9999 4790 5580 0 0
2017/11/17 09:43:00 BASE 5.59 46 12.14 25 2.1 87 0.2 55 149 985.0 NA 0.0000 UP 9999 4890 5480 0 0
2017/11/17 09:44:00 BASE 5.05 77 10.29 30 2.1 87 0.2 56 152 985.1 NA 0.0000 UP 9999 5380 5970 0 0
2017/11/17 09:45:00 BASE 5.07 109 10.03 8 2.0 87 0.1 57 154 985.1 NA 0.0000 UP BR 9999 5350 5970 0 0
2017/11/17 09:46:00 BASE 4.27 126 9.05 25 1.9 87 0.0 57 155 985.2 NA 0.0000 UP 9999 5250 0 0 0
2017/11/17 09:47:00 BASE 3.73 80 8.80 18 1.8 88 0.0 57 155 985.1 NA 0.0000 UP BR 9000 4630 0 0 0
2017/11/17 09:48:00 BASE 3.44 53 8.64 38 1.7 88 0.0 57 157 985.1 NA 0.0000 UP BR 9000 4430 0 0 0
2017/11/17 09:49:00 BASE 2.88 158 8.54 24 1.7 89 0.0 58 158 985.3 NA 0.0000 UP BR 9000 4820 0 0 0
2017/11/17 09:50:00 BASE 2.73 154 8.13 10 1.6 90 0.1 59 161 985.3 NA 0.0000 UP BR 9999 4430 0 0 0
2017/11/17 09:51:00 BASE 2.97 160 8.13 10 1.6 90 0.1 60 164 985.1 NA 0.0000 UP BR 9999 4530 0 0 0
2017/11/17 09:52:00 BASE 3.44 189 8.13 10 1.5 90 0.1 61 166 985.2 NA 0.0000 UP 9999 4100 4790 0 0
2017/11/17 09:53:00 BASE 2.48 234 8.13 10 1.5 90 0.0 61 168 985.3 NA 0.0000 UP 9999 4130 0 0 0
2017/11/17 09:54:00 BASE 1.70 284 8.13 10 1.4 91 0.1 62 169 985.3 NA 0.0000 UP 9999 4000 0 0 0
2017/11/17 09:55:00 BASE 0.85 23 8.13 10 1.5 91 0.1 62 170 985.3 NA 0.0000 UP 9999 3840 0 0 0
2017/11/17 09:56:00 BASE 0.58 304 8.13 10 1.6 90 0.2 63 173 985.3 NA 0.0000 UP 9999 4000 0 0 0
2017/11/17 09:57:00 BASE 2.59 243 5.71 211 1.6 90 0.2 65 176 985.1 NA 0.0000 9999 3940 0 0 0
2017/11/17 09:58:00 BASE 4.92 218 6.38 211 1.7 90 0.2 67 180 984.9 NA 0.0000 9999 3940 0 0 0
2017/11/17 09:59:00 BASE 5.11 215 6.38 211 1.7 89 0.1 68 184 985.0 NA 0.0000 9999 3970 0 0 0
2017/11/17 10:00:00 BASE 2.97 244 6.38 211 1.6 89 -0.0 70 188 985.2 NA 0.0000 9999 3970 0 0 0
2017/11/17 10:01:00 BASE 1.47 286 6.38 211 1.5 90 -0.1 72 192 985.3 NA 0.0000 9999 4000 0 0 0
2017/11/17 10:02:00 BASE 1.68 284 6.38 211 1.3 90 -0.1 73 196 985.4 NA 0.0000 9999 4070 0 0 0
2017/11/17 10:03:00 BASE 1.63 270 6.38 211 1.2 91 -0.1 75 200 985.4 NA 0.0000 9999 4040 0 0 0
2017/11/17 10:04:00 BASE 1.17 237 6.38 211 1.1 92 -0.1 75 200 985.4 NA 0.0000 9999 4070 0 0 0
2017/11/17 10:05:00 BASE 2.05 213 6.38 211 1.0 93 -0.0 75 201 985.4 NA 0.0000 9999 4170 0 0 0
2017/11/17 10:06:00 BASE 2.99 221 6.38 211 0.9 94 -0.0 77 205 985.4 NA 0.0000 9999 4040 0 0 0
2017/11/17 10:07:00 BASE 2.79 238 6.38 211 0.8 94 -0.1 79 210 985.4 NA 0.0000 9999 4000 0 0 0
2017/11/17 10:08:00 BASE 3.58 247 6.12 217 0.7 95 0.0 82 216 985.3 NA 0.0000 9999 4200 0 0 0
2017/11/17 10:09:00 BASE 4.68 246 6.89 268 0.8 95 0.1 85 221 985.3 NA 0.0000 9999 4100 0 0 0
2017/11/17 10:10:00 BASE 5.04 261 8.75 327 0.8 96 0.3 86 224 985.2 NA 0.0000 9999 4070 0 0 0
2017/11/17 10:11:00 BASE 5.82 320 10.49 28 1.0 96 0.5 88 229 985.3 NA 0.0000 9999 3970 0 0 0
2017/11/17 10:12:00 BASE 5.49 340 10.49 28 1.3 96 0.7 89 232 985.2 NA 0.0000 9999 3900 0 0 0
2017/11/17 10:13:00 BASE 5.22 327 10.49 28 1.5 95 0.7 88 229 985.1 NA 0.0000 9999 3870 0 0 0
2017/11/17 10:14:00 BASE 5.93 323 10.49 28 1.7 94 0.8 85 223 985.1 NA 0.0000 9999 3840 0 0 0
2017/11/17 10:15:00 BASE 6.62 345 10.49 28 1.8 92 0.6 83 219 985.2 NA 0.0000 9999 3710 0 0 0
2017/11/17 10:16:00 BASE 7.35 353 10.49 28 1.9 91 0.5 83 219 985.2 NA 0.0000 9999 3870 0 0 0
2017/11/17 10:17:00 BASE 5.96 310 10.49 28 1.9 90 0.4 82 219 985.2 NA 0.0000 9999 3900 0 0 0
2017/11/17 10:18:00 BASE 4.06 282 10.49 28 1.9 89 0.3 82 218 985.2 NA 0.0000 9999 3870 0 0 0
2017/11/17 10:19:00 BASE 3.68 276 10.49 28 1.9 89 0.2 82 219 985.2 NA 0.0000 9999 3900 0 0 0
2017/11/17 10:20:00 BASE 4.50 273 10.49 28 1.8 88 0.1 84 223 985.2 NA 0.0000 9999 3770 0 0 0
2017/11/17 10:21:00 BASE 5.02 277 9.98 10 1.8 88 0.1 85 226 985.2 NA 0.0000 9999 3710 0 0 0
2017/11/17 10:22:00 BASE 4.33 295 9.98 10 1.8 88 0.0 86 228 985.2 NA 0.0000 9999 3740 0 0 0
2017/11/17 10:23:00 BASE 2.84 307 9.98 10 1.7 89 0.0 87 230 985.2 NA 0.0000 9999 3810 0 0 0
2017/11/17 10:24:00 BASE 2.64 299 9.98 10 1.7 89 0.1 86 229 985.2 NA 0.0000 9999 3900 0 0 0
2017/11/17 10:25:00 BASE 3.15 311 8.18 329 1.7 89 0.1 84 226 985.3 NA 0.0000 9999 3870 0 0 0
2017/11/17 10:26:00 BASE 1.72 315 6.84 297 1.7 89 0.1 83 225 985.3 NA 0.0000 9999 3840 0 0 0
2017/11/17 10:27:00 BASE 0.32 309 6.17 272 1.8 89 0.1 83 224 985.3 NA 0.0000 9999 3840 0 0 0
2017/11/17 10:28:00 BASE 0.23 333 6.17 272 1.8 89 0.2 82 222 985.3 NA 0.0000 9999 3870 0 0 0
2017/11/17 10:29:00 BASE 0.32 354 6.17 272 1.8 89 0.1 82 223 985.4 NA 0.0000 9999 3870 19920 20900 0
2017/11/17 10:30:00 BASE 2.68 352 7.15 3 1.8 89 0.1 83 226 985.2 NA 0.0000 9999 3810 0 0 0
2017/11/17 10:31:00 BASE 5.06 9 7.15 3 1.9 88 0.1 84 229 985.3 NA 0.0000 9999 3810 0 0 0
2017/11/17 10:32:00 BASE 4.88 21 7.15 3 1.9 88 0.1 86 234 985.3 NA 0.0000 9999 3810 0 0 0
2017/11/17 10:33:00 BASE 3.41 353 7.15 3 1.9 87 0.1 90 242 985.2 NA 0.0000 9999 3810 0 0 0
2017/11/17 10:34:00 BASE 2.73 334 7.15 3 1.9 87 0.1 94 250 985.2 NA 0.0000 9999 3900 0 0 0
2017/11/17 10:35:00 BASE 4.08 339 7.15 3 1.9 87 0.0 97 257 985.2 NA 0.0000 9999 3810 0 0 0
2017/11/17 10:36:00 BASE 4.49 335 7.72 336 1.9 88 0.0 102 267 985.2 NA 0.0000 9999 3710 0 0 0
2017/11/17 10:37:00 BASE 5.18 342 7.72 336 1.8 88 0.0 107 279 985.2 NA 0.0000 9999 3710 0 0 0
2017/11/17 10:38:00 BASE 5.50 345 7.72 336 1.8 88 0.0 112 289 985.2 NA 0.0000 9999 3710 0 0 0
2017/11/17 10:39:00 BASE 5.44 344 8.08 343 1.8 87 -0.0 112 292 985.2 NA 0.0000 9999 3770 0 0 0
2017/11/17 10:40:00 BASE 5.47 1 8.08 343 1.9 87 -0.0 112 291 985.3 NA 0.0000 9999 3810 0 0 0
2017/11/17 10:41:00 BASE 6.39 20 9.93 11 1.9 87 -0.0 110 288 985.1 NA 0.0000 9999 3840 0 0 0
2017/11/17 10:42:00 BASE 6.76 3 9.93 11 1.9 87 -0.0 107 284 985.2 NA 0.0000 9999 3770 0 0 0
2017/11/17 10:43:00 BASE 5.91 349 9.93 11 1.8 87 -0.0 105 281 985.1 NA 0.0000 9999 3740 0 0 0
2017/11/17 10:44:00 BASE 7.30 339 11.47 347 1.8 87 -0.0 104 279 985.1 NA 0.0000 9999 3670 0 0 0
2017/11/17 10:45:00 BASE 6.84 338 11.47 347 1.8 87 -0.1 103 277 985.1 NA 0.0000 9999 3710 0 0 0
2017/11/17 10:46:00 BASE 8.39 343 12.45 331 1.8 87 -0.2 102 274 985.0 NA 0.0000 9999 3610 0 0 0
2017/11/17 10:47:00 BASE 9.45 330 12.45 331 1.8 87 -0.2 101 274 985.1 NA 0.0000 9999 3480 0 0 0
2017/11/17 10:48:00 BASE 7.60 326 12.45 331 1.8 87 -0.2 102 275 985.2 NA 0.0000 9999 3580 0 0 0
2017/11/17 10:49:00 BASE 7.99 336 12.45 331 1.8 87 -0.2 101 274 985.1 NA 0.0000 9999 3670 0 0 0
2017/11/17 10:50:00 BASE 6.84 349 12.45 331 1.9 86 -0.1 99 270 985.2 NA 0.0000 9999 3710 23690 0 0
2017/11/17 10:51:00 BASE 7.52 353 12.45 331 1.9 86 -0.1 97 266 985.1 NA 0.0000 9999 3710 0 0 0
2017/11/17 10:52:00 BASE 8.87 357 12.45 331 1.9 86 -0.2 95 262 985.3 NA 0.0000 9999 3580 0 0 0
2017/11/17 10:53:00 BASE 8.15 358 12.45 331 1.9 86 -0.2 95 263 985.2 NA 0.0000 9999 3450 0 0 0
2017/11/17 10:54:00 BASE 9.14 347 12.45 331 1.9 86 -0.2 96 265 985.1 NA 0.0000 9999 3640 0 0 0
2017/11/17 10:55:00 BASE 10.27 342 12.45 331 1.9 86 -0.2 98 268 985.1 NA 0.0000 9999 3480 0 0 0
2017/11/17 10:56:00 BASE 9.18 330 12.40 346 2.0 86 -0.2 100 273 985.2 NA 0.0000 9999 3480 0 0 0
2017/11/17 10:57:00 BASE 7.64 330 12.40 346 2.0 86 -0.2 102 277 985.2 NA 0.0000 9999 3670 0 0 0
2017/11/17 10:58:00 BASE 6.83 347 12.40 346 2.0 85 -0.2 102 278 985.3 NA 0.0000 9999 3810 0 0 0
2017/11/17 10:59:00 BASE 5.03 5 12.40 346 2.0 85 -0.2 103 280 985.4 NA 0.0000 9999 3670 0 0 0
2017/11/17 11:00:00 BASE 4.61 12 12.40 346 2.0 85 -0.2 103 281 985.3 NA 0.0000 9999 3640 0 0 0
2017/11/17 11:01:00 BASE 4.75 345 12.40 346 2.0 85 -0.2 103 280 985.3 NA 0.0000 9999 3740 0 0 0
2017/11/17 11:02:00 BASE 6.00 333 12.40 346 2.0 85 -0.2 103 280 985.2 NA 0.0000 9999 3670 0 0 0
2017/11/17 11:03:00 BASE 7.57 331 12.40 346 1.9 86 -0.2 104 283 985.2 NA 0.0000 9999 3510 0 0 0
2017/11/17 11:04:00 BASE 7.12 320 12.40 346 1.9 86 -0.2 106 287 985.1 NA 0.0000 9999 3710 0 0 0
2017/11/17 11:05:00 BASE 6.48 319 11.73 346 1.9 86 -0.2 109 293 985.1 NA 0.0000 9999 3670 0 0 0
2017/11/17 11:06:00 BASE 7.62 328 11.11 323 1.9 86 -0.2 112 301 985.0 NA 0.0000 9999 3610 0 0 0
2017/11/17 11:07:00 BASE 9.65 342 12.60 24 1.9 86 -0.2 117 310 985.0 NA 0.0000 9999 3740 0 0 0
2017/11/17 11:08:00 BASE 11.09 352 14.30 27 1.9 85 -0.3 119 316 984.9 NA 0.0000 9999 3710 21160 0 0
2017/11/17 11:09:00 BASE 9.13 333 14.30 27 1.9 85 -0.3 120 319 985.3 NA 0.0000 9999 3640 0 0 0
2017/11/17 11:10:00 BASE 4.65 302 14.30 27 1.9 85 -0.3 122 322 985.3 NA 0.0000 9999 3670 0 0 0
2017/11/17 11:11:00 BASE 3.18 332 14.30 27 1.9 85 -0.3 125 327 985.1 NA 0.0000 9999 3580 0 0 0
2017/11/17 11:12:00 BASE 3.50 290 14.30 27 2.0 85 -0.3 128 334 985.2 NA 0.0000 9999 3640 0 0 0
2017/11/17 11:13:00 BASE 3.41 254 14.30 27 2.0 85 -0.3 131 340 985.2 NA 0.0000 9999 3840 5510 0 0
2017/11/17 11:14:00 BASE 3.99 307 14.30 27 2.1 84 -0.3 134 346 985.2 NA 0.0000 9999 5410 23620 0 0
2017/11/17 11:15:00 BASE 4.16 334 14.30 27 2.1 83 -0.4 137 352 985.2 NA 0.0000 9999 5280 0 0 0
2017/11/17 11:16:00 BASE 3.35 334 14.30 27 2.2 83 -0.4 140 358 985.2 NA 0.0000 9999 4950 0 0 0
2017/11/17 11:17:00 BASE 4.63 15 14.30 27 2.1 83 -0.4 144 366 985.1 NA 0.0000 9999 6860 0 0 0
2017/11/17 11:18:00 BASE 5.41 21 10.39 4 2.1 83 -0.4 149 376 985.2 NA 0.0000 9999 6790 0 0 0
2017/11/17 11:19:00 BASE 5.89 21 10.39 4 2.1 84 -0.3 154 386 985.1 NA 0.0000 9999 5770 0 0 0
2017/11/17 11:20:00 BASE 6.35 15 10.39 4 2.1 84 -0.3 160 398 985.1 NA 0.0000 9999 5610 6730 0 0
2017/11/17 11:21:00 BASE 7.59 15 10.80 17 2.1 85 -0.2 168 415 985.1 NA 0.0000 9999 5680 7280 0 0
2017/11/17 11:22:00 BASE 7.37 21 10.80 17 2.1 85 -0.2 177 435 985.1 NA 0.0000 9999 5380 7380 0 0
2017/11/17 11:23:00 BASE 6.43 15 10.80 17 2.1 86 -0.1 188 457 985.1 NA 0.0000 9999 5510 6370 0 0
2017/11/17 11:24:00 BASE 6.95 7 10.80 17 2.1 86 -0.1 197 477 985.2 NA 0.0000 9999 5380 6230 0 0
2017/11/17 11:25:00 BASE 6.92 3 10.80 17 2.1 86 -0.0 203 492 985.2 NA 0.0000 9999 5280 6170 0 0
2017/11/17 11:26:00 BASE 7.40 0 10.80 17 2.1 86 -0.0 203 495 985.2 NA 0.0000 9999 5150 5680 6070 0
2017/11/17 11:27:00 BASE 7.54 1 10.80 17 2.0 86 -0.1 201 492 985.2 NA 0.0000 9999 5090 23030 0 0
2017/11/17 11:28:00 BASE 7.59 7 10.80 17 2.0 86 -0.0 198 487 985.2 NA 0.0000 9999 5150 0 0 0
2017/11/17 11:29:00 BASE 8.28 6 11.16 19 2.0 86 -0.1 196 483 985.2 NA 0.0000 9999 5280 0 0 0
2017/11/17 11:30:00 BASE 8.27 5 11.16 19 2.0 86 -0.1 194 479 985.2 NA 0.0000 9999 5480 0 0 0
2017/11/17 11:31:00 BASE 8.45 2 11.16 19 2.0 86 -0.0 192 476 985.2 NA 0.0000 9999 5280 0 0 0
2017/11/17 11:32:00 BASE 8.49 353 11.16 19 2.0 86 -0.0 189 470 985.2 NA 0.0000 9999 5220 0 0 0
2017/11/17 11:33:00 BASE 8.32 354 11.16 19 2.1 86 -0.1 183 460 985.1 NA 0.0000 9999 4920 0 0 0
2017/11/17 11:34:00 BASE 9.31 1 11.16 19 2.1 86 -0.1 176 444 985.1 NA 0.0000 9999 5480 0 0 0
2017/11/17 11:35:00 BASE 9.05 8 11.16 19 2.1 85 -0.1 167 427 985.2 NA 0.0000 9999 4990 0 0 0
2017/11/17 11:36:00 BASE 8.68 7 11.16 19 2.1 85 -0.1 160 411 985.2 NA 0.0000 9999 4630 22610 0 0
2017/11/17 11:37:00 BASE 8.52 6 11.16 19 2.1 85 -0.2 154 398 985.2 NA 0.0000 9999 4170 4790 0 0
2017/11/17 11:38:00 BASE 7.74 9 11.16 19 2.1 85 -0.1 147 385 985.2 NA 0.0000 9999 4170 0 0 0
2017/11/17 11:39:00 BASE 7.70 8 11.11 26 2.1 85 -0.1 139 369 985.2 NA 0.0000 9999 4070 0 0 0
2017/11/17 11:40:00 BASE 7.59 3 11.11 26 2.1 85 -0.1 132 352 985.3 NA 0.0000 9999 4230 22050 0 0
2017/11/17 11:41:00 BASE 7.91 5 11.06 320 2.1 85 -0.2 125 337 985.2 NA 0.0000 9999 3970 0 0 0
2017/11/17 11:42:00 BASE 7.87 9 11.06 320 2.2 85 -0.2 120 326 985.3 NA 0.0000 9999 4100 0 0 0
2017/11/17 11:43:00 BASE 7.44 10 10.75 11 2.2 84 -0.2 118 321 985.3 NA 0.0000 9999 4000 0 0 0
2017/11/17 11:44:00 BASE 7.14 12 10.34 1 2.2 84 -0.2 118 321 985.3 NA 0.0000 9999 4000 0 0 0
2017/11/17 11:45:00 BASE 6.88 13 10.19 9 2.2 84 -0.2 119 323 985.3 NA 0.0000 9999 4100 0 0 0
2017/11/17 11:46:00 BASE 7.39 15 10.39 9 2.1 85 -0.2 121 327 985.2 NA 0.0000 9999 4130 0 0 0
2017/11/17 11:47:00 BASE 7.83 21 10.39 9 2.1 85 -0.2 125 336 985.2 NA 0.0000 9999 4000 0 0 0
2017/11/17 11:48:00 BASE 7.58 23 10.39 9 2.0 85 -0.1 131 349 985.2 NA 0.0000 9999 3840 0 0 0
2017/11/17 11:49:00 BASE 7.37 20 10.39 9 2.0 86 -0.1 138 363 985.2 NA 0.0000 9999 4270 0 0 0
2017/11/17 11:50:00 BASE 7.98 19 10.39 9 2.0 86 -0.1 142 373 985.2 NA 0.0000 9999 4330 4820 0 0
2017/11/17 11:51:00 BASE 7.91 20 10.39 9 2.0 86 -0.1 143 375 985.2 NA 0.0000 9999 3940 0 0 0
2017/11/17 11:52:00 BASE 7.92 17 10.39 9 2.0 86 -0.1 143 376 985.2 NA 0.0000 9999 3840 0 0 0
2017/11/17 11:53:00 BASE 7.85 15 10.39 9 2.0 86 -0.1 141 372 985.2 NA 0.0000 9999 3840 0 0 0
2017/11/17 11:54:00 BASE 7.75 16 11.42 28 2.0 86 -0.1 137 365 985.2 NA 0.0000 9999 4000 0 0 0
2017/11/17 11:55:00 BASE 9.01 17 11.42 28 2.0 86 -0.1 134 357 985.1 NA 0.0000 9999 4200 4860 0 0
2017/11/17 11:56:00 BASE 9.41 16 11.42 28 2.0 86 -0.2 131 351 985.1 NA 0.0000 9999 3900 4530 0 0
2017/11/17 11:57:00 BASE 8.56 13 11.42 28 2.0 86 -0.2 129 348 985.2 NA 0.0000 9999 3900 0 0 0
2017/11/17 11:58:00 BASE 8.14 14 11.42 28 2.0 85 -0.2 130 350 985.2 NA 0.0000 9999 3740 0 0 0
2017/11/17 11:59:00 BASE 7.67 13 11.42 28 2.0 85 -0.2 132 356 985.3 NA 0.0000 9999 3670 0 0 0
2017/11/17 12:00:00 BASE 7.75 12 11.42 28 2.0 85 -0.3 134 359 985.2 NA 0.0000 9999 3740 0 0 0
2017/11/17 12:01:00 BASE 7.76 12 11.42 28 2.0 85 -0.3 133 359 985.2 NA 0.0000 9999 3840 4890 0 0
2017/11/17 12:02:00 BASE 7.44 12 11.42 28 2.0 85 -0.3 132 356 985.2 NA 0.0000 9999 3740 0 0 0
2017/11/17 12:03:00 BASE 7.71 13 11.42 28 2.0 85 -0.3 132 356 985.2 NA 0.0000 9999 3670 0 0 0
2017/11/17 12:04:00 BASE 7.81 13 11.37 13 2.0 85 -0.3 132 358 985.2 NA 0.0000 9999 3640 0 0 0
2017/11/17 12:05:00 BASE 7.93 13 10.44 23 2.0 85 -0.3 133 359 985.1 NA 0.0000 9999 3710 0 0 0
2017/11/17 12:06:00 BASE 8.48 13 10.44 23 2.0 85 -0.3 134 362 985.1 NA 0.0000 9999 3510 0 0 0
2017/11/17 12:07:00 BASE 8.88 13 10.96 15 2.0 85 -0.3 135 365 985.1 NA 0.0000 9999 3610 0 0 0
2017/11/17 12:08:00 BASE 9.41 13 11.01 5 2.0 85 -0.3 137 369 985.1 NA 0.0000 9999 3540 0 0 0
2017/11/17 12:09:00 BASE 9.05 12 11.01 5 2.1 84 -0.3 139 374 985.1 NA 0.0000 9999 3580 0 0 0
2017/11/17 12:10:00 BASE 8.86 11 11.21 10 2.1 84 -0.3 142 381 985.1 NA 0.0000 9999 3540 0 0 0
2017/11/17 12:11:00 BASE 9.54 13 11.21 10 2.1 83 -0.4 146 389 985.0 NA 0.0000 9999 3480 0 0 0
2017/11/17 12:12:00 BASE 9.79 15 11.68 26 2.1 83 -0.4 149 396 985.0 NA 0.0000 9999 3510 0 0 0
2017/11/17 12:13:00 BASE 10.13 15 11.68 26 2.2 83 -0.4 151 401 985.0 NA 0.0000 9999 3510 0 0 0
2017/11/17 12:14:00 BASE 10.04 14 12.04 16 2.2 83 -0.5 156 411 985.0 NA 0.0000 9999 3580 0 0 0
2017/11/17 12:15:00 BASE 9.75 15 12.04 16 2.2 83 -0.4 160 419 985.0 NA 0.0000 9999 3510 0 0 0
2017/11/17 12:16:00 BASE 9.73 15 12.04 16 2.2 83 -0.4 160 419 985.0 NA 0.0000 9999 3540 0 0 0
2017/11/17 12:17:00 BASE 9.91 14 12.04 16 2.2 83 -0.4 157 413 985.0 NA 0.0000 9999 3610 0 0 0
2017/11/17 12:18:00 BASE 9.69 13 12.04 16 2.2 83 -0.4 152 402 985.0 NA 0.0000 9999 3580 0 0 0
2017/11/17 12:19:00 BASE 10.03 14 12.04 16 2.2 83 -0.4 147 392 985.0 NA 0.0000 9999 3540 0 0 0
2017/11/17 12:20:00 BASE 10.19 14 12.04 16 2.2 83 -0.4 144 385 985.0 NA 0.0000 9999 4070 0 0 0
2017/11/17 12:21:00 BASE 9.55 15 12.04 16 2.2 83 -0.4 144 386 985.0 NA 0.0000 9999 4070 0 0 0
2017/11/17 12:22:00 BASE 9.43 16 12.04 16 2.2 83 -0.4 148 395 985.0 NA 0.0000 9999 3610 0 0 0
2017/11/17 12:23:00 BASE 9.97 15 12.45 15 2.2 83 -0.4 152 404 985.0 NA 0.0000 9999 4130 0 0 0
2017/11/17 12:24:00 BASE 10.12 15 12.45 15 2.1 83 -0.4 154 409 985.0 NA 0.0000 9999 3310 4100 4590 0
2017/11/17 12:25:00 BASE 9.57 16 12.45 15 2.1 83 -0.5 154 409 985.0 NA 0.0000 9999 3310 4170 0 0
2017/11/17 12:26:00 BASE 9.23 15 12.45 15 2.1 83 -0.5 156 414 985.0 NA 0.0000 9999 3280 0 0 0
2017/11/17 12:27:00 BASE 9.31 14 12.45 15 2.1 83 -0.5 158 420 985.0 NA 0.0000 9999 3810 0 0 0
2017/11/17 12:28:00 BASE 9.35 15 12.45 15 2.1 83 -0.5 163 431 985.0 NA 0.0000 9999 3250 0 0 0
2017/11/17 12:29:00 BASE 9.18 15 12.45 15 2.1 83 -0.5 171 449 985.0 NA 0.0000 9999 3870 18180 0 0
2017/11/17 12:30:00 BASE 9.23 15 12.45 15 2.0 83 -0.5 181 470 985.0 NA 0.0000 9999 4430 20440 21560 0
2017/11/17 12:31:00 BASE 9.65 15 12.45 15 2.0 83 -0.5 189 487 985.0 NA 0.0000 9999 4000 4630 0 0
2017/11/17 12:32:00 BASE 10.32 14 12.45 15 2.0 83 -0.6 194 499 984.9 NA 0.0000 9999 5180 0 0 0
2017/11/17 12:33:00 BASE 10.26 15 11.83 1 2.0 83 -0.6 198 508 984.9 NA 0.0000 9999 4170 5320 0 0
2017/11/17 12:34:00 BASE 10.42 15 12.09 26 2.0 82 -0.7 200 515 984.9 NA 0.0000 9999 4170 5280 8070 0
2017/11/17 12:35:00 BASE 10.61 14 12.09 26 2.0 82 -0.7 203 521 984.9 NA 0.0000 9999 5250 8070 0 0
2017/11/17 12:36:00 BASE 9.79 14 12.09 26 2.0 82 -0.8 205 526 984.9 NA 0.0000 9999 6730 8100 0 0
2017/11/17 12:37:00 BASE 10.01 12 12.09 26 2.0 82 -0.7 203 523 984.9 NA 0.0000 9999 4130 6730 8140 0
2017/11/17 12:38:00 BASE 10.39 11 12.09 26 2.0 82 -0.7 201 520 984.9 NA 0.0000 9999 6760 8040 0 0
2017/11/17 12:39:00 BASE 10.26 13 12.09 26 2.0 82 -0.7 199 515 984.9 NA 0.0000 9999 6760 8010 0 0
2017/11/17 12:40:00 BASE 10.91 13 12.91 16 2.0 82 -0.7 195 509 984.9 NA 0.0000 9999 8040 0 0 0
2017/11/17 12:41:00 BASE 11.21 10 12.91 16 2.0 82 -0.7 193 503 984.9 NA 0.0000 9999 6890 8140 0 0
2017/11/17 12:42:00 BASE 10.67 8 12.91 16 2.0 82 -0.8 190 498 984.9 NA 0.0000 9999 6660 8040 0 0
2017/11/17 12:43:00 BASE 10.35 11 12.91 16 2.0 82 -0.8 188 495 984.9 NA 0.0000 9999 4200 6860 8040 0
2017/11/17 12:44:00 BASE 10.44 12 12.91 16 2.0 82 -0.8 188 493 984.9 NA 0.0000 9999 4130 7020 8010 0
2017/11/17 12:45:00 BASE 11.19 13 13.68 10 2.0 82 -0.8 188 494 984.8 NA 0.0000 9999 6730 8040 19390 0
2017/11/17 12:46:00 BASE 11.59 15 13.68 10 2.0 82 -0.8 190 499 984.8 NA 0.0000 9999 6890 8100 0 0
2017/11/17 12:47:00 BASE 10.76 17 13.68 10 2.0 82 -0.8 193 505 984.8 NA 0.0000 9999 6820 7940 0 0
2017/11/17 12:48:00 BASE 10.69 16 13.68 10 2.0 82 -0.8 197 513 984.8 NA 0.0000 9999 7970 0 0 0
2017/11/17 12:49:00 BASE 10.49 17 13.68 10 2.0 82 -0.8 200 520 984.9 NA 0.0000 9999 6460 7910 0 0
2017/11/17 12:50:00 BASE 10.13 17 13.68 10 2.0 82 -0.8 202 524 984.8 NA 0.0000 9999 6730 7940 0 0
2017/11/17 12:51:00 BASE 11.11 17 13.68 10 2.0 82 -0.8 204 527 984.8 NA 0.0000 9999 6760 7970 0 0
2017/11/17 12:52:00 BASE 11.30 18 13.68 10 2.0 82 -0.8 204 529 984.8 NA 0.0000 9999 6690 7780 0 0
2017/11/17 12:53:00 BASE 10.72 18 13.68 10 2.0 81 -0.8 205 532 984.8 NA 0.0000 9999 6730 7710 0 0
2017/11/17 12:54:00 BASE 10.15 21 13.68 10 2.0 81 -0.9 206 534 984.9 NA 0.0000 9999 6860 7710 0 0
2017/11/17 12:55:00 BASE 8.93 22 12.66 19 2.0 81 -0.9 204 530 985.0 NA 0.0000 9999 6960 0 0 0
2017/11/17 12:56:00 BASE 8.04 20 12.60 20 2.1 81 -0.9 202 526 985.0 NA 0.0000 9999 7090 7740 0 0
2017/11/17 12:57:00 BASE 8.00 19 12.60 20 2.1 81 -0.8 201 523 985.1 NA 0.0000 9999 5740 7810 0 0
2017/11/17 12:58:00 BASE 7.17 20 12.60 20 2.1 81 -0.8 199 520 985.2 NA 0.0000 9999 5450 7840 0 0
2017/11/17 12:59:00 BASE 6.13 18 12.60 20 2.1 81 -0.8 197 515 985.3 NA 0.0000 9999 8300 0 0 0
2017/11/17 13:00:00 BASE 5.76 14 12.60 20 2.1 81 -0.8 194 510 985.3 NA 0.0000 9999 6070 0 0 0
2017/11/17 13:01:00 BASE 5.46 13 12.24 20 2.1 81 -0.8 192 507 985.3 NA 0.0000 9999 5810 0 0 0
2017/11/17 13:02:00 BASE 4.92 15 12.04 12 2.1 81 -0.8 191 505 985.4 NA 0.0000 9999 7780 0 0 0
2017/11/17 13:03:00 BASE 3.96 14 11.63 16 2.1 82 -0.7 191 503 985.4 NA 0.0000 9999 8170 0 0 0
2017/11/17 13:04:00 BASE 3.26 6 9.98 8 2.1 82 -0.7 189 499 985.4 NA 0.0000 9999 7090 0 0 0
2017/11/17 13:05:00 BASE 3.39 5 9.98 8 2.1 82 -0.7 184 488 985.4 NA 0.0000 9999 4070 0 0 0
2017/11/17 13:06:00 BASE 3.88 3 9.98 8 2.1 82 -0.7 179 476 985.5 NA 0.0000 9999 3350 4000 0 0
2017/11/17 13:07:00 BASE 4.66 355 7.77 16 2.1 82 -0.7 174 467 985.4 NA 0.0000 9999 3970 0 0 0
2017/11/17 13:08:00 BASE 5.32 343 7.77 16 2.0 82 -0.7 171 459 985.4 NA 0.0000 9999 3310 3970 0 0
2017/11/17 13:09:00 BASE 5.03 337 7.56 14 2.0 82 -0.7 169 456 985.4 NA 0.0000 9999 3280 4000 0 0
2017/11/17 13:10:00 BASE 5.31 348 7.15 343 2.0 83 -0.7 168 454 985.4 NA 0.0000 9999 3310 3970 0 0
2017/11/17 13:11:00 BASE 5.87 349 7.15 343 2.0 83 -0.7 167 451 985.4 NA 0.0000 9999 3220 3940 0 0
2017/11/17 13:12:00 BASE 5.83 336 7.72 331 1.9 83 -0.7 167 450 985.4 NA 0.0000 9999 3150 3970 0 0
2017/11/17 13:13:00 BASE 6.52 335 8.33 327 1.9 83 -0.7 168 453 985.4 NA 0.0000 9999 3870 0 0 0
2017/11/17 13:14:00 BASE 7.49 329 8.95 317 1.9 83 -0.7 171 460 985.3 NA 0.0000 9999 3810 0 0 0
2017/11/17 13:15:00 BASE 7.36 322 9.26 318 1.8 83 -0.8 175 468 985.3 NA 0.0000 9999 3740 0 0 0
2017/11/17 13:16:00 BASE 6.51 318 9.26 318 1.8 83 -0.8 179 478 985.3 NA 0.0000 9999 3710 0 0 0
2017/11/17 13:17:00 BASE 5.55 315 9.26 318 1.6 84 -0.8 185 490 985.4 NA 0.0000 9999 3670 0 0 0
2017/11/17 13:18:00 BASE 5.38 318 9.26 318 1.5 84 -0.8 189 500 985.3 NA 0.0000 9999 3670 0 0 0
2017/11/17 13:19:00 BASE 5.81 322 9.26 318 1.4 85 -0.8 192 507 985.3 NA 0.0000 9999 3710 0 0 0
2017/11/17 13:20:00 BASE 6.99 328 9.26 318 1.4 86 -0.7 193 510 985.3 NA 0.0000 9999 3710 0 0 0
2017/11/17 13:21:00 BASE 7.15 328 9.26 318 1.4 87 -0.6 193 511 985.3 NA 0.0000 9999 3710 0 0 0
2017/11/17 13:22:00 BASE 5.78 322 9.26 318 1.4 87 -0.6 192 510 985.4 NA 0.0000 9999 3740 0 0 0
2017/11/17 13:23:00 BASE 5.12 322 9.26 318 1.3 87 -0.6 192 510 985.4 NA 0.0000 9999 3740 0 0 0
2017/11/17 13:24:00 BASE 5.41 323 9.26 318 1.3 88 -0.5 192 511 985.4 NA 0.0000 9999 3710 0 0 0
2017/11/17 13:25:00 BASE 5.72 322 9.11 337 1.2 88 -0.5 194 514 985.4 NA 0.0000 9999 3740 0 0 0
2017/11/17 13:26:00 BASE 5.66 323 9.11 337 1.1 89 -0.5 195 517 985.3 NA 0.0000 9999 3770 0 0 0
2017/11/17 13:27:00 BASE 6.00 324 9.11 337 1.1 89 -0.5 197 521 985.3 NA 0.0000 9999 3740 0 0 0
2017/11/17 13:28:00 BASE 6.62 318 9.11 337 1.1 90 -0.4 199 527 985.2 NA 0.0000 9999 3770 0 0 0
2017/11/17 13:29:00 BASE 7.25 320 9.11 337 1.1 90 -0.4 202 534 985.2 NA 0.0000 9999 3770 0 0 0
2017/11/17 13:30:00 BASE 6.74 330 8.49 324 1.1 90 -0.4 204 541 985.3 NA 0.0000 9999 3770 7320 0 0
2017/11/17 13:31:00 BASE 5.90 332 8.49 324 1.1 90 -0.4 206 546 985.3 NA 0.0000 9999 4000 7320 0 0
2017/11/17 13:32:00 BASE 5.42 331 8.49 324 1.1 90 -0.4 207 549 985.3 NA 0.0000 9999 3810 7380 0 0
2017/11/17 13:33:00 BASE 5.01 332 8.49 324 1.1 90 -0.4 206 547 985.3 NA 0.0000 9999 3810 7280 0 0
2017/11/17 13:34:00 BASE 4.97 328 8.49 324 1.1 90 -0.4 204 543 985.3 NA 0.0000 9999 3840 0 0 0
2017/11/17 13:35:00 BASE 4.72 325 8.49 324 1.0 90 -0.4 202 538 985.3 NA 0.0000 9999 3810 7280 0 0
2017/11/17 13:36:00 BASE 4.81 322 8.49 324 1.0 91 -0.3 199 534 985.3 NA 0.0000 9999 3810 0 0 0
2017/11/17 13:37:00 BASE 5.53 313 8.49 324 1.0 91 -0.3 198 532 985.3 NA 0.0000 9999 3770 0 0 0
2017/11/17 13:38:00 BASE 6.13 308 8.49 324 1.0 92 -0.3 198 533 985.3 NA 0.0000 9999 3840 0 0 0
2017/11/17 13:39:00 BASE 6.02 309 7.15 306 1.0 92 -0.2 200 536 985.3 NA 0.0000 9999 3770 0 0 0
2017/11/17 13:40:00 BASE 5.96 309 7.15 306 0.9 92 -0.2 201 541 985.3 NA 0.0000 9999 3740 0 0 0
2017/11/17 13:41:00 BASE 6.40 309 7.20 314 0.9 92 -0.2 203 545 985.3 NA 0.0000 9999 3710 0 0 0
2017/11/17 13:42:00 BASE 6.65 304 7.20 314 0.9 92 -0.2 203 546 985.3 NA 0.0000 9999 3710 18080 22310 0
2017/11/17 13:43:00 BASE 6.34 301 7.20 314 1.0 92 -0.2 201 541 985.3 NA 0.0000 9999 3740 0 0 0
2017/11/17 13:44:00 BASE 6.18 305 7.31 301 1.0 92 -0.2 195 528 985.3 NA 0.0000 9999 3740 0 0 0
2017/11/17 13:45:01 BASE 6.57 306 7.67 306 1.0 92 -0.2 187 512 985.3 NA 0.0000 9999 3670 0 0 0
2017/11/17 13:46:00 BASE 6.95 301 7.82 298 1.0 92 -0.2 181 499 985.3 NA 0.0000 9999 3640 0 0 0
2017/11/17 13:47:00 BASE 6.95 298 7.82 298 0.9 92 -0.2 177 489 985.3 NA 0.0000 9999 3640 0 0 0
2017/11/17 13:48:00 BASE 7.49 297 8.80 297 0.9 92 -0.3 174 483 985.3 NA 0.0000 9999 3640 0 0 0
2017/11/17 13:49:00 BASE 8.12 298 8.80 297 0.8 92 -0.3 171 476 985.3 NA 0.0000 9999 3610 0 0 0
2017/11/17 13:50:00 BASE 8.21 299 8.95 303 0.8 92 -0.3 169 471 985.2 NA 0.0000 9999 3610 0 0 0
2017/11/17 13:51:00 BASE 8.50 298 9.62 298 0.7 93 -0.4 168 467 985.2 NA 0.0000 9999 3640 0 0 0
2017/11/17 13:52:00 BASE 8.68 300 9.67 308 0.7 93 -0.4 166 463 985.2 NA 0.0000 9999 3610 0 0 0
2017/11/17 13:53:00 BASE 9.36 302 10.75 304 0.7 93 -0.3 164 458 985.2 NA 0.0000 9999 3580 0 0 0
2017/11/17 13:54:00 BASE 9.21 301 10.75 304 0.7 93 -0.3 162 454 985.3 NA 0.0000 9999 3580 0 0 0
2017/11/17 13:55:00 BASE 8.81 303 10.75 304 0.7 93 -0.3 160 450 985.2 NA 0.0000 9999 3510 0 0 0
2017/11/17 13:56:00 BASE 8.92 304 10.75 304 0.7 93 -0.3 157 443 985.3 NA 0.0000 9999 3480 0 0 0
2017/11/17 13:57:00 BASE 8.77 304 10.75 304 0.7 93 -0.3 153 435 985.3 NA 0.0000 9999 3480 0 0 0
2017/11/17 13:58:00 BASE 8.79 306 10.75 304 0.7 93 -0.3 151 429 985.3 NA 0.0000 9999 3410 0 0 0
2017/11/17 13:59:00 BASE 8.87 306 10.75 304 0.7 93 -0.3 149 425 985.3 NA 0.0000 9999 3410 0 0 0
2017/11/17 14:00:00 BASE 9.03 306 10.75 304 0.7 93 -0.3 148 423 985.3 NA 0.0000 9999 3450 0 0 0
2017/11/17 14:01:00 BASE 8.69 308 10.75 304 0.7 93 -0.3 148 422 985.4 NA 0.0000 9999 3450 0 0 0
2017/11/17 14:02:00 BASE 8.17 310 10.75 304 0.7 93 -0.3 148 424 985.3 NA 0.0000 9999 3450 0 0 0
2017/11/17 14:03:00 BASE 7.85 310 10.55 305 0.7 93 -0.3 149 426 985.4 NA 0.0000 9999 3450 0 0 0
2017/11/17 14:04:00 BASE 7.44 312 10.55 305 0.7 93 -0.3 149 427 985.4 NA 0.0000 9999 3380 0 0 0
2017/11/17 14:05:00 BASE 7.63 311 10.55 305 0.7 93 -0.3 149 428 985.3 NA 0.0000 9999 3380 0 0 0
2017/11/17 14:06:00 BASE 8.08 309 10.55 305 0.7 93 -0.3 149 428 985.3 NA 0.0000 9999 3380 0 0 0
2017/11/17 14:07:00 BASE 7.65 307 10.24 307 0.7 93 -0.3 150 430 985.4 NA 0.0000 9999 3310 0 0 0
2017/11/17 14:08:00 BASE 7.48 308 9.93 303 0.7 93 -0.3 151 433 985.3 NA 0.0000 9999 3310 0 0 0
2017/11/17 14:09:00 BASE 7.14 312 9.62 311 0.7 93 -0.3 153 438 985.4 NA 0.0000 9999 3310 0 0 0
2017/11/17 14:10:00 BASE 6.51 313 8.95 314 0.7 93 -0.3 156 444 985.4 NA 0.0000 9999 3310 0 0 0
2017/11/17 14:11:00 BASE 6.08 313 8.95 314 0.7 93 -0.3 159 452 985.4 NA 0.0000 9999 3280 0 0 0
2017/11/17 14:12:00 BASE 5.51 309 8.90 315 0.7 93 -0.3 163 461 985.4 NA 0.0000 9999 3380 0 0 0
2017/11/17 14:13:00 BASE 5.44 309 8.90 315 0.7 93 -0.3 167 472 985.4 NA 0.0000 9999 3380 0 0 0
2017/11/17 14:14:00 BASE 5.14 311 8.90 315 0.7 93 -0.3 171 480 985.4 NA 0.0000 9999 3380 0 0 0
2017/11/17 14:15:00 BASE 4.60 308 8.64 309 0.7 93 -0.3 172 485 985.4 NA 0.0000 9999 3350 0 0 0
2017/11/17 14:16:00 BASE 4.49 305 8.49 320 0.7 93 -0.3 173 487 985.4 NA 0.0000 9999 3350 0 0 0
2017/11/17 14:17:00 BASE 4.58 303 8.49 320 0.8 93 -0.3 173 488 985.4 NA 0.0000 9999 3380 0 0 0
2017/11/17 14:18:00 BASE 4.31 311 8.08 316 0.8 93 -0.3 173 488 985.4 NA 0.0000 9999 3350 0 0 0
2017/11/17 14:19:00 BASE 3.29 315 7.05 315 0.8 93 -0.2 172 488 985.4 NA 0.0000 9999 3350 0 0 0
2017/11/17 14:20:00 BASE 1.74 313 7.05 315 0.8 93 -0.2 169 483 985.4 NA 0.0000 9999 3350 0 0 0
2017/11/17 14:21:00 BASE 1.64 310 6.48 323 0.9 92 -0.2 166 477 985.4 NA 0.0000 9999 3350 0 0 0
2017/11/17 14:22:00 BASE 2.39 301 6.48 323 0.9 92 -0.2 163 471 985.4 NA 0.0000 9999 3280 0 0 0
2017/11/17 14:23:00 BASE 2.39 306 5.71 306 0.9 92 -0.2 161 466 985.4 NA 0.0000 9999 3280 0 0 0
2017/11/17 14:24:00 BASE 2.07 306 5.71 306 0.9 92 -0.2 158 460 985.5 NA 0.0000 9999 3250 0 0 0
2017/11/17 14:25:00 BASE 1.63 301 5.45 311 1.0 92 -0.2 156 455 985.5 NA 0.0000 9999 3220 0 0 0
2017/11/17 14:26:00 BASE 2.02 302 5.09 303 1.0 91 -0.3 155 452 985.5 NA 0.0000 9999 3250 0 0 0
2017/11/17 14:27:00 BASE 2.86 301 4.89 322 1.0 91 -0.3 155 454 985.4 NA 0.0000 9999 3220 0 0 0
2017/11/17 14:28:00 BASE 3.66 301 4.68 301 0.9 91 -0.3 156 456 985.4 NA 0.0000 9999 3150 21030 0 0
2017/11/17 14:29:00 BASE 4.15 303 4.94 301 0.9 91 -0.3 156 457 985.4 NA 0.0000 9999 3150 0 0 0
2017/11/17 14:30:00 BASE 4.00 295 4.94 301 0.9 92 -0.4 156 456 985.4 NA 0.0000 9999 3120 0 0 0
2017/11/17 14:31:00 BASE 3.89 289 4.94 301 0.8 92 -0.4 155 454 985.4 NA 0.0000 9999 3120 0 0 0
2017/11/17 14:32:00 BASE 3.46 290 4.94 301 0.8 92 -0.3 153 451 985.4 NA 0.0000 9999 3120 0 0 0
2017/11/17 14:33:00 BASE 3.41 296 4.94 301 0.8 92 -0.4 152 447 985.4 NA 0.0000 9999 3050 0 0 0
2017/11/17 14:34:00 BASE 3.38 304 4.94 301 0.8 92 -0.3 150 442 985.4 NA 0.0000 9999 3120 0 0 0
2017/11/17 14:35:00 BASE 3.32 293 4.94 301 0.8 92 -0.3 149 441 985.4 NA 0.0000 9999 3080 0 0 0
2017/11/17 14:36:00 BASE 3.66 284 4.94 301 0.8 92 -0.3 149 442 985.4 NA 0.0000 9999 3120 0 0 0
2017/11/17 14:37:00 BASE 3.60 284 4.94 301 0.8 92 -0.3 150 444 985.4 NA 0.0000 9999 3120 0 0 0
2017/11/17 14:38:00 BASE 3.18 279 4.94 301 0.8 92 -0.3 151 448 985.4 NA 0.0000 9999 3120 0 0 0
2017/11/17 14:39:00 BASE 2.51 281 4.58 281 0.8 92 -0.3 152 451 985.4 NA 0.0000 9999 3120 0 0 0
2017/11/17 14:40:00 BASE 2.65 274 4.48 276 0.8 92 -0.4 152 451 985.4 NA 0.0000 9999 3120 0 0 0
2017/11/17 14:41:00 BASE 2.70 274 4.48 276 0.8 92 -0.4 153 454 985.4 NA 0.0000 9999 3080 0 0 0
2017/11/17 14:42:00 BASE 1.93 273 4.42 287 0.8 91 -0.4 154 456 985.4 NA 0.0000 9999 3050 0 0 0
2017/11/17 14:43:00 BASE 1.71 263 4.42 287 0.8 91 -0.4 153 455 985.4 NA 0.0000 9999 3080 0 0 0
2017/11/17 14:44:00 BASE 1.67 269 4.42 287 0.8 91 -0.5 153 454 985.4 NA 0.0000 9999 3080 0 0 0
2017/11/17 14:45:00 BASE 1.82 275 4.06 285 0.9 91 -0.4 153 453 985.4 NA 0.0000 9999 3080 0 0 0
2017/11/17 14:46:00 BASE 2.28 278 4.01 264 0.9 91 -0.4 151 451 985.4 NA 0.0000 9999 3080 0 0 0
2017/11/17 14:47:00 BASE 1.65 280 3.55 256 0.9 91 -0.4 152 451 985.4 NA 0.0000 9999 3050 0 0 0
2017/11/17 14:48:00 BASE 0.55 274 3.55 256 0.9 91 -0.4 152 453 985.4 NA 0.0000 9999 3020 0 0 0
2017/11/17 14:49:00 BASE 0.53 266 3.55 256 0.9 91 -0.5 153 457 985.4 NA 0.0000 9999 3050 0 0 0
2017/11/17 14:50:00 BASE 1.10 285 3.09 265 0.9 91 -0.5 155 462 985.4 NA 0.0000 9999 3020 0 0 0
2017/11/17 14:51:00 BASE 0.79 298 2.83 281 0.9 91 -0.5 157 467 985.4 NA 0.0000 9999 3050 0 0 0
2017/11/17 14:52:00 BASE 0.15 279 2.83 281 0.9 90 -0.5 159 474 985.4 NA 0.0000 9999 2990 0 0 0
2017/11/17 14:53:00 BASE 0.81 292 2.83 281 0.9 90 -0.5 160 476 985.4 NA 0.0000 9999 3020 19390 0 0
2017/11/17 14:54:00 BASE 1.87 317 2.98 317 0.9 90 -0.5 161 479 985.4 NA 0.0000 9999 3020 0 0 0
2017/11/17 14:55:00 BASE 1.70 326 2.98 317 0.9 90 -0.5 160 475 985.4 NA 0.0000 9999 2990 0 0 0
2017/11/17 14:56:00 BASE 2.50 318 5.14 303 0.9 90 -0.5 159 471 985.4 NA 0.0000 9999 2990 0 0 0
2017/11/17 14:57:00 BASE 4.31 312 5.97 320 0.9 90 -0.5 158 470 985.3 NA 0.0000 9999 3020 0 0 0
2017/11/17 14:58:00 BASE 4.87 312 5.97 320 0.9 90 -0.6 159 471 985.3 NA 0.0000 9999 2990 21790 0 0
2017/11/17 14:59:00 BASE 5.22 310 5.97 320 0.8 90 -0.6 160 475 985.3 NA 0.0000 9999 2990 0 0 0
2017/11/17 15:00:00 BASE 5.26 313 5.97 320 0.8 90 -0.6 161 477 985.3 NA 0.0000 9999 2950 0 0 0
2017/11/17 15:01:00 BASE 5.01 312 6.38 321 0.8 91 -0.6 161 476 985.2 NA 0.0000 9999 2920 0 0 0
2017/11/17 15:02:00 BASE 5.19 309 6.38 321 0.7 91 -0.6 160 473 985.3 NA 0.0000 9999 3180 0 0 0
2017/11/17 15:03:00 BASE 4.83 312 6.38 321 0.7 91 -0.5 159 472 985.3 NA 0.0000 9999 2990 0 0 0
2017/11/17 15:04:00 BASE 4.17 308 6.38 321 0.7 91 -0.5 157 468 985.3 NA 0.0000 9999 3020 0 0 0
2017/11/17 15:05:00 BASE 4.49 304 6.38 321 0.7 91 -0.6 154 460 985.3 NA 0.0000 9999 2920 0 0 0
2017/11/17 15:06:00 BASE 5.10 305 6.38 321 0.7 91 -0.6 151 453 985.3 NA 0.0000 9999 2920 0 0 0
2017/11/17 15:07:00 BASE 5.13 304 6.38 321 0.7 91 -0.6 148 446 985.3 NA 0.0000 9999 2990 0 0 0
2017/11/17 15:08:00 BASE 5.01 306 6.38 321 0.6 92 -0.5 145 439 985.3 NA 0.0000 9999 2920 0 0 0
2017/11/17 15:09:00 BASE 5.01 308 6.38 321 0.6 92 -0.5 141 429 985.3 NA 0.0000 9999 2950 0 0 0
2017/11/17 15:10:00 BASE 5.24 307 6.79 312 0.6 93 -0.5 137 418 985.3 NA 0.0000 9999 2950 0 0 0
2017/11/17 15:11:00 BASE 6.17 307 7.77 300 0.6 93 -0.5 133 408 985.2 NA 0.0000 9999 3050 0 0 0
2017/11/17 15:12:00 BASE 6.47 308 7.77 300 0.5 93 -0.5 130 400 985.3 NA 0.0000 9999 3120 0 0 0
2017/11/17 15:13:00 BASE 5.78 310 7.77 300 0.5 93 -0.4 128 394 985.3 NA 0.0000 9999 3150 0 0 0
2017/11/17 15:14:00 BASE 4.98 313 7.77 300 0.5 94 -0.4 126 391 985.3 NA 0.0000 9999 3080 0 0 0
2017/11/17 15:15:00 BASE 4.86 316 7.77 300 0.5 94 -0.4 125 388 985.4 NA 0.0000 9999 2920 0 0 0
2017/11/17 15:16:00 BASE 4.72 317 7.77 300 0.5 94 -0.4 124 384 985.4 NA 0.0000 9999 3020 0 0 0
2017/11/17 15:17:00 BASE 4.53 316 7.77 300 0.5 94 -0.3 123 381 985.3 NA 0.0000 9999 2990 0 0 0
2017/11/17 15:18:00 BASE 4.61 313 7.77 300 0.5 94 -0.3 122 379 985.3 NA 0.0000 9999 3050 0 0 0
2017/11/17 15:19:00 BASE 4.51 312 7.77 300 0.5 94 -0.3 123 379 985.3 NA 0.0000 9999 3050 0 0 0
2017/11/17 15:20:00 BASE 4.90 315 7.77 300 0.5 94 -0.3 123 379 985.3 NA 0.0000 9999 3280 0 0 0
2017/11/17 15:21:00 BASE 5.41 315 6.84 314 0.5 94 -0.3 122 375 985.3 NA 0.0000 9999 3280 0 0 0
2017/11/17 15:22:00 BASE 6.00 314 6.74 318 0.5 94 -0.4 123 375 985.2 NA 0.0000 9999 3220 0 0 0
2017/11/17 15:23:00 BASE 5.93 314 6.74 318 0.5 94 -0.4 124 377 985.2 NA 0.0000 9999 3150 0 0 0
2017/11/17 15:24:00 BASE 5.36 320 6.74 318 0.5 93 -0.4 126 381 985.2 NA 0.0000 9999 3250 0 0 0
2017/11/17 15:25:00 BASE 4.71 323 6.74 318 0.5 93 -0.5 127 384 985.2 NA 0.0000 9999 3280 0 0 0
2017/11/17 15:26:00 BASE 4.24 321 6.74 318 0.6 93 -0.5 127 384 985.2 NA 0.0000 9999 3180 0 0 0
2017/11/17 15:27:00 BASE 4.61 325 6.74 318 0.6 92 -0.5 127 384 985.2 NA 0.0000 9999 3150 0 0 0
2017/11/17 15:28:00 BASE 4.65 330 6.74 318 0.7 92 -0.5 128 385 985.2 NA 0.0000 9999 2950 0 0 0
2017/11/17 15:29:00 BASE 4.11 333 6.74 318 0.7 92 -0.5 130 388 985.2 NA 0.0000 9999 3450 0 0 0
2017/11/17 15:30:00 BASE 4.08 329 6.74 318 0.7 92 -0.5 132 392 985.2 NA 0.0000 9999 3450 0 0 0
2017/11/17 15:31:00 BASE 4.64 326 6.74 318 0.7 92 -0.5 134 399 985.2 NA 0.0000 9999 3350 0 0 0
2017/11/17 15:32:00 BASE 4.83 332 6.48 321 0.7 91 -0.5 137 406 985.1 NA 0.0000 9999 3310 0 0 0
2017/11/17 15:33:00 BASE 4.91 338 6.38 333 0.7 91 -0.6 141 415 985.1 NA 0.0000 9999 3310 0 0 0
2017/11/17 15:34:00 BASE 5.36 335 6.33 342 0.7 91 -0.6 143 422 985.1 NA 0.0000 9999 3380 0 0 0
2017/11/17 15:35:00 BASE 5.67 329 6.74 325 0.7 91 -0.6 146 427 985.1 NA 0.0000 9999 3450 0 0 0
2017/11/17 15:36:00 BASE 5.77 325 6.74 325 0.8 90 -0.6 148 433 985.1 NA 0.0000 9999 3480 0 0 0
2017/11/17 15:37:00 BASE 6.25 322 7.20 315 0.8 90 -0.6 151 440 985.1 NA 0.0000 9999 3510 0 0 0
2017/11/17 15:38:00 BASE 6.51 316 7.20 315 0.8 90 -0.6 155 448 985.1 NA 0.0000 9999 3510 0 0 0
2017/11/17 15:39:00 BASE 6.60 311 7.41 314 0.8 90 -0.7 158 457 985.1 NA 0.0000 9999 3540 0 0 0
2017/11/17 15:40:00 BASE 6.60 310 7.41 314 0.8 90 -0.7 161 465 985.1 NA 0.0000 9999 3580 0 0 0
2017/11/17 15:41:00 BASE 6.71 310 8.39 317 0.7 91 -0.7 164 469 985.1 NA 0.0000 9999 3580 0 0 0
2017/11/17 15:42:00 BASE 7.14 309 8.39 317 0.6 91 -0.6 165 471 985.1 NA 0.0000 9999 3580 0 0 0
2017/11/17 15:43:00 BASE 7.06 309 8.39 317 0.6 92 -0.6 165 471 985.1 NA 0.0000 9999 3740 0 0 0
2017/11/17 15:44:00 BASE 7.08 311 8.39 317 0.5 92 -0.6 165 471 985.1 NA 0.0000 9999 3970 0 0 0
2017/11/17 15:45:00 BASE 7.20 311 8.49 314 0.5 93 -0.5 165 471 985.1 NA 0.0000 9999 3770 0 0 0
2017/11/17 15:46:00 BASE 7.01 311 8.49 314 0.5 93 -0.5 165 470 985.1 NA 0.0000 9999 3770 0 0 0
2017/11/17 15:47:00 BASE 7.01 311 8.49 314 0.4 94 -0.5 165 469 985.0 NA 0.0000 9999 3740 0 0 0
2017/11/17 15:48:00 BASE 7.38 309 8.49 314 0.4 94 -0.5 164 467 985.1 NA 0.0000 9999 3670 4170 0 0
2017/11/17 15:49:00 BASE 7.31 308 8.49 314 0.4 94 -0.5 164 466 985.1 NA 0.0000 9999 3610 0 0 0
2017/11/17 15:50:00 BASE 7.22 307 8.49 314 0.3 94 -0.5 164 467 985.1 NA 0.0000 9999 3510 0 0 0
2017/11/17 15:51:00 BASE 7.05 306 8.49 314 0.3 94 -0.5 165 469 985.1 NA 0.0000 9999 3510 0 0 0
2017/11/17 15:52:00 BASE 6.91 306 8.49 314 0.3 94 -0.5 166 471 985.0 NA 0.0000 9999 3450 22340 0 0
2017/11/17 15:53:00 BASE 7.27 306 8.49 314 0.3 94 -0.5 166 470 985.0 NA 0.0000 9999 3480 0 0 0
2017/11/17 15:54:00 BASE 7.22 309 8.49 314 0.3 95 -0.5 165 469 985.1 NA 0.0000 9999 3510 0 0 0
2017/11/17 15:55:00 BASE 6.86 312 8.44 310 0.3 95 -0.4 165 467 985.0 NA 0.0000 9999 3580 0 0 0
2017/11/17 15:56:00 BASE 6.99 309 8.44 310 0.3 95 -0.4 164 467 985.0 NA 0.0000 9999 3580 0 0 0
2017/11/17 15:57:00 BASE 7.37 312 8.44 310 0.3 95 -0.5 164 466 985.0 NA 0.0000 9999 3350 0 0 0
2017/11/17 15:58:00 BASE 7.56 317 8.28 322 0.3 94 -0.5 165 468 985.0 NA 0.0000 9999 3480 0 0 0
2017/11/17 15:59:00 BASE 7.61 316 8.75 318 0.3 94 -0.5 166 471 984.9 NA 0.0000 9999 3450 0 0 0
2017/11/17 16:00:00 BASE 7.51 316 8.75 318 0.3 94 -0.5 168 474 984.9 NA 0.0000 9999 3510 0 0 0
2017/11/17 16:01:00 BASE 7.32 316 8.75 318 0.3 94 -0.5 169 478 984.9 NA 0.0000 9999 3510 0 0 0
2017/11/17 16:02:00 BASE 7.40 313 8.75 318 0.3 94 -0.5 171 482 984.9 NA 0.0000 9999 3310 0 0 0
2017/11/17 16:03:00 BASE 7.51 313 8.75 318 0.3 94 -0.5 173 487 984.9 NA 0.0000 9999 3310 0 0 0
2017/11/17 16:04:00 BASE 7.62 314 8.75 318 0.3 94 -0.6 175 491 984.9 NA 0.0000 9999 3510 0 0 0
2017/11/17 16:05:00 BASE 7.65 313 8.75 318 0.3 94 -0.6 176 494 984.9 NA 0.0000 9999 3580 0 0 0
2017/11/17 16:06:00 BASE 7.61 311 8.80 313 0.3 94 -0.6 177 496 984.9 NA 0.0000 9999 3610 0 0 0
2017/11/17 16:07:00 BASE 7.92 311 8.80 313 0.3 94 -0.6 178 498 984.9 NA 0.0000 9999 3580 0 0 0
2017/11/17 16:08:00 BASE 7.99 314 8.80 313 0.3 94 -0.6 178 499 984.9 NA 0.0000 9999 3640 0 0 0
2017/11/17 16:09:00 BASE 7.91 316 8.80 313 0.3 94 -0.6 179 501 984.9 NA 0.0000 9999 3640 0 0 0
2017/11/17 16:10:00 BASE 8.18 317 8.90 317 0.3 94 -0.6 180 502 984.8 NA 0.0000 9999 3670 0 0 0
2017/11/17 16:11:00 BASE 8.34 318 8.90 317 0.3 94 -0.5 179 501 984.8 NA 0.0000 9999 3670 0 0 0
2017/11/17 16:12:00 BASE 8.31 318 9.11 320 0.3 94 -0.5 178 497 984.8 NA 0.0000 9999 3710 0 0 0
2017/11/17 16:13:00 BASE 8.33 317 9.11 320 0.3 95 -0.5 175 492 984.8 NA 0.0000 9999 3710 0 0 0
2017/11/17 16:14:00 BASE 8.25 317 9.11 320 0.3 95 -0.4 173 486 984.8 NA 0.0000 9999 3540 0 0 0
2017/11/17 16:15:00 BASE 8.20 318 9.11 320 0.3 95 -0.4 170 479 984.8 NA 0.0000 9999 3580 0 0 0
2017/11/17 16:16:00 BASE 8.21 319 9.11 320 0.3 95 -0.4 167 472 984.8 NA 0.0000 9999 3640 0 0 0
2017/11/17 16:17:00 BASE 8.02 320 9.11 320 0.3 95 -0.4 165 468 984.8 NA 0.0000 9999 3640 0 0 0
2017/11/17 16:18:00 BASE 7.90 319 9.11 320 0.3 95 -0.4 163 465 984.8 NA 0.0000 9999 3670 0 0 0
2017/11/17 16:19:00 BASE 8.03 319 9.11 320 0.3 95 -0.4 162 461 984.8 NA 0.0000 9999 3740 0 0 0
2017/11/17 16:20:00 BASE 8.16 319 9.11 320 0.3 95 -0.4 160 458 984.8 NA 0.0000 9999 3740 0 0 0
2017/11/17 16:21:00 BASE 8.17 319 9.11 320 0.3 95 -0.4 159 456 984.8 NA 0.0000 9999 3740 0 0 0
2017/11/17 16:22:00 BASE 7.89 318 8.95 307 0.3 95 -0.4 158 453 984.8 NA 0.0000 9999 3540 0 0 0
2017/11/17 16:23:01 BASE 7.82 319 8.95 321 0.3 96 -0.3 157 450 984.8 NA 0.0000 9999 3450 23750 0 0
2017/11/17 16:24:00 BASE 8.03 318 8.95 321 0.3 96 -0.3 155 447 984.8 NA 0.0000 9999 3380 0 0 0
2017/11/17 16:25:00 BASE 8.14 315 8.95 321 0.3 96 -0.3 154 444 984.8 NA 0.0000 9999 3410 0 0 0
2017/11/17 16:26:00 BASE 8.20 318 9.16 319 0.2 96 -0.3 153 442 984.8 NA 0.0000 9999 3410 0 0 0
2017/11/17 16:27:00 BASE 7.63 322 9.16 319 0.2 96 -0.3 153 441 984.8 NA 0.0000 9999 3450 0 0 0
2017/11/17 16:28:00 BASE 7.40 319 9.16 319 0.2 96 -0.3 152 439 984.8 NA 0.0000 9999 3410 0 0 0
2017/11/17 16:29:00 BASE 7.62 319 9.16 319 0.2 96 -0.3 152 438 984.8 NA 0.0000 9999 3450 0 0 0
2017/11/17 16:30:00 BASE 7.38 320 9.16 319 0.2 96 -0.3 152 439 984.8 NA 0.0000 9999 3350 0 0 0
2017/11/17 16:31:00 BASE 6.94 323 9.16 319 0.3 96 -0.3 153 442 984.8 NA 0.0000 9999 3280 0 0 0
2017/11/17 16:32:00 BASE 6.31 329 9.16 319 0.3 96 -0.3 155 447 984.8 NA 0.0000 9999 3250 22380 23690 0
2017/11/17 16:33:00 BASE 6.15 329 9.16 319 0.3 96 -0.3 158 452 984.8 NA 0.0000 9999 3310 0 0 0
2017/11/17 16:34:00 BASE 6.29 328 9.16 319 0.3 96 -0.3 160 457 984.8 NA 0.0000 9999 3310 0 0 0
2017/11/17 16:35:00 BASE 6.26 331 9.16 319 0.3 96 -0.3 161 459 984.7 NA 0.0000 9999 3350 0 0 0
2017/11/17 16:36:01 BASE 6.31 335 8.39 318 0.3 96 -0.3 162 461 984.7 NA 0.0000 9999 3310 0 0 0
2017/11/17 16:37:00 BASE 6.44 337 8.39 318 0.3 96 -0.3 164 465 984.7 NA 0.0000 9999 3310 0 0 0
2017/11/17 16:38:00 BASE 6.55 339 7.97 321 0.3 96 -0.2 166 471 984.6 NA 0.0000 9999 3280 0 0 0
2017/11/17 16:39:00 BASE 6.88 342 7.92 349 0.3 96 -0.2 169 478 984.6 NA 0.0000 9999 3280 0 0 0
2017/11/17 16:40:00 BASE 6.76 339 7.92 349 0.4 96 -0.2 172 484 984.6 NA 0.0000 9999 3280 0 0 0
2017/11/17 16:41:00 BASE 6.76 341 7.97 43 0.4 96 -0.2 174 487 984.5 NA 0.0000 9999 3280 0 0 0
2017/11/17 16:42:01 BASE 7.41 345 8.90 342 0.4 95 -0.2 173 486 984.5 NA 0.0000 9999 3280 0 0 0
2017/11/17 16:43:00 BASE 8.08 344 9.31 346 0.4 95 -0.2 170 479 984.5 NA 0.0000 9999 3280 0 0 0
2017/11/17 16:44:01 BASE 8.70 343 9.52 338 0.5 95 -0.3 166 471 984.4 NA 0.0000 9999 3480 0 0 0
2017/11/17 16:45:00 BASE 8.72 342 9.52 338 0.5 95 -0.3 162 463 984.4 NA 0.0000 9999 3310 0 0 0
2017/11/17 16:46:01 BASE 8.84 346 9.67 350 0.5 94 -0.3 159 457 984.3 NA 0.0000 9999 3350 0 0 0
2017/11/17 16:47:00 BASE 8.92 348 9.67 350 0.5 94 -0.4 158 455 984.4 NA 0.0000 9999 3250 0 0 0
2017/11/17 16:48:00 BASE 8.76 345 9.67 344 0.5 93 -0.4 157 453 984.3 NA 0.0000 9999 3250 0 0 0
2017/11/17 16:49:01 BASE 8.88 345 9.72 352 0.6 93 -0.4 156 452 984.3 NA 0.0000 9999 3220 0 0 0
2017/11/17 16:50:01 BASE 8.56 347 9.72 352 0.6 93 -0.5 156 450 984.4 NA 0.0000 9999 3280 0 0 0
2017/11/17 16:51:01 BASE 8.14 350 9.72 352 0.6 92 -0.5 156 451 984.4 NA 0.0000 9999 3220 0 0 0
2017/11/17 16:52:00 BASE 8.20 350 9.72 352 0.7 92 -0.5 157 452 984.3 NA 0.0000 9999 3180 0 0 0
2017/11/17 16:53:00 BASE 8.51 348 9.72 352 0.7 92 -0.5 158 455 984.3 NA 0.0000 9999 3220 0 0 0
2017/11/17 16:54:00 BASE 8.82 348 9.72 352 0.7 92 -0.5 158 455 984.3 NA 0.0000 9999 3180 0 0 0
2017/11/17 16:55:00 BASE 8.79 345 9.77 343 0.7 91 -0.6 157 452 984.3 NA 0.0000 9999 3150 0 0 0
2017/11/17 16:56:01 BASE 8.47 342 9.77 343 0.7 91 -0.6 154 446 984.3 NA 0.0000 9999 3150 0 0 0
2017/11/17 16:57:01 BASE 8.09 338 9.77 343 0.7 90 -0.7 150 436 984.3 NA 0.0000 9999 3080 22020 0 0
2017/11/17 16:58:01 BASE 7.85 336 9.77 343 0.7 90 -0.7 146 427 984.4 NA 0.0000 9999 2920 0 0 0
2017/11/17 16:59:01 BASE 7.67 334 9.77 343 0.7 90 -0.7 144 421 984.5 NA 0.0000 9999 2790 0 0 0
2017/11/17 17:00:01 BASE 7.61 333 9.77 343 0.7 90 -0.7 142 417 984.4 NA 0.0000 9999 2760 0 0 0
2017/11/17 17:01:00 BASE 8.01 333 9.77 343 0.7 90 -0.7 141 414 984.4 NA 0.0000 9999 2660 0 0 0
2017/11/17 17:02:01 BASE 7.65 325 9.77 343 0.7 90 -0.7 140 412 984.5 NA 0.0000 9999 2560 0 0 0
2017/11/17 17:03:01 BASE 7.13 323 9.77 343 0.7 90 -0.7 138 409 984.5 NA 0.0000 9999 2560 0 0 0
2017/11/17 17:04:00 BASE 6.99 333 9.77 343 0.8 90 -0.8 137 405 984.5 NA 0.0000 9999 2560 0 0 0
2017/11/17 17:05:01 BASE 6.48 332 9.05 345 0.8 89 -0.8 136 402 984.5 NA 0.0000 9999 2560 0 0 0
2017/11/17 17:06:01 BASE 5.67 320 9.05 345 0.8 89 -0.8 135 400 984.5 NA 0.0000 9999 2530 19130 0 0
2017/11/17 17:07:00 BASE 6.07 319 9.05 345 0.8 89 -0.8 136 401 984.5 NA 0.0000 9999 2490 0 0 0
2017/11/17 17:08:01 BASE 6.75 315 9.05 345 0.8 89 -0.8 136 402 984.5 NA 0.0000 9999 2460 0 0 0
2017/11/17 17:09:01 BASE 5.91 303 9.05 345 0.7 89 -0.9 136 401 984.5 NA 0.0000 9999 2490 0 0 0
2017/11/17 17:10:01 BASE 5.12 304 9.05 345 0.5 90 -1.0 136 401 984.5 NA 0.0000 9999 2490 0 0 0
2017/11/17 17:11:01 BASE 5.09 307 8.85 321 0.4 91 -1.0 136 401 984.6 NA 0.0000 9999 660 2530 0 0
2017/11/17 17:12:01 BASE 5.55 304 8.85 321 0.2 92 -1.0 135 400 984.5 NA 0.0000 9999 2560 0 0 0
2017/11/17 17:13:01 BASE 6.01 304 8.85 321 -0.1 93 -1.0 134 397 984.6 NA 0.0000 9999 590 2560 0 0
2017/11/17 17:14:01 BASE 6.27 305 8.85 321 -0.2 95 -0.9 132 391 984.5 NA 0.0000 9999 2560 0 0 0
2017/11/17 17:15:01 BASE 6.62 302 8.85 321 -0.2 96 -0.8 130 386 984.5 NA 0.0000 9999 2590 0 0 0
2017/11/17 17:16:01 BASE 7.21 295 8.85 321 -0.3 97 -0.7 129 383 984.5 NA 0.0000 9999 950 2560 0 0
2017/11/17 17:17:00 BASE 7.60 291 8.85 321 -0.3 98 -0.6 128 380 984.4 NA 0.0000 9999 1440 2620 0 0
2017/11/17 17:18:00 BASE 7.77 290 8.75 288 -0.4 98 -0.6 127 378 984.4 NA 0.0000 9999 1670 2560 0 0
2017/11/17 17:19:00 BASE 8.49 287 10.19 286 -0.4 99 -0.5 127 378 984.3 NA 0.0000 9999 1080 0 0 0
2017/11/17 17:20:00 BASE 9.16 284 10.34 291 -0.4 99 -0.5 128 379 984.3 NA 0.0000 9999 1250 0 0 0
2017/11/17 17:21:00 BASE 8.93 284 10.34 291 -0.4 100 -0.5 129 382 984.3 NA 0.0000 9999 1050 0 0 0
2017/11/17 17:22:01 BASE 9.18 282 10.80 279 -0.4 100 -0.4 130 383 984.2 NA 0.0000 9999 1210 0 0 0
2017/11/17 17:23:01 BASE 9.76 280 10.80 279 -0.4 100 -0.4 130 382 984.2 NA 0.0000 9999 1120 2560 0 0
2017/11/17 17:24:01 BASE 9.75 280 10.80 279 -0.4 100 -0.4 129 379 984.2 NA 0.0000 9999 1050 0 0 0
2017/11/17 17:25:00 BASE 9.23 278 10.80 279 -0.4 100 -0.4 127 374 984.2 NA 0.0000 9999 1380 2490 0 0
2017/11/17 17:26:00 BASE 8.67 279 10.80 279 -0.4 100 -0.4 125 370 984.3 NA 0.0000 9999 2530 0 0 0
2017/11/17 17:27:00 BASE 8.38 287 10.91 295 -0.4 100 -0.4 123 365 984.3 NA 0.0000 9999 2460 0 0 0
2017/11/17 17:28:00 BASE 8.72 292 10.91 295 -0.4 100 -0.4 122 364 984.2 NA 0.0000 9999 2460 0 0 0
2017/11/17 17:29:01 BASE 9.14 294 10.91 295 -0.4 100 -0.4 122 364 984.2 NA 0.0000 9999 2620 0 0 0
2017/11/17 17:30:01 BASE 8.82 295 10.91 295 -0.3 100 -0.3 123 365 984.2 NA 0.0000 9999 2590 0 0 0
2017/11/17 17:31:01 BASE 7.68 291 10.91 295 -0.3 100 -0.3 123 368 984.3 NA 0.0000 9999 2660 0 0 0
2017/11/17 17:32:01 BASE 7.85 292 10.91 295 -0.4 100 -0.4 125 371 984.2 NA 0.0000 9999 2620 0 0 0
2017/11/17 17:33:01 BASE 7.40 293 10.91 295 -0.4 100 -0.4 126 373 984.4 NA 0.0000 9999 2660 0 0 0
2017/11/17 17:34:01 BASE 6.53 291 10.91 295 -0.4 100 -0.4 126 375 984.3 NA 0.0000 9999 1740 2620 0 0
2017/11/17 17:35:01 BASE 7.77 290 10.91 295 -0.4 100 -0.4 127 376 984.2 NA 0.0000 9999 2620 0 0 0
2017/11/17 17:36:01 BASE 7.76 284 10.91 295 -0.4 100 -0.4 127 377 984.3 NA 0.0000 9999 2620 0 0 0
2017/11/17 17:37:01 BASE 7.43 282 10.75 295 -0.4 100 -0.4 127 376 984.3 NA 0.0000 9999 2660 0 0 0
2017/11/17 17:38:01 BASE 7.72 283 10.75 295 -0.4 100 -0.4 126 375 984.2 NA 0.0000 9999 2560 0 0 0
2017/11/17 17:39:01 BASE 7.68 282 10.75 295 -0.4 100 -0.4 126 373 984.2 NA 0.0000 9999 2690 0 0 0
2017/11/17 17:40:01 BASE 7.54 283 10.75 295 -0.4 100 -0.4 124 369 984.2 NA 0.0000 9999 2590 0 0 0
2017/11/17 17:41:01 BASE 7.52 283 10.75 295 -0.3 100 -0.3 123 367 984.2 NA 0.0000 9999 1510 0 0 0
2017/11/17 17:42:01 BASE 7.60 281 10.75 295 -0.3 100 -0.3 123 367 984.2 NA 0.0000 9999 1610 0 0 0
2017/11/17 17:43:01 BASE 7.92 281 10.75 295 -0.3 100 -0.3 122 365 984.2 NA 0.0000 9999 1610 0 0 0
2017/11/17 17:44:01 BASE 8.10 282 10.75 295 -0.3 100 -0.3 123 366 984.2 NA 0.0000 9999 2030 0 0 0
2017/11/17 17:45:01 BASE 7.59 287 9.11 285 -0.3 100 -0.3 123 367 984.2 NA 0.0000 9999 2620 0 0 0
2017/11/17 17:46:01 BASE 6.91 293 9.11 285 -0.3 100 -0.3 124 368 984.3 NA 0.0000 9999 2790 0 0 0
2017/11/17 17:47:01 BASE 6.90 296 9.11 285 -0.3 100 -0.3 123 367 984.3 NA 0.0000 9999 2790 0 0 0
2017/11/17 17:48:01 BASE 7.31 294 9.11 285 -0.3 100 -0.3 122 363 984.3 NA 0.0000 9999 1120 2790 0 0
2017/11/17 17:49:01 BASE 7.96 288 9.41 281 -0.3 100 -0.3 118 353 984.2 NA 0.0000 9999 2690 0 0 0
2017/11/17 17:50:01 BASE 8.46 283 9.41 281 -0.2 100 -0.2 119 356 984.1 NA 0.0000 9999 1440 2720 0 0
2017/11/17 17:51:01 BASE 8.21 279 9.41 281 -0.2 100 -0.2 121 359 984.2 NA 0.0000 9999 1410 0 0 0
2017/11/17 17:52:01 BASE 7.51 275 9.41 281 -0.2 100 -0.2 121 359 984.2 NA 0.0000 9999 1540 2850 0 0
2017/11/17 17:53:01 BASE 7.60 274 9.52 275 -0.1 100 -0.1 118 355 984.1 NA 0.0000 9999 2690 0 0 0
2017/11/17 17:54:01 BASE 7.86 272 9.52 275 -0.1 100 -0.1 116 350 984.2 NA 0.0000 9999 1570 2460 0 0
2017/11/17 17:55:01 BASE 7.62 270 9.52 270 -0.1 100 -0.1 119 355 984.2 NA 0.0000 9999 1480 0 0 0
2017/11/17 17:56:01 BASE 8.06 274 10.39 276 -0.1 100 -0.1 120 358 984.1 NA 0.0000 9999 2950 0 0 0
2017/11/17 17:57:01 BASE 8.05 278 10.39 276 -0.1 99 -0.2 123 363 984.2 NA 0.0000 9999 1280 2230 2720 0
2017/11/17 17:58:01 BASE 7.60 278 10.39 276 -0.1 99 -0.2 124 367 984.2 NA 0.0000 9999 1740 2760 0 0
2017/11/17 17:59:01 BASE 7.13 276 10.39 276 -0.1 99 -0.2 127 373 984.1 NA 0.0000 9999 1640 0 0 0
2017/11/17 18:00:01 BASE 7.67 276 10.39 276 -0.1 99 -0.2 130 377 984.1 NA 0.0000 9999 1540 2990 0 0
2017/11/17 18:01:01 BASE 8.03 277 10.39 276 -0.1 99 -0.3 129 375 984.1 NA 0.0000 9999 2790 0 0 0
2017/11/17 18:02:01 BASE 7.60 276 10.39 276 -0.1 98 -0.3 128 373 984.1 NA 0.0000 9999 2850 0 0 0
2017/11/17 18:03:01 BASE 7.93 277 10.39 276 -0.1 98 -0.3 126 368 984.0 NA 0.0000 9999 2790 0 0 0
2017/11/17 18:04:01 BASE 8.20 275 10.39 276 -0.1 98 -0.4 124 363 984.0 NA 0.0000 9999 2720 0 0 0
2017/11/17 18:05:01 BASE 8.11 274 10.39 276 -0.1 98 -0.4 123 361 984.0 NA 0.0000 9999 1670 2820 0 0
2017/11/17 18:06:01 BASE 7.74 277 9.47 281 -0.1 98 -0.4 124 363 984.1 NA 0.0000 9999 1740 2590 0 0
2017/11/17 18:07:01 BASE 7.34 279 9.47 281 -0.1 98 -0.4 127 370 984.1 NA 0.0000 9999 1610 2170 2850 0
2017/11/17 18:08:01 BASE 7.40 281 9.52 279 -0.1 98 -0.4 131 379 984.0 NA 0.0000 9999 2790 0 0 0
2017/11/17 18:09:01 BASE 8.52 282 10.49 268 -0.1 98 -0.4 135 387 983.9 NA 0.0000 9999 2720 0 0 0
2017/11/17 18:10:01 BASE 8.36 283 10.49 268 -0.1 98 -0.3 138 394 984.1 NA 0.0000 9999 2760 0 0 0
2017/11/17 18:11:01 BASE 6.80 278 10.49 268 -0.0 98 -0.4 141 400 984.1 NA 0.0000 9999 2760 0 0 0
2017/11/17 18:12:01 BASE 6.38 273 10.49 268 -0.0 98 -0.4 141 400 984.1 NA 0.0000 9999 2820 0 0 0
2017/11/17 18:13:01 BASE 6.45 276 10.49 268 -0.0 97 -0.4 138 394 984.1 NA 0.0000 9999 2690 0 0 0
2017/11/17 18:14:01 BASE 7.17 281 10.49 268 -0.1 97 -0.4 134 384 984.0 NA 0.0000 9999 1210 2790 0 0
2017/11/17 18:15:01 BASE 7.81 280 10.49 268 -0.1 97 -0.4 134 384 984.0 NA 0.0000 9999 1150 2100 0 0
2017/11/17 18:16:01 BASE 7.24 271 10.49 268 -0.1 98 -0.4 135 384 984.0 NA 0.0000 9999 1510 0 0 0
2017/11/17 18:17:01 BASE 6.99 276 10.49 268 -0.1 98 -0.4 134 381 984.0 NA 0.0000 9999 2660 0 0 0
2017/11/17 18:18:01 BASE 6.93 287 10.49 268 -0.1 98 -0.4 133 378 984.0 NA 0.0000 9999 2890 0 0 0
2017/11/17 18:19:01 BASE 7.05 279 9.77 293 -0.1 98 -0.4 132 376 984.0 NA 0.0000 9999 2850 0 0 0
2017/11/17 18:20:01 BASE 6.47 269 9.31 293 -0.1 98 -0.4 131 372 984.0 NA 0.0000 9999 2820 0 0 0
2017/11/17 18:21:01 BASE 5.75 272 9.31 293 -0.1 98 -0.4 129 368 984.0 NA 0.0000 9999 1210 2920 0 0
2017/11/17 18:22:01 BASE 5.93 302 9.31 293 -0.0 98 -0.4 128 366 984.1 NA 0.0000 9999 1050 2950 0 0
2017/11/17 18:23:01 BASE 6.63 320 9.31 293 0.0 98 -0.3 127 362 984.1 NA 0.0000 9999 2890 0 0 0
2017/11/17 18:24:01 BASE 6.43 308 9.31 293 0.0 98 -0.3 126 361 984.2 NA 0.0000 9999 2820 0 0 0
2017/11/17 18:25:01 BASE 5.68 299 9.31 293 0.0 98 -0.3 127 363 984.1 NA 0.0000 9999 2920 0 0 0
2017/11/17 18:26:01 BASE 6.16 299 9.31 293 -0.0 98 -0.4 128 366 984.1 NA 0.0000 9999 2920 0 0 0
2017/11/17 18:27:01 BASE 5.87 308 8.75 288 -0.0 98 -0.4 130 371 984.1 NA 0.0000 9999 2950 0 0 0
2017/11/17 18:28:01 BASE 5.58 316 8.33 302 -0.1 98 -0.4 132 376 984.1 NA 0.0000 9999 2920 20700 0 0
2017/11/17 18:29:01 BASE 5.75 320 8.33 302 -0.1 98 -0.4 134 381 984.1 NA 0.0000 9999 2920 0 0 0
2017/11/17 18:30:01 BASE 5.66 314 8.33 302 -0.1 99 -0.3 137 387 984.1 NA 0.0000 9999 2950 0 0 0
2017/11/17 18:31:01 BASE 5.51 306 8.33 302 -0.1 99 -0.3 139 392 984.0 NA 0.0000 9999 2990 0 0 0
2017/11/17 18:32:01 BASE 5.07 303 8.33 302 -0.1 99 -0.2 139 391 984.0 NA 0.0000 9999 2890 0 0 0
2017/11/17 18:33:01 BASE 5.99 312 9.67 333 -0.1 99 -0.2 137 386 984.0 NA 0.0000 9999 2950 0 0 0
2017/11/17 18:34:01 BASE 6.80 314 9.67 333 -0.0 99 -0.2 134 379 984.0 NA 0.0000 9999 2950 0 0 0
2017/11/17 18:35:01 BASE 6.41 315 9.67 333 0.1 98 -0.2 133 376 984.0 NA 0.0000 9999 2820 0 0 0
2017/11/17 18:36:01 BASE 6.46 307 9.67 333 0.1 98 -0.2 134 379 983.9 NA 0.0000 9999 2950 0 0 0
2017/11/17 18:37:01 BASE 5.93 293 9.67 333 0.2 97 -0.2 136 383 983.9 NA 0.0000 9999 2850 0 0 0
2017/11/17 18:38:01 BASE 4.99 303 9.67 333 0.2 97 -0.2 136 382 983.9 NA 0.0000 9999 3020 0 0 0
2017/11/17 18:39:01 BASE 4.65 308 9.67 333 0.3 97 -0.2 132 374 983.9 NA 0.0000 9999 2790 0 0 0
2017/11/17 18:40:01 BASE 5.09 307 9.67 333 0.3 96 -0.2 128 365 984.0 NA 0.0000 9999 2850 0 0 0
2017/11/17 18:41:01 BASE 5.91 316 9.67 333 0.4 95 -0.3 126 360 984.0 NA 0.0000 9999 2890 0 0 0
2017/11/17 18:42:01 BASE 7.95 325 10.80 344 0.5 94 -0.3 125 359 983.9 NA 0.0000 9999 2990 0 0 0
2017/11/17 18:43:01 BASE 8.61 332 10.80 344 0.6 93 -0.4 124 356 984.0 NA 0.0000 9999 3050 0 0 0
2017/11/17 18:44:01 BASE 5.88 329 10.80 344 0.6 93 -0.4 123 352 984.0 NA 0.0000 9999 3050 0 0 0
2017/11/17 18:45:01 BASE 6.10 328 10.80 344 0.7 92 -0.5 121 349 983.9 NA 0.0000 9999 3020 0 0 0
2017/11/17 18:46:01 BASE 7.99 329 10.80 344 0.8 91 -0.5 121 348 983.8 NA 0.0000 9999 2890 0 0 0
2017/11/17 18:47:01 BASE 7.19 323 10.80 344 0.8 90 -0.6 122 349 983.9 NA 0.0000 9999 2690 0 0 0
2017/11/17 18:48:01 BASE 6.53 326 10.80 344 0.8 90 -0.7 122 348 983.9 NA 0.0000 9999 3020 0 0 0
2017/11/17 18:49:01 BASE 6.77 334 10.80 344 0.8 89 -0.7 121 345 983.9 NA 0.0000 9999 2950 22210 0 0
2017/11/17 18:50:01 BASE 7.50 336 10.80 344 0.9 89 -0.7 118 340 983.8 NA 0.0000 9999 3020 0 0 0
2017/11/17 18:51:01 BASE 7.56 334 10.80 344 0.9 89 -0.8 116 334 983.8 NA 0.0000 9999 2590 0 0 0
2017/11/17 18:52:01 BASE 7.17 331 9.98 334 0.9 89 -0.8 113 328 983.8 NA 0.0000 9999 2760 0 0 0
2017/11/17 18:53:01 BASE 6.82 336 9.26 334 0.9 88 -0.8 112 323 983.8 NA 0.0000 9999 2720 0 0 0
2017/11/17 18:54:01 BASE 7.51 342 10.39 351 0.9 88 -0.8 111 322 983.7 NA 0.0000 9999 2620 0 0 0
2017/11/17 18:55:01 BASE 8.75 350 10.39 351 0.9 88 -0.9 112 323 983.7 NA 0.0000 9999 2360 0 0 0
2017/11/17 18:56:01 BASE 8.42 357 10.39 351 0.9 88 -0.9 112 325 983.7 NA 0.0000 9999 2230 0 0 0
2017/11/17 18:57:01 BASE 7.75 359 10.39 351 1.0 87 -0.9 112 323 983.7 NA 0.0000 9999 2530 0 0 0
2017/11/17 18:58:01 BASE 7.43 352 10.39 351 1.0 87 -0.9 110 318 983.7 NA 0.0000 9999 2230 0 0 0
2017/11/17 18:59:01 BASE 7.55 347 10.39 351 1.0 87 -0.9 106 310 983.7 NA 0.0000 9999 2820 0 0 0
2017/11/17 19:00:01 BASE 7.82 350 10.39 351 1.0 87 -0.9 103 301 983.7 NA 0.0000 9999 2200 0 0 0
2017/11/17 19:01:01 BASE 8.25 356 10.39 351 1.0 87 -0.9 100 293 983.7 NA 0.0000 9999 2490 0 0 0
2017/11/17 19:02:01 BASE 9.07 1 10.49 3 1.0 87 -0.9 97 287 983.6 NA 0.0000 9999 2530 0 0 0
2017/11/17 19:03:01 BASE 9.40 9 10.49 3 1.0 87 -0.9 95 282 983.6 NA 0.0000 9999 2990 0 0 0
2017/11/17 19:04:01 BASE 9.48 7 10.65 1 1.0 87 -0.9 94 279 983.6 NA 0.0000 9999 2990 0 0 0
2017/11/17 19:05:01 BASE 9.57 0 10.65 3 1.0 87 -0.9 92 275 983.6 NA 0.0000 9999 2890 20570 0 0
2017/11/17 19:06:01 BASE 9.06 2 10.65 3 1.0 87 -0.9 91 271 983.6 NA 0.0000 9999 2850 0 0 0
2017/11/17 19:07:01 BASE 9.64 359 11.88 1 1.0 87 -0.9 89 268 983.5 NA 0.0000 9999 2890 0 0 0
2017/11/17 19:08:01 BASE 10.18 358 11.88 1 1.0 87 -0.9 88 265 983.5 NA 0.0000 9999 2850 0 0 0
2017/11/17 19:09:01 BASE 9.43 354 11.88 1 1.0 87 -0.9 88 264 983.6 NA 0.0000 9999 2890 21490 0 0
2017/11/17 19:10:01 BASE 9.08 348 11.88 1 1.0 87 -0.9 88 263 983.6 NA 0.0000 9999 2920 0 0 0
2017/11/17 19:11:01 BASE 8.88 355 11.88 1 1.0 87 -1.0 88 263 983.6 NA 0.0000 9999 2920 0 0 0
2017/11/17 19:12:01 BASE 8.75 358 11.88 1 1.0 87 -1.0 87 262 983.6 NA 0.0000 9999 2890 0 0 0
2017/11/17 19:13:01 BASE 9.07 1 11.88 1 1.0 87 -0.9 86 259 983.6 NA 0.0000 9999 2890 0 0 0
2017/11/17 19:14:01 BASE 9.45 7 11.88 1 1.0 87 -0.9 86 258 983.6 NA 0.0000 9999 2920 0 0 0
2017/11/17 19:15:01 BASE 9.33 2 11.88 1 1.0 87 -0.9 86 257 983.6 NA 0.0000 9999 2920 0 0 0
2017/11/17 19:16:01 BASE 9.38 1 11.88 1 1.0 87 -0.9 86 257 983.6 NA 0.0000 9999 2820 0 0 0
2017/11/17 19:17:01 BASE 9.90 1 11.06 350 1.0 87 -0.9 86 258 983.5 NA 0.0000 9999 2820 0 0 0
2017/11/17 19:18:01 BASE 9.60 356 11.01 353 1.0 87 -0.9 87 259 983.5 NA 0.0000 9999 2850 0 0 0
2017/11/17 19:19:01 BASE 9.35 352 11.01 353 1.0 87 -0.9 87 259 983.5 NA 0.0000 9999 2920 0 0 0
2017/11/17 19:20:01 BASE 9.68 356 11.01 353 1.0 87 -0.9 87 257 983.5 NA 0.0000 9999 3020 0 0 0
2017/11/17 19:21:01 BASE 9.75 3 11.01 353 1.0 87 -0.9 86 256 983.5 NA 0.0000 9999 2990 0 0 0
2017/11/17 19:22:01 BASE 9.58 3 11.01 353 1.0 87 -1.0 85 252 983.5 NA 0.0000 9999 3050 0 0 0
2017/11/17 19:23:01 BASE 9.55 0 11.11 1 1.0 87 -1.0 82 246 983.5 NA 0.0000 9999 2300 0 0 0
2017/11/17 19:24:01 BASE 10.10 4 11.42 43 1.0 87 -1.0 80 240 983.4 NA 0.0000 9999 2720 0 0 0
2017/11/17 19:25:01 BASE 10.59 6 11.42 43 1.0 86 -1.0 77 234 983.4 NA 0.0000 9999 2260 0 0 0
2017/11/17 19:26:01 BASE 10.42 4 11.42 43 1.0 86 -1.0 75 228 983.4 NA 0.0000 9999 2530 0 0 0
2017/11/17 19:27:01 BASE 9.77 3 11.42 43 1.0 86 -1.0 73 223 983.5 NA 0.0000 9999 2300 0 0 0
2017/11/17 19:28:01 BASE 9.07 2 11.42 43 1.0 86 -1.1 72 221 983.5 NA 0.0000 9999 2430 0 0 0
2017/11/17 19:29:01 BASE 8.44 359 11.42 43 1.0 86 -1.1 72 220 983.5 NA 0.0000 9999 2330 0 0 0
2017/11/17 19:30:01 BASE 7.99 2 11.42 43 1.0 86 -1.1 72 219 983.5 NA 0.0000 9999 2430 0 0 0
2017/11/17 19:31:01 BASE 8.44 9 11.42 43 0.9 87 -1.0 71 217 983.5 NA 0.0000 9999 2620 0 0 0
2017/11/17 19:32:01 BASE 8.99 6 11.42 43 0.9 87 -1.0 69 213 983.5 NA 0.0000 9999 2690 0 0 0
2017/11/17 19:33:01 BASE 9.22 2 11.42 43 0.9 87 -1.0 66 205 983.5 NA 0.0000 9999 2890 0 0 0
2017/11/17 19:34:01 BASE 8.85 2 11.32 7 0.9 87 -1.0 63 198 983.5 NA 0.0000 9999 2950 0 0 0
2017/11/17 19:35:01 BASE 8.09 0 10.91 6 0.9 87 -1.0 61 191 983.5 NA 0.0000 9999 2920 0 0 0
2017/11/17 19:36:01 BASE 7.99 359 10.91 6 1.0 87 -1.0 59 186 983.5 NA 0.0000 9999 2990 0 0 0
2017/11/17 19:37:01 BASE 8.14 360 10.19 6 1.0 87 -1.0 57 181 983.5 NA 0.0000 9999 2990 0 0 0
2017/11/17 19:38:01 BASE 8.56 358 10.19 6 1.0 87 -1.0 56 178 983.5 NA 0.0000 9999 3050 0 0 0
2017/11/17 19:39:01 BASE 8.77 357 10.19 6 0.9 87 -1.0 56 179 983.5 NA 0.0000 9999 3020 0 0 0
2017/11/17 19:40:01 BASE 9.07 359 10.75 2 0.9 87 -1.0 58 183 983.5 NA 0.0000 9999 2990 0 0 0
2017/11/17 19:41:01 BASE 8.89 2 10.75 2 0.9 87 -1.0 60 188 983.4 NA 0.0000 9999 2170 0 0 0
2017/11/17 19:42:01 BASE 9.00 3 10.75 2 0.9 87 -1.0 61 193 983.4 NA 0.0000 9999 2030 0 0 0
2017/11/17 19:43:01 BASE 9.26 5 10.75 2 0.9 87 -1.0 63 197 983.4 NA 0.0000 9999 2200 0 0 0
2017/11/17 19:44:01 BASE 9.07 5 10.75 2 0.9 87 -1.0 65 202 983.4 NA 0.0000 9999 2300 0 0 0
2017/11/17 19:45:01 BASE 9.59 5 10.85 8 0.9 87 -1.0 66 206 983.4 NA 0.0000 9999 2330 0 0 0
2017/11/17 19:46:01 BASE 9.80 5 10.85 8 0.9 87 -1.0 67 209 983.3 NA 0.0000 9999 2400 0 0 0
2017/11/17 19:47:01 BASE 9.14 1 10.85 8 0.9 87 -1.0 68 210 983.4 NA 0.0000 9999 2330 0 0 0
2017/11/17 19:48:01 BASE 9.08 359 10.85 8 0.9 87 -1.0 68 211 983.3 NA 0.0000 9999 2330 0 0 0
2017/11/17 19:49:01 BASE 9.41 359 10.85 8 0.9 87 -1.0 68 211 983.3 NA 0.0000 9999 2330 0 0 0
2017/11/17 19:50:01 BASE 9.80 0 11.01 3 0.9 88 -1.0 68 211 983.2 NA 0.0000 9999 1940 0 0 0
2017/11/17 19:51:01 BASE 10.43 3 11.68 6 0.8 88 -1.0 67 210 983.2 NA 0.0000 9999 1970 0 0 0
2017/11/17 19:52:01 BASE 10.70 4 11.68 6 0.8 88 -1.0 66 206 983.2 NA 0.0000 9999 1970 0 0 0
2017/11/17 19:53:01 BASE 10.72 5 12.19 4 0.8 87 -1.1 65 202 983.1 NA 0.0000 9999 2100 0 0 0
2017/11/17 19:54:01 BASE 10.58 4 12.19 4 0.8 87 -1.1 64 200 983.1 NA 0.0000 9999 2300 0 0 0
2017/11/17 19:55:01 BASE 10.54 2 12.19 4 0.8 87 -1.1 63 196 983.1 NA 0.0000 9999 2330 0 0 0
2017/11/17 19:56:01 BASE 10.66 1 12.19 4 0.8 87 -1.1 61 193 983.1 NA 0.0000 9999 2070 0 0 0
2017/11/17 19:57:01 BASE 10.37 4 12.19 4 0.8 87 -1.1 61 191 983.1 NA 0.0000 9999 1940 0 0 0
2017/11/17 19:58:01 BASE 10.55 5 12.81 1 0.8 87 -1.1 61 191 983.0 NA 0.0000 9999 2000 0 0 0
2017/11/17 19:59:01 BASE 10.96 3 12.81 1 0.8 87 -1.1 62 192 983.0 NA 0.0000 9999 2330 0 0 0
2017/11/17 20:00:01 BASE 10.98 2 12.81 1 0.8 87 -1.1 61 191 983.0 NA 0.0000 9999 2430 0 0 0
2017/11/17 20:01:01 BASE 10.97 3 12.81 1 0.7 87 -1.1 60 187 983.0 NA 0.0000 9999 2400 0 0 0
2017/11/17 20:02:01 BASE 11.12 5 12.81 3 0.7 87 -1.1 59 183 983.0 NA 0.0000 9999 2490 0 0 0
2017/11/17 20:03:01 BASE 11.15 5 12.81 3 0.7 87 -1.2 57 179 983.0 NA 0.0000 9999 2620 0 0 0
2017/11/17 20:04:01 BASE 11.09 5 12.81 3 0.7 87 -1.2 55 174 983.0 NA 0.0000 9999 2720 0 0 0
2017/11/17 20:05:01 BASE 11.44 7 12.81 3 0.7 87 -1.2 54 169 982.9 NA 0.0000 9999 2790 0 0 0
2017/11/17 20:06:01 BASE 10.85 8 12.81 3 0.7 87 -1.2 52 164 983.0 NA 0.0000 9999 2760 0 0 0
2017/11/17 20:07:01 BASE 10.54 7 12.81 3 0.7 87 -1.2 51 160 983.0 NA 0.0000 9999 2760 0 0 0
2017/11/17 20:08:01 BASE 10.83 4 12.81 3 0.7 87 -1.2 50 158 983.0 NA 0.0000 9999 2690 0 0 0
2017/11/17 20:09:01 BASE 10.44 4 12.81 3 0.7 87 -1.2 50 157 983.0 NA 0.0000 9999 2590 0 0 0
2017/11/17 20:10:01 BASE 10.36 3 12.81 3 0.7 87 -1.2 50 158 983.0 NA 0.0000 9999 2490 0 0 0
2017/11/17 20:11:01 BASE 10.43 3 12.81 3 0.6 87 -1.2 50 158 982.9 NA 0.0000 9999 2330 0 0 0
2017/11/17 20:12:01 BASE 9.41 6 12.40 7 0.6 87 -1.2 51 159 983.0 NA 0.0000 9999 2260 0 0 0
2017/11/17 20:13:01 BASE 8.95 4 12.30 7 0.6 88 -1.2 52 162 982.9 NA 0.0000 9999 2330 0 0 0
2017/11/17 20:14:01 BASE 9.25 0 12.30 7 0.6 88 -1.2 53 166 982.9 NA 0.0000 9999 2230 0 0 0
2017/11/17 20:15:01 BASE 9.74 358 11.78 13 0.6 88 -1.2 55 169 982.9 NA 0.0000 9999 2200 0 0 0
2017/11/17 20:16:01 BASE 9.76 352 11.78 13 0.6 88 -1.2 56 172 982.9 NA 0.0000 9999 2200 0 0 0
2017/11/17 20:17:01 BASE 9.00 352 11.78 13 0.6 88 -1.2 58 177 982.9 NA 0.0000 9999 2200 0 0 0
2017/11/17 20:18:01 BASE 8.84 353 11.57 2 0.6 88 -1.2 60 182 982.9 NA 0.0000 9999 2130 0 0 0
2017/11/17 20:19:01 BASE 7.71 348 11.57 2 0.6 88 -1.2 61 185 982.9 NA 0.0000 9999 2130 0 0 0
2017/11/17 20:20:01 BASE 6.65 350 11.57 2 0.6 88 -1.2 61 186 982.9 NA 0.0000 9999 2230 0 0 0
2017/11/17 20:21:01 BASE 7.60 359 11.57 2 0.5 88 -1.2 62 187 982.9 NA 0.0000 9999 2330 0 0 0
2017/11/17 20:22:01 BASE 8.96 2 11.57 2 0.5 88 -1.2 62 189 982.8 NA 0.0000 9999 2230 0 0 0
2017/11/17 20:23:01 BASE 9.66 2 11.57 2 0.6 88 -1.2 62 189 982.7 NA 0.0000 9999 2200 0 0 0
2017/11/17 20:24:01 BASE 9.57 5 11.57 2 0.6 88 -1.2 62 187 982.7 NA 0.0000 9999 2200 3220 0 0
2017/11/17 20:25:01 BASE 8.93 5 11.21 13 0.6 88 -1.2 61 185 982.7 NA 0.0000 9999 2330 0 0 0
2017/11/17 20:26:01 BASE 8.34 1 11.21 13 0.6 88 -1.2 60 183 982.7 NA 0.0000 9999 2330 21590 0 0
2017/11/17 20:27:01 BASE 8.41 6 11.21 13 0.6 87 -1.3 60 182 982.7 NA 0.0000 9999 2400 0 0 0
2017/11/17 20:28:01 BASE 9.03 5 11.21 13 0.6 87 -1.3 59 182 982.7 NA 0.0000 9999 2430 0 0 0
2017/11/17 20:29:01 BASE 9.48 356 11.21 13 0.6 87 -1.3 59 181 982.6 NA 0.0000 9999 2690 0 0 0
2017/11/17 20:30:01 BASE 9.10 2 11.21 13 0.6 87 -1.3 58 179 982.7 NA 0.0000 9999 2430 0 0 0
2017/11/17 20:31:01 BASE 8.33 7 11.21 13 0.6 87 -1.3 58 178 982.7 NA 0.0000 9999 3150 0 0 0
2017/11/17 20:32:01 BASE 8.17 6 11.21 13 0.6 87 -1.3 57 176 982.7 NA 0.0000 9999 3220 0 0 0
2017/11/17 20:33:01 BASE 8.45 358 10.65 1 0.6 87 -1.3 57 175 982.7 NA 0.0000 9999 3280 0 0 0
2017/11/17 20:34:01 BASE 8.89 356 10.65 1 0.6 88 -1.2 56 174 982.7 NA 0.0000 9999 3280 0 0 0
2017/11/17 20:35:01 BASE 8.69 1 10.65 1 0.6 88 -1.2 56 173 982.7 NA 0.0000 9999 3220 0 0 0
2017/11/17 20:36:01 BASE 8.16 358 10.65 1 0.6 88 -1.2 56 174 982.7 NA 0.0000 9999 3220 0 0 0
2017/11/17 20:37:01 BASE 8.14 2 10.65 6 0.6 88 -1.2 58 177 982.7 NA 0.0000 9999 3180 0 0 0
2017/11/17 20:38:01 BASE 8.59 3 10.65 6 0.6 88 -1.2 60 182 982.7 NA 0.0000 9999 3120 0 0 0
2017/11/17 20:39:01 BASE 8.26 358 10.65 6 0.6 88 -1.2 61 186 982.8 NA 0.0000 9999 430 0 0 0
2017/11/17 20:40:01 BASE 7.53 354 10.65 6 0.6 88 -1.2 63 190 982.8 NA 0.0000 9999 390 0 0 0
2017/11/17 20:41:01 BASE 7.08 350 10.65 6 0.6 88 -1.2 64 193 982.9 NA 0.0000 UP 9999 390 0 0 0
2017/11/17 20:42:01 BASE 7.26 342 10.65 6 0.6 88 -1.2 64 193 982.9 NA 0.0000 UP 9999 2920 0 0 0
2017/11/17 20:43:01 BASE 7.36 321 10.65 6 0.5 88 -1.2 62 190 982.9 NA 0.0000 UP 9999 2890 0 0 0
2017/11/17 20:44:01 BASE 6.57 312 10.65 6 0.5 88 -1.2 61 186 982.9 NA 0.0000 UP 9999 2890 0 0 0
2017/11/17 20:45:01 BASE 6.68 318 10.65 6 0.5 89 -1.2 59 181 982.9 NA 0.0000 UP 9999 2920 0 0 0
2017/11/17 20:46:01 BASE 5.80 309 10.65 6 0.4 89 -1.2 58 179 982.9 NA 0.0000 UP 9999 2950 0 0 0
2017/11/17 20:47:01 BASE 5.40 302 10.60 11 0.3 89 -1.2 58 180 982.9 NA 0.0000 UP 9999 2920 0 0 0
2017/11/17 20:48:01 BASE 5.95 304 9.11 351 0.2 90 -1.2 60 182 982.9 NA 0.0000 UP 9999 1380 2990 0 0
2017/11/17 20:49:01 BASE 6.31 305 9.11 351 0.1 91 -1.2 62 187 982.8 NA 0.0000 9999 2030 2990 0 0
2017/11/17 20:50:01 BASE 7.34 304 9.16 313 -0.0 92 -1.2 64 193 982.7 NA 0.0000 9999 1540 0 0 0
2017/11/17 20:51:01 BASE 7.41 305 9.16 313 -0.1 93 -1.1 67 200 982.7 NA 0.0000 9999 3020 0 0 0
2017/11/17 20:52:01 BASE 6.97 303 9.16 313 -0.2 93 -1.1 71 208 982.7 NA 0.0000 9999 2990 0 0 0
2017/11/17 20:53:01 BASE 6.57 300 9.16 313 -0.2 94 -1.1 73 214 982.7 NA 0.0000 9999 2990 0 0 0
2017/11/17 20:54:01 BASE 5.79 299 9.16 313 -0.3 94 -1.1 75 218 982.7 NA 0.0000 9999 2990 0 0 0
2017/11/17 20:55:01 BASE 5.43 303 9.16 313 -0.3 94 -1.1 76 221 982.7 NA 0.0000 9000 3020 0 0 0
2017/11/17 20:56:01 BASE 4.93 306 9.16 313 -0.3 95 -1.0 78 225 982.7 NA 0.0000 8000 2990 0 0 0
2017/11/17 20:57:01 BASE 4.42 313 9.16 313 -0.3 95 -1.0 80 230 982.7 NA 0.0000 UP 8000 3020 0 0 0
2017/11/17 20:58:01 BASE 4.51 322 9.16 313 -0.2 96 -0.9 80 231 982.8 NA 0.0000 UP 9999 3020 0 0 0
2017/11/17 20:59:01 BASE 4.15 321 9.16 313 -0.2 96 -0.8 80 231 982.7 NA 0.0000 UP 9999 2990 0 0 0
2017/11/17 21:00:01 BASE 3.81 320 8.03 308 -0.1 96 -0.7 79 228 982.7 NA 0.0000 UP 9999 3050 0 0 0
2017/11/17 21:01:01 BASE 4.08 335 7.77 300 -0.1 96 -0.7 78 223 982.7 NA 0.0000 UP 9999 3050 0 0 0
2017/11/17 21:02:01 BASE 4.47 342 7.46 304 -0.1 96 -0.6 76 218 982.7 NA 0.0000 UP 9999 3080 0 0 0
2017/11/17 21:03:01 BASE 4.91 335 7.20 349 -0.0 96 -0.6 75 214 982.7 NA 0.0000 UP 9999 3120 0 0 0
2017/11/17 21:04:01 BASE 5.94 334 8.28 343 -0.0 96 -0.6 74 212 982.6 NA 0.0000 UP 9999 3120 0 0 0
2017/11/17 21:05:01 BASE 7.10 336 8.75 344 0.0 95 -0.7 74 212 982.6 NA 0.0000 UP 9999 3150 0 0 0
2017/11/17 21:06:01 BASE 7.62 343 8.75 344 0.1 95 -0.7 77 217 982.6 NA 0.0000 UP 9999 3220 0 0 0
2017/11/17 21:07:01 BASE 8.08 340 10.44 344 0.1 94 -0.7 79 222 982.5 NA 0.0000 UP 9999 360 0 0 0
2017/11/17 21:08:01 BASE 7.58 333 10.44 344 0.1 94 -0.8 81 225 982.6 NA 0.0000 UP 9999 390 0 0 0
2017/11/17 21:09:01 BASE 6.88 331 10.44 344 0.1 93 -0.8 84 232 982.5 NA 0.0000 UP 9999 360 0 0 0
2017/11/17 21:10:01 BASE 7.61 334 10.44 344 0.1 93 -0.9 90 245 982.4 NA 0.0000 UP 9999 660 0 0 0
2017/11/17 21:11:01 BASE 7.63 336 10.44 344 0.1 93 -0.9 95 256 982.5 NA 0.0000 UP 9999 1180 0 0 0
2017/11/17 21:12:01 BASE 6.80 337 10.44 344 0.1 92 -0.9 100 267 982.5 NA 0.0000 UP 9999 1350 0 0 0
2017/11/17 21:13:01 BASE 6.34 341 10.44 344 0.2 92 -1.0 102 271 982.4 NA 0.0000 UP 9999 1740 0 0 0
2017/11/17 21:14:01 BASE 6.41 335 10.44 344 0.2 92 -1.0 101 269 982.4 NA 0.0000 UP 9999 1900 0 0 0
2017/11/17 21:15:01 BASE 6.71 337 10.44 344 0.2 92 -1.0 97 258 982.3 NA 0.0000 UP 9999 2100 0 0 0
2017/11/17 21:16:01 BASE 6.64 347 10.44 344 0.2 92 -1.0 92 245 982.3 NA 0.0000 UP 9999 2300 0 0 0
2017/11/17 21:17:01 BASE 6.53 351 9.31 345 0.2 92 -1.0 86 232 982.3 NA 0.0000 UP 9999 3220 0 0 0
2017/11/17 21:18:01 BASE 6.93 355 9.31 345 0.2 91 -1.1 82 222 982.3 NA 0.0000 UP 9999 3250 22740 0 0
2017/11/17 21:19:01 BASE 7.00 352 9.31 345 0.2 91 -1.1 80 217 982.3 NA 0.0000 9999 3280 0 0 0
2017/11/17 21:20:01 BASE 6.64 353 8.18 15 0.2 91 -1.1 78 214 982.3 NA 0.0000 9999 3350 0 0 0
2017/11/17 21:21:01 BASE 7.33 0 8.95 4 0.2 91 -1.1 78 212 982.2 NA 0.0000 9999 3310 0 0 0
2017/11/17 21:22:01 BASE 8.29 1 9.47 353 0.2 91 -1.1 77 210 982.1 NA 0.0000 9999 3350 0 0 0
2017/11/17 21:23:01 BASE 8.49 1 9.72 1 0.2 91 -1.1 77 210 982.1 NA 0.0000 9999 3380 0 0 0
2017/11/17 21:24:01 BASE 8.59 6 10.08 1 0.2 91 -1.2 79 214 982.0 NA 0.0000 9999 3380 0 0 0
2017/11/17 21:25:01 BASE 8.48 4 10.08 1 0.2 90 -1.2 82 220 982.0 NA 0.0000 9999 3480 0 0 0
2017/11/17 21:26:01 BASE 8.58 1 10.08 1 0.2 90 -1.3 84 226 982.0 NA 0.0000 9999 3610 0 0 0
2017/11/17 21:27:01 BASE 9.23 1 10.49 1 0.2 89 -1.3 86 230 981.9 NA 0.0000 9999 3740 0 0 0
2017/11/17 21:28:01 BASE 9.61 5 11.11 8 0.2 89 -1.4 87 232 981.9 NA 0.0000 9999 3610 0 0 0
2017/11/17 21:29:01 BASE 9.48 8 11.11 8 0.2 89 -1.4 87 232 981.9 NA 0.0000 9999 3540 0 0 0
2017/11/17 21:30:01 BASE 9.00 10 11.11 8 0.2 88 -1.5 87 230 981.9 NA 0.0000 9999 3610 0 0 0
2017/11/17 21:31:01 BASE 9.03 9 11.11 8 0.3 88 -1.5 86 227 981.9 NA 0.0000 9999 3540 0 0 0
2017/11/17 21:32:01 BASE 9.21 8 11.11 8 0.3 87 -1.6 83 221 981.9 NA 0.0000 9999 3410 0 0 0
2017/11/17 21:33:01 BASE 9.87 8 11.52 11 0.3 87 -1.6 81 215 981.8 NA 0.0000 9999 3540 0 0 0
2017/11/17 21:34:01 BASE 10.25 9 11.99 5 0.3 87 -1.6 79 209 981.8 NA 0.0000 9999 3540 0 0 0
2017/11/17 21:35:00 BASE 9.67 10 11.99 5 0.3 87 -1.7 77 205 981.8 NA 0.0000 9999 3610 0 0 0
2017/11/17 21:36:00 BASE 9.58 8 11.99 5 0.3 86 -1.7 75 201 981.8 NA 0.0000 9999 3580 0 0 0
2017/11/17 21:37:00 BASE 9.53 6 11.99 5 0.3 86 -1.7 74 198 981.8 NA 0.0000 9999 3450 0 0 0
2017/11/17 21:38:00 BASE 9.62 8 11.99 5 0.3 86 -1.8 75 198 981.8 NA 0.0000 9999 3480 0 0 0
2017/11/17 21:39:00 BASE 9.89 11 11.99 5 0.3 86 -1.8 75 199 981.7 NA 0.0000 9999 3410 0 0 0
2017/11/17 21:40:00 BASE 9.94 10 11.99 5 0.3 86 -1.8 76 201 981.7 NA 0.0000 9999 3050 0 0 0
2017/11/17 21:41:00 BASE 9.58 11 11.99 5 0.3 86 -1.8 77 202 981.7 NA 0.0000 9999 3120 0 0 0
2017/11/17 21:42:00 BASE 9.15 12 11.99 5 0.3 86 -1.8 76 201 981.6 NA 0.0000 9999 3180 0 0 0
2017/11/17 21:43:00 BASE 9.17 12 11.99 5 0.3 86 -1.8 76 200 981.6 NA 0.0000 9999 3180 0 0 0
2017/11/17 21:44:00 BASE 9.72 13 11.57 12 0.3 86 -1.8 77 202 981.5 NA 0.0000 9999 3280 0 0 0
2017/11/17 21:45:00 BASE 10.11 14 11.88 10 0.3 85 -1.8 78 204 981.5 NA 0.0000 9999 3280 0 0 0
2017/11/17 21:46:00 BASE 10.22 14 11.88 10 0.3 85 -1.8 79 205 981.4 NA 0.0000 9999 3310 0 0 0
2017/11/17 21:47:00 BASE 10.03 13 11.88 10 0.4 85 -1.9 79 205 981.4 NA 0.0000 9999 3380 4000 0 0
2017/11/17 21:48:00 BASE 9.59 12 11.88 10 0.4 85 -1.9 79 204 981.4 NA 0.0000 9999 3450 0 0 0
2017/11/17 21:49:00 BASE 10.46 14 12.81 13 0.4 85 -1.8 77 201 981.3 NA 0.0000 9999 3610 0 0 0
2017/11/17 21:50:00 BASE 11.01 13 12.81 13 0.4 85 -1.9 75 196 981.2 NA 0.0000 9999 3480 0 0 0
2017/11/17 21:51:00 BASE 10.46 13 12.81 13 0.4 85 -1.9 72 189 981.3 NA 0.0000 9999 3510 0 0 0
2017/11/17 21:52:00 BASE 10.76 16 12.81 13 0.4 84 -1.9 69 181 981.2 NA 0.0000 9999 3710 0 0 0
2017/11/17 21:53:00 BASE 11.43 16 12.81 13 0.4 84 -2.0 65 172 981.2 NA 0.0000 9999 3280 3810 0 0
2017/11/17 21:54:00 BASE 11.47 15 12.81 13 0.4 84 -2.0 62 164 981.2 NA 0.0000 9999 3280 0 0 0
2017/11/17 21:55:00 BASE 11.11 15 12.81 13 0.4 84 -2.0 59 156 981.2 NA 0.0000 9999 3310 0 0 0
2017/11/17 21:56:00 BASE 10.72 15 12.81 13 0.4 84 -2.0 55 148 981.2 NA 0.0000 9999 3350 0 0 0
2017/11/17 21:57:00 BASE 10.36 15 12.81 13 0.4 84 -2.0 52 140 981.2 NA 0.0000 9999 3280 0 0 0
2017/11/17 21:58:00 BASE 10.96 14 13.02 5 0.4 84 -2.0 50 134 981.1 NA 0.0000 9999 3150 0 0 0
2017/11/17 21:59:00 BASE 11.11 14 13.02 5 0.4 84 -2.0 48 130 981.2 NA 0.0000 9999 3120 0 0 0
2017/11/17 22:00:00 BASE 10.63 14 13.02 5 0.4 84 -2.0 47 128 981.2 NA 0.0000 9999 3150 0 0 0
2017/11/17 22:01:00 BASE 10.97 14 13.02 5 0.4 84 -2.0 47 128 981.1 NA 0.0000 9999 3150 0 0 0
2017/11/17 22:02:00 BASE 10.77 16 13.02 5 0.4 84 -2.0 47 128 981.1 NA 0.0000 9999 3150 0 0 0
2017/11/17 22:03:00 BASE 10.61 17 13.02 5 0.4 84 -2.0 47 128 981.1 NA 0.0000 9999 3080 0 0 0
2017/11/17 22:04:00 BASE 10.34 16 13.02 5 0.4 84 -2.0 48 129 981.1 NA 0.0000 9999 3150 0 0 0
2017/11/17 22:05:00 BASE 10.36 16 13.02 5 0.4 84 -2.0 48 129 981.1 NA 0.0000 9999 3150 0 0 0
2017/11/17 22:06:00 BASE 10.98 16 13.02 5 0.4 84 -2.0 48 130 981.1 NA 0.0000 9999 3150 0 0 0
2017/11/17 22:07:00 BASE 10.83 16 13.02 5 0.4 84 -2.0 49 133 981.1 NA 0.0000 9999 3150 0 0 0
2017/11/17 22:08:00 BASE 10.31 15 12.60 18 0.4 84 -2.0 51 135 981.1 NA 0.0000 9999 3180 0 0 0
2017/11/17 22:09:00 BASE 10.32 15 12.60 18 0.4 84 -2.0 52 138 981.1 NA 0.0000 9999 3180 0 0 0
2017/11/17 22:10:00 BASE 10.61 16 12.60 18 0.4 84 -2.0 53 140 981.0 NA 0.0000 9999 3180 0 0 0
2017/11/17 22:11:00 BASE 10.81 14 12.60 18 0.4 84 -2.0 54 143 981.0 NA 0.0000 9999 3180 0 0 0
2017/11/17 22:12:00 BASE 10.92 14 12.60 18 0.4 84 -2.0 56 147 981.0 NA 0.0000 9999 3150 0 0 0
2017/11/17 22:13:00 BASE 11.25 16 12.60 18 0.4 84 -2.0 58 151 980.9 NA 0.0000 9999 3150 0 0 0
2017/11/17 22:14:00 BASE 10.87 18 12.60 18 0.4 84 -2.0 60 155 981.0 NA 0.0000 9999 3150 0 0 0
2017/11/17 22:15:00 BASE 10.11 18 12.60 18 0.5 84 -1.9 62 159 981.0 NA 0.0000 9999 3180 0 0 0
2017/11/17 22:16:00 BASE 10.29 17 12.45 9 0.5 84 -1.9 65 165 980.9 NA 0.0000 9999 3180 0 0 0
2017/11/17 22:17:00 BASE 10.47 18 12.45 9 0.5 84 -1.9 67 170 980.9 NA 0.0000 9999 3150 0 0 0
2017/11/17 22:18:00 BASE 10.60 19 12.45 9 0.5 84 -1.9 69 173 980.9 NA 0.0000 9999 3180 0 0 0
2017/11/17 22:19:00 BASE 11.21 19 12.45 9 0.5 84 -1.9 69 173 980.8 NA 0.0000 9999 3220 0 0 0
2017/11/17 22:20:00 BASE 11.14 18 12.45 9 0.5 84 -1.9 67 170 980.9 NA 0.0000 9999 3120 0 0 0
2017/11/17 22:21:00 BASE 10.66 17 12.45 9 0.5 84 -1.9 65 165 980.8 NA 0.0000 9999 3120 0 0 0
2017/11/17 22:22:00 BASE 10.67 17 12.45 9 0.5 84 -1.9 63 161 980.9 NA 0.0000 9999 3150 0 0 0
2017/11/17 22:23:00 BASE 9.72 19 12.40 19 0.5 84 -1.9 61 156 980.9 NA 0.0000 9999 3450 0 0 0
2017/11/17 22:24:00 BASE 9.39 19 12.40 19 0.5 84 -1.9 59 151 980.8 NA 0.0000 9999 3280 0 0 0
2017/11/17 22:25:00 BASE 9.74 19 12.40 19 0.5 84 -1.9 58 148 980.8 NA 0.0000 9999 3380 0 0 0
2017/11/17 22:26:00 BASE 9.32 21 12.40 19 0.5 84 -1.9 57 147 980.9 NA 0.0000 9999 3310 0 0 0
2017/11/17 22:27:00 BASE 9.04 22 12.40 19 0.5 84 -1.9 57 147 980.8 NA 0.0000 9999 3610 0 0 0
2017/11/17 22:28:00 BASE 8.51 21 12.40 19 0.5 84 -1.9 58 149 980.9 NA 0.0000 9999 3310 0 0 0
2017/11/17 22:29:00 BASE 8.39 21 12.14 20 0.5 84 -1.9 60 153 980.8 NA 0.0000 9999 3350 0 0 0
2017/11/17 22:30:00 BASE 8.28 22 11.99 16 0.5 84 -1.9 62 156 980.9 NA 0.0000 9999 3350 0 0 0
2017/11/17 22:31:00 BASE 8.21 19 11.32 12 0.5 84 -1.8 63 159 980.8 NA 0.0000 9999 3280 0 0 0
2017/11/17 22:32:00 BASE 8.51 19 11.32 12 0.5 84 -1.8 65 163 980.8 NA 0.0000 9999 3220 3770 0 0
2017/11/17 22:33:00 BASE 8.57 21 11.32 12 0.5 84 -1.8 68 167 980.8 NA 0.0000 9999 3220 3870 0 0
2017/11/17 22:34:00 BASE 8.70 22 10.55 20 0.5 84 -1.8 70 172 980.8 NA 0.0000 9999 6270 0 0 0
2017/11/17 22:35:00 BASE 8.81 24 10.55 20 0.5 84 -1.8 73 176 980.7 NA 0.0000 9999 5870 0 0 0
2017/11/17 22:36:00 BASE 8.70 26 10.55 20 0.6 84 -1.9 74 180 980.7 NA 0.0000 9999 6530 0 0 0
2017/11/17 22:37:00 BASE 8.22 31 10.49 22 0.6 84 -1.9 76 182 980.7 NA 0.0000 9999 5910 0 0 0
2017/11/17 22:38:00 BASE 7.95 31 10.49 22 0.6 84 -1.9 76 182 980.7 NA 0.0000 9999 5640 0 0 0
2017/11/17 22:39:00 BASE 8.08 31 10.49 22 0.6 84 -1.9 76 182 980.7 NA 0.0000 9999 5580 0 0 0
2017/11/17 22:40:00 BASE 8.09 31 10.49 22 0.6 84 -1.9 75 181 980.7 NA 0.0000 9999 6040 0 0 0
2017/11/17 22:41:00 BASE 7.63 29 10.49 22 0.6 84 -1.8 74 179 980.7 NA 0.0000 9999 5840 0 0 0
2017/11/17 22:42:00 BASE 7.22 30 10.49 22 0.6 84 -1.8 73 175 980.6 NA 0.0000 9999 5810 0 0 0
2017/11/17 22:43:00 BASE 6.93 32 9.67 20 0.7 84 -1.8 70 169 980.6 NA 0.0000 9999 5680 0 0 0
2017/11/17 22:44:00 BASE 7.11 35 9.72 34 0.7 84 -1.7 67 162 980.5 NA 0.0000 9999 5320 0 0 0
2017/11/17 22:45:00 BASE 7.62 35 9.72 34 0.7 84 -1.8 63 155 980.5 NA 0.0000 9999 5320 0 0 0
2017/11/17 22:46:00 BASE 7.79 29 9.72 34 0.7 84 -1.8 60 149 980.5 NA 0.0000 9999 5220 0 0 0
2017/11/17 22:47:00 BASE 7.94 25 9.72 34 0.7 83 -1.8 58 143 980.4 NA 0.0000 9999 5250 0 0 0
2017/11/17 22:48:00 BASE 7.73 20 9.72 34 0.7 83 -1.8 55 138 980.4 NA 0.0000 9999 5150 0 0 0
2017/11/17 22:49:00 BASE 7.87 17 9.77 16 0.7 83 -1.9 53 132 980.4 NA 0.0000 9999 5050 0 0 0
2017/11/17 22:50:00 BASE 9.02 17 11.47 21 0.7 83 -1.9 51 127 980.3 NA 0.0000 9999 4990 0 0 0
2017/11/17 22:51:00 BASE 9.49 17 11.47 21 0.7 83 -1.9 49 123 980.2 NA 0.0000 9999 4990 0 0 0
2017/11/17 22:52:00 BASE 9.21 16 11.47 21 0.7 83 -1.9 47 118 980.2 NA 0.0000 9999 4860 0 0 0
2017/11/17 22:53:00 BASE 9.29 17 11.47 21 0.7 83 -1.9 45 114 980.2 NA 0.0000 9999 5020 0 0 0
2017/11/17 22:54:00 BASE 9.44 18 11.47 21 0.7 83 -1.9 43 109 980.1 NA 0.0000 9999 4820 0 0 0
2017/11/17 22:55:00 BASE 8.98 13 11.47 21 0.7 82 -1.9 40 104 980.1 NA 0.0000 9999 4860 0 0 0
2017/11/17 22:56:00 BASE 9.15 9 11.78 18 0.7 82 -2.0 38 99 980.0 NA 0.0000 9999 4860 5870 0 0
2017/11/17 22:57:00 BASE 9.53 9 11.78 18 0.8 82 -2.0 36 94 979.9 NA 0.0000 9999 4400 0 0 0
2017/11/17 22:58:00 BASE 10.78 9 13.58 7 0.8 82 -1.9 34 90 979.8 NA 0.0000 9999 4270 0 0 0
2017/11/17 22:59:00 BASE 12.07 8 13.58 7 0.8 82 -1.9 32 87 979.8 NA 0.0000 9999 5350 0 0 0
2017/11/17 23:00:00 BASE 11.47 7 13.58 7 0.8 82 -1.9 31 84 979.8 NA 0.0000 9999 5510 0 0 0
2017/11/17 23:01:00 BASE 11.16 6 13.58 7 0.8 82 -1.9 31 82 979.8 NA 0.0000 9999 5410 0 0 0
2017/11/17 23:02:00 BASE 11.41 4 13.58 7 0.8 82 -1.9 30 81 979.8 NA 0.0000 9999 5050 0 0 0
2017/11/17 23:03:00 BASE 11.51 4 13.58 7 0.9 82 -1.9 30 80 979.8 NA 0.0000 9999 5320 0 0 0
2017/11/17 23:04:00 BASE 11.54 6 13.58 7 0.9 82 -1.9 29 79 979.8 NA 0.0000 9999 5220 0 0 0
2017/11/17 23:05:00 BASE 11.14 9 13.58 7 0.9 82 -1.9 28 77 979.8 NA 0.0000 9999 5120 0 0 0
2017/11/17 23:06:00 BASE 10.45 9 13.58 7 0.9 82 -1.9 28 76 979.8 NA 0.0000 9999 5050 0 0 0
2017/11/17 23:07:00 BASE 10.30 7 13.58 7 0.8 82 -1.9 27 73 979.8 NA 0.0000 9999 4950 0 0 0
2017/11/17 23:08:00 BASE 10.30 6 13.53 13 0.8 82 -1.9 25 70 979.8 NA 0.0000 9999 4270 5840 0 0
2017/11/17 23:09:00 BASE 10.15 6 13.22 5 0.8 82 -2.0 24 67 979.8 NA 0.0000 9999 4270 0 0 0
2017/11/17 23:10:00 BASE 9.89 5 13.22 5 0.7 82 -2.0 23 65 979.8 NA 0.0000 9999 4100 0 0 0
2017/11/17 23:11:00 BASE 9.35 5 13.22 5 0.7 82 -2.0 22 62 979.8 NA 0.0000 9999 5180 0 0 0
2017/11/17 23:12:00 BASE 8.91 8 13.22 5 0.6 83 -2.0 21 60 979.8 NA 0.0000 9999 4690 0 0 0
2017/11/17 23:13:00 BASE 8.79 9 13.22 5 0.6 83 -2.0 21 58 979.8 NA 0.0000 9999 5540 0 0 0
2017/11/17 23:14:00 BASE 8.22 8 11.78 16 0.6 83 -2.0 20 57 979.8 NA 0.0000 9999 4300 0 0 0
2017/11/17 23:15:00 BASE 7.90 6 11.63 8 0.6 83 -2.0 20 56 979.8 NA 0.0000 9999 3840 0 0 0
2017/11/17 23:16:00 BASE 8.03 8 11.63 8 0.6 83 -2.0 19 55 979.8 NA 0.0000 9999 3810 5540 0 0
2017/11/17 23:17:00 BASE 7.97 11 11.37 13 0.6 83 -2.0 19 54 979.8 NA 0.0000 9999 3840 5510 0 0
2017/11/17 23:18:00 BASE 7.73 9 11.32 3 0.6 83 -2.0 19 54 979.8 NA 0.0000 9999 4070 0 0 0
2017/11/17 23:19:00 BASE 7.32 5 10.55 10 0.6 83 -2.0 19 53 979.8 NA 0.0000 9999 4170 0 0 0
2017/11/17 23:20:00 BASE 7.04 4 9.93 8 0.6 83 -2.0 19 53 979.8 NA 0.0000 9999 3810 0 0 0
2017/11/17 23:21:00 BASE 7.00 5 9.93 8 0.6 83 -2.0 19 52 979.8 NA 0.0000 9999 4860 0 0 0
2017/11/17 23:22:00 BASE 7.21 6 9.93 8 0.6 83 -2.0 19 52 979.8 NA 0.0000 9999 5610 0 0 0
2017/11/17 23:23:00 BASE 6.46 3 8.85 13 0.7 83 -2.0 18 52 979.8 NA 0.0000 9999 4170 0 0 0
2017/11/17 23:24:00 BASE 5.72 5 8.85 13 0.7 83 -1.9 18 51 979.8 NA 0.0000 9999 5770 0 0 0
2017/11/17 23:25:00 BASE 5.95 3 8.85 13 0.7 82 -1.9 19 51 979.7 NA 0.0000 9999 6500 0 0 0
2017/11/17 23:26:00 BASE 5.46 357 8.80 360 0.8 82 -2.0 19 51 979.7 NA 0.0000 9999 5610 0 0 0
2017/11/17 23:27:00 BASE 5.44 5 8.80 360 0.8 82 -2.0 19 50 979.7 NA 0.0000 9999 3480 0 0 0
2017/11/17 23:28:00 BASE 5.50 10 8.80 360 0.8 82 -2.0 18 50 979.7 NA 0.0000 9999 6040 0 0 0
2017/11/17 23:29:00 BASE 5.73 12 8.80 360 0.7 82 -2.0 18 49 979.6 NA 0.0000 9999 5840 0 0 0
2017/11/17 23:30:00 BASE 7.78 21 11.78 24 0.7 82 -2.0 18 48 979.5 NA 0.0000 9999 5220 0 0 0
2017/11/17 23:31:00 BASE 10.06 25 12.50 30 0.7 82 -2.0 18 48 979.5 NA 0.0000 9999 4790 0 0 0
2017/11/17 23:32:00 BASE 10.64 24 12.50 30 0.6 83 -2.0 18 48 979.4 NA 0.0000 9999 4720 0 0 0
2017/11/17 23:33:00 BASE 10.37 22 12.50 30 0.6 83 -2.0 18 49 979.4 NA 0.0000 9999 4400 0 0 0
2017/11/17 23:34:00 BASE 10.06 22 12.50 30 0.6 83 -2.0 18 49 979.4 NA 0.0000 9999 4950 0 0 0
2017/11/17 23:35:00 BASE 9.79 22 12.50 30 0.6 83 -1.9 19 50 979.4 NA 0.0000 9999 4860 0 0 0
2017/11/17 23:36:00 BASE 10.28 20 12.60 25 0.6 83 -1.9 19 52 979.4 NA 0.0000 9999 4690 0 0 0
2017/11/17 23:37:00 BASE 10.28 21 12.60 25 0.6 84 -1.9 20 52 979.4 NA 0.0000 UP 9999 5020 0 0 0
2017/11/17 23:38:00 BASE 10.03 23 12.60 25 0.6 84 -1.8 20 53 979.3 NA 0.0000 UP 9999 5090 0 0 0
2017/11/17 23:39:00 BASE 9.13 22 12.60 25 0.6 84 -1.8 21 53 979.4 NA 0.0000 UP 9999 5320 0 0 0
2017/11/17 23:40:00 BASE 8.29 21 12.60 25 0.6 84 -1.8 21 54 979.3 NA 0.0000 UP 9999 4890 0 0 0
2017/11/17 23:41:00 BASE 8.95 21 12.60 25 0.6 84 -1.8 21 55 979.3 NA 0.0000 UP 9999 5610 0 0 0
2017/11/17 23:42:00 BASE 9.36 21 12.60 25 0.6 84 -1.8 22 55 979.3 NA 0.0000 UP 9999 5640 0 0 0
2017/11/17 23:43:00 BASE 9.34 20 12.60 25 0.6 84 -1.8 21 55 979.2 NA 0.0000 UP 9999 5220 0 0 0
2017/11/17 23:44:00 BASE 9.13 18 12.60 25 0.6 84 -1.8 22 55 979.2 NA 0.0000 UP 9999 5120 0 0 0
2017/11/17 23:45:00 BASE 9.30 16 12.60 25 0.6 84 -1.8 22 55 979.1 NA 0.0000 UP 9999 5220 0 0 0
2017/11/17 23:46:00 BASE 9.91 18 13.68 12 0.6 84 -1.8 22 55 979.1 NA 0.0000 9999 4860 0 0 0
2017/11/17 23:47:00 BASE 10.40 18 13.68 12 0.7 84 -1.8 22 54 979.0 NA 0.0000 9999 4990 0 0 0
2017/11/17 23:48:00 BASE 10.28 17 13.68 12 0.7 83 -1.8 21 53 979.0 NA 0.0000 9999 4660 0 0 0
2017/11/17 23:49:00 BASE 9.92 17 13.68 12 0.7 83 -1.8 21 52 979.0 NA 0.0000 9999 4820 0 0 0
2017/11/17 23:50:00 BASE 9.41 16 13.68 12 0.7 83 -1.8 20 51 979.0 NA 0.0000 9999 5120 0 0 0
2017/11/17 23:51:00 BASE 9.21 19 13.68 12 0.6 84 -1.8 20 50 979.0 NA 0.0000 9999 5150 0 0 0
2017/11/17 23:52:00 BASE 8.91 25 13.68 12 0.6 84 -1.8 19 49 978.9 NA 0.0000 9999 5050 0 0 0
2017/11/17 23:53:00 BASE 8.86 30 13.68 12 0.6 84 -1.8 19 48 978.9 NA 0.0000 9999 4860 0 0 0
2017/11/17 23:54:00 BASE 9.48 33 13.68 12 0.6 84 -1.8 19 47 978.8 NA 0.0000 9999 5350 0 0 0
2017/11/17 23:55:00 BASE 9.99 30 13.68 12 0.6 84 -1.8 18 46 978.8 NA 0.0000 9999 5380 0 0 0
2017/11/17 23:56:00 BASE 11.11 25 14.04 28 0.7 84 -1.7 18 45 978.7 NA 0.0000 9999 5740 0 0 0
2017/11/17 23:57:00 BASE 11.16 20 14.04 28 0.7 84 -1.7 17 44 978.6 NA 0.0000 9999 6270 0 0 0
2017/11/17 23:58:00 BASE 10.87 19 14.04 28 0.7 84 -1.7 17 42 978.6 NA 0.0000 9999 5680 0 0 0
2017/11/17 23:59:00 BASE 10.82 21 14.35 28 0.7 84 -1.7 16 41 978.5 NA 0.0000 9999 5580 0 0 0